<?xml version="1.0" encoding="UTF-8" standalone="no" ?>
<gpx xmlns="http://www.topografix.com/GPX/1/1" creator="www.cicloide.com" version="1.1" xmlns:xsi="http://www.w3.org/2001/XMLSchema-instance" xsi:schemaLocation="http://www.topografix.com/GPX/1/1 http://www.topografix.com/GPX/1/1/gpx.xsd">
  <trk>
    <name>www.cicloide.com 13870</name>
    <desc>www.cicloide.com 13870</desc>
    <trkseg>
      <trkpt lat="41.545296000" lon="1.890513000">
        <ele>129.92</ele>
        <time>2013-05-29T12:09:55Z</time>
      </trkpt>
      <trkpt lat="41.545383000" lon="1.890479000">
        <ele>129.92</ele>
        <time>2013-05-29T12:10:02Z</time>
      </trkpt>
      <trkpt lat="41.544662000" lon="1.890901000">
        <ele>129.92</ele>
        <time>2013-05-31T09:43:20Z</time>
      </trkpt>
      <trkpt lat="41.544590000" lon="1.890632000">
        <ele>129.92</ele>
        <time>2013-05-31T09:43:28Z</time>
      </trkpt>
      <trkpt lat="41.544685000" lon="1.890483000">
        <ele>129.43</ele>
        <time>2013-05-31T09:43:32Z</time>
      </trkpt>
      <trkpt lat="41.544926000" lon="1.890163000">
        <ele>129.43</ele>
        <time>2013-05-31T09:43:42Z</time>
      </trkpt>
      <trkpt lat="41.544998000" lon="1.889944000">
        <ele>127.51</ele>
        <time>2013-05-31T09:43:50Z</time>
      </trkpt>
      <trkpt lat="41.545040000" lon="1.889474000">
        <ele>129.43</ele>
        <time>2013-05-31T09:44:02Z</time>
      </trkpt>
      <trkpt lat="41.545033000" lon="1.889312000">
        <ele>129.92</ele>
        <time>2013-05-31T09:44:05Z</time>
      </trkpt>
      <trkpt lat="41.545010000" lon="1.889102000">
        <ele>127.51</ele>
        <time>2013-05-31T09:44:09Z</time>
      </trkpt>
      <trkpt lat="41.544979000" lon="1.888831000">
        <ele>125.11</ele>
        <time>2013-05-31T09:44:14Z</time>
      </trkpt>
      <trkpt lat="41.544956000" lon="1.888664000">
        <ele>124.15</ele>
        <time>2013-05-31T09:44:17Z</time>
      </trkpt>
      <trkpt lat="41.544933000" lon="1.888501000">
        <ele>123.67</ele>
        <time>2013-05-31T09:44:20Z</time>
      </trkpt>
      <trkpt lat="41.544956000" lon="1.888215000">
        <ele>121.74</ele>
        <time>2013-05-31T09:44:25Z</time>
      </trkpt>
      <trkpt lat="41.545017000" lon="1.887888000">
        <ele>120.30</ele>
        <time>2013-05-31T09:44:31Z</time>
      </trkpt>
      <trkpt lat="41.545059000" lon="1.887553000">
        <ele>119.82</ele>
        <time>2013-05-31T09:44:38Z</time>
      </trkpt>
      <trkpt lat="41.545029000" lon="1.887495000">
        <ele>118.86</ele>
        <time>2013-05-31T09:44:40Z</time>
      </trkpt>
      <trkpt lat="41.544952000" lon="1.887445000">
        <ele>117.90</ele>
        <time>2013-05-31T09:44:42Z</time>
      </trkpt>
      <trkpt lat="41.544659000" lon="1.887344000">
        <ele>114.05</ele>
        <time>2013-05-31T09:44:47Z</time>
      </trkpt>
      <trkpt lat="41.544487000" lon="1.887264000">
        <ele>112.13</ele>
        <time>2013-05-31T09:44:50Z</time>
      </trkpt>
      <trkpt lat="41.544300000" lon="1.887212000">
        <ele>110.21</ele>
        <time>2013-05-31T09:44:53Z</time>
      </trkpt>
      <trkpt lat="41.544075000" lon="1.887145000">
        <ele>109.25</ele>
        <time>2013-05-31T09:45:01Z</time>
      </trkpt>
      <trkpt lat="41.544003000" lon="1.887116000">
        <ele>108.77</ele>
        <time>2013-05-31T09:45:03Z</time>
      </trkpt>
      <trkpt lat="41.543915000" lon="1.887093000">
        <ele>108.77</ele>
        <time>2013-05-31T09:45:06Z</time>
      </trkpt>
      <trkpt lat="41.543896000" lon="1.887003000">
        <ele>108.29</ele>
        <time>2013-05-31T09:45:11Z</time>
      </trkpt>
      <trkpt lat="41.543877000" lon="1.887027000">
        <ele>107.32</ele>
        <time>2013-05-31T09:45:23Z</time>
      </trkpt>
      <trkpt lat="41.543892000" lon="1.887027000">
        <ele>106.84</ele>
        <time>2013-05-31T09:45:55Z</time>
      </trkpt>
      <trkpt lat="41.543892000" lon="1.887027000">
        <ele>106.84</ele>
        <time>2013-05-31T09:46:16Z</time>
      </trkpt>
      <trkpt lat="41.543900000" lon="1.887028000">
        <ele>106.84</ele>
        <time>2013-05-31T09:46:35Z</time>
      </trkpt>
      <trkpt lat="41.543900000" lon="1.887028000">
        <ele>106.84</ele>
        <time>2013-05-31T09:46:59Z</time>
      </trkpt>
      <trkpt lat="41.543900000" lon="1.887028000">
        <ele>106.36</ele>
        <time>2013-05-31T09:47:10Z</time>
      </trkpt>
      <trkpt lat="41.543930000" lon="1.887033000">
        <ele>106.84</ele>
        <time>2013-05-31T09:47:25Z</time>
      </trkpt>
      <trkpt lat="41.543926000" lon="1.887038000">
        <ele>106.84</ele>
        <time>2013-05-31T09:47:38Z</time>
      </trkpt>
      <trkpt lat="41.543926000" lon="1.887038000">
        <ele>106.84</ele>
        <time>2013-05-31T09:48:05Z</time>
      </trkpt>
      <trkpt lat="41.543934000" lon="1.887036000">
        <ele>106.84</ele>
        <time>2013-05-31T09:48:12Z</time>
      </trkpt>
      <trkpt lat="41.543941000" lon="1.887014000">
        <ele>107.32</ele>
        <time>2013-05-31T09:48:16Z</time>
      </trkpt>
      <trkpt lat="41.543949000" lon="1.886988000">
        <ele>106.84</ele>
        <time>2013-05-31T09:48:18Z</time>
      </trkpt>
      <trkpt lat="41.543934000" lon="1.886921000">
        <ele>106.84</ele>
        <time>2013-05-31T09:48:22Z</time>
      </trkpt>
      <trkpt lat="41.543892000" lon="1.886788000">
        <ele>106.84</ele>
        <time>2013-05-31T09:48:28Z</time>
      </trkpt>
      <trkpt lat="41.543900000" lon="1.886842000">
        <ele>106.84</ele>
        <time>2013-05-31T09:48:36Z</time>
      </trkpt>
      <trkpt lat="41.543903000" lon="1.886972000">
        <ele>106.84</ele>
        <time>2013-05-31T09:48:41Z</time>
      </trkpt>
      <trkpt lat="41.543941000" lon="1.887040000">
        <ele>106.36</ele>
        <time>2013-05-31T09:48:46Z</time>
      </trkpt>
      <trkpt lat="41.543983000" lon="1.887009000">
        <ele>107.32</ele>
        <time>2013-05-31T09:48:53Z</time>
      </trkpt>
      <trkpt lat="41.544010000" lon="1.886932000">
        <ele>107.32</ele>
        <time>2013-05-31T09:49:05Z</time>
      </trkpt>
      <trkpt lat="41.544010000" lon="1.886932000">
        <ele>107.32</ele>
        <time>2013-05-31T09:49:23Z</time>
      </trkpt>
      <trkpt lat="41.544014000" lon="1.886931000">
        <ele>107.32</ele>
        <time>2013-05-31T09:49:45Z</time>
      </trkpt>
      <trkpt lat="41.544014000" lon="1.886931000">
        <ele>107.32</ele>
        <time>2013-05-31T09:50:07Z</time>
      </trkpt>
      <trkpt lat="41.544018000" lon="1.886934000">
        <ele>107.32</ele>
        <time>2013-05-31T09:50:24Z</time>
      </trkpt>
      <trkpt lat="41.544018000" lon="1.886934000">
        <ele>107.81</ele>
        <time>2013-05-31T09:50:42Z</time>
      </trkpt>
      <trkpt lat="41.543991000" lon="1.886896000">
        <ele>107.81</ele>
        <time>2013-05-31T09:50:45Z</time>
      </trkpt>
      <trkpt lat="41.543976000" lon="1.886884000">
        <ele>107.81</ele>
        <time>2013-05-31T09:50:54Z</time>
      </trkpt>
      <trkpt lat="41.543964000" lon="1.886905000">
        <ele>106.84</ele>
        <time>2013-05-31T09:51:14Z</time>
      </trkpt>
      <trkpt lat="41.543964000" lon="1.886905000">
        <ele>107.81</ele>
        <time>2013-05-31T09:51:33Z</time>
      </trkpt>
      <trkpt lat="41.543953000" lon="1.886875000">
        <ele>107.81</ele>
        <time>2013-05-31T09:52:02Z</time>
      </trkpt>
      <trkpt lat="41.543953000" lon="1.886875000">
        <ele>107.32</ele>
        <time>2013-05-31T09:52:15Z</time>
      </trkpt>
      <trkpt lat="41.543926000" lon="1.886841000">
        <ele>107.81</ele>
        <time>2013-05-31T09:52:18Z</time>
      </trkpt>
      <trkpt lat="41.543900000" lon="1.886797000">
        <ele>107.81</ele>
        <time>2013-05-31T09:52:22Z</time>
      </trkpt>
      <trkpt lat="41.543865000" lon="1.886727000">
        <ele>107.81</ele>
        <time>2013-05-31T09:52:33Z</time>
      </trkpt>
      <trkpt lat="41.543865000" lon="1.886729000">
        <ele>107.81</ele>
        <time>2013-05-31T09:52:50Z</time>
      </trkpt>
      <trkpt lat="41.543865000" lon="1.886729000">
        <ele>107.81</ele>
        <time>2013-05-31T09:53:15Z</time>
      </trkpt>
      <trkpt lat="41.543865000" lon="1.886730000">
        <ele>107.81</ele>
        <time>2013-05-31T09:53:39Z</time>
      </trkpt>
      <trkpt lat="41.543865000" lon="1.886728000">
        <ele>107.32</ele>
        <time>2013-05-31T09:54:04Z</time>
      </trkpt>
      <trkpt lat="41.543865000" lon="1.886728000">
        <ele>107.81</ele>
        <time>2013-05-31T09:54:24Z</time>
      </trkpt>
      <trkpt lat="41.543865000" lon="1.886722000">
        <ele>107.32</ele>
        <time>2013-05-31T09:54:49Z</time>
      </trkpt>
      <trkpt lat="41.543865000" lon="1.886722000">
        <ele>107.81</ele>
        <time>2013-05-31T09:55:09Z</time>
      </trkpt>
      <trkpt lat="41.543861000" lon="1.886724000">
        <ele>107.32</ele>
        <time>2013-05-31T09:55:40Z</time>
      </trkpt>
      <trkpt lat="41.543865000" lon="1.886728000">
        <ele>107.81</ele>
        <time>2013-05-31T09:56:08Z</time>
      </trkpt>
      <trkpt lat="41.543865000" lon="1.886728000">
        <ele>107.81</ele>
        <time>2013-05-31T09:56:31Z</time>
      </trkpt>
      <trkpt lat="41.543869000" lon="1.886743000">
        <ele>107.81</ele>
        <time>2013-05-31T09:56:56Z</time>
      </trkpt>
      <trkpt lat="41.543930000" lon="1.886962000">
        <ele>107.81</ele>
        <time>2013-05-31T09:57:05Z</time>
      </trkpt>
      <trkpt lat="41.544205000" lon="1.887142000">
        <ele>107.32</ele>
        <time>2013-05-31T09:57:16Z</time>
      </trkpt>
      <trkpt lat="41.544334000" lon="1.887213000">
        <ele>107.81</ele>
        <time>2013-05-31T09:57:22Z</time>
      </trkpt>
      <trkpt lat="41.544376000" lon="1.887283000">
        <ele>108.29</ele>
        <time>2013-05-31T09:57:26Z</time>
      </trkpt>
      <trkpt lat="41.544640000" lon="1.887401000">
        <ele>110.21</ele>
        <time>2013-05-31T09:57:38Z</time>
      </trkpt>
      <trkpt lat="41.544945000" lon="1.887502000">
        <ele>112.61</ele>
        <time>2013-05-31T09:57:51Z</time>
      </trkpt>
      <trkpt lat="41.545258000" lon="1.887629000">
        <ele>115.01</ele>
        <time>2013-05-31T09:58:05Z</time>
      </trkpt>
      <trkpt lat="41.545551000" lon="1.887749000">
        <ele>118.38</ele>
        <time>2013-05-31T09:58:17Z</time>
      </trkpt>
      <trkpt lat="41.545795000" lon="1.887863000">
        <ele>120.30</ele>
        <time>2013-05-31T09:58:27Z</time>
      </trkpt>
      <trkpt lat="41.546162000" lon="1.887935000">
        <ele>121.74</ele>
        <time>2013-05-31T09:58:39Z</time>
      </trkpt>
      <trkpt lat="41.546452000" lon="1.888078000">
        <ele>122.71</ele>
        <time>2013-05-31T09:58:51Z</time>
      </trkpt>
      <trkpt lat="41.546741000" lon="1.888094000">
        <ele>125.59</ele>
        <time>2013-05-31T09:59:02Z</time>
      </trkpt>
      <trkpt lat="41.547028000" lon="1.888110000">
        <ele>128.95</ele>
        <time>2013-05-31T09:59:14Z</time>
      </trkpt>
      <trkpt lat="41.547295000" lon="1.888154000">
        <ele>131.84</ele>
        <time>2013-05-31T09:59:25Z</time>
      </trkpt>
      <trkpt lat="41.547462000" lon="1.888170000">
        <ele>134.24</ele>
        <time>2013-05-31T09:59:32Z</time>
      </trkpt>
      <trkpt lat="41.547733000" lon="1.888178000">
        <ele>137.13</ele>
        <time>2013-05-31T09:59:45Z</time>
      </trkpt>
      <trkpt lat="41.548031000" lon="1.888088000">
        <ele>140.01</ele>
        <time>2013-05-31T09:59:58Z</time>
      </trkpt>
      <trkpt lat="41.548370000" lon="1.887985000">
        <ele>142.89</ele>
        <time>2013-05-31T10:00:11Z</time>
      </trkpt>
      <trkpt lat="41.548801000" lon="1.887912000">
        <ele>145.30</ele>
        <time>2013-05-31T10:00:27Z</time>
      </trkpt>
      <trkpt lat="41.549252000" lon="1.887867000">
        <ele>147.70</ele>
        <time>2013-05-31T10:00:43Z</time>
      </trkpt>
      <trkpt lat="41.549629000" lon="1.887838000">
        <ele>150.10</ele>
        <time>2013-05-31T10:00:56Z</time>
      </trkpt>
      <trkpt lat="41.550144000" lon="1.887870000">
        <ele>152.03</ele>
        <time>2013-05-31T10:01:13Z</time>
      </trkpt>
      <trkpt lat="41.550617000" lon="1.888058000">
        <ele>153.47</ele>
        <time>2013-05-31T10:01:29Z</time>
      </trkpt>
      <trkpt lat="41.550961000" lon="1.888212000">
        <ele>156.35</ele>
        <time>2013-05-31T10:01:42Z</time>
      </trkpt>
      <trkpt lat="41.551395000" lon="1.888422000">
        <ele>158.27</ele>
        <time>2013-05-31T10:01:57Z</time>
      </trkpt>
      <trkpt lat="41.551544000" lon="1.888499000">
        <ele>158.75</ele>
        <time>2013-05-31T10:02:02Z</time>
      </trkpt>
      <trkpt lat="41.551670000" lon="1.888875000">
        <ele>160.20</ele>
        <time>2013-05-31T10:02:12Z</time>
      </trkpt>
      <trkpt lat="41.551781000" lon="1.888943000">
        <ele>161.16</ele>
        <time>2013-05-31T10:02:16Z</time>
      </trkpt>
      <trkpt lat="41.552277000" lon="1.889226000">
        <ele>163.56</ele>
        <time>2013-05-31T10:02:34Z</time>
      </trkpt>
      <trkpt lat="41.552696000" lon="1.889455000">
        <ele>166.93</ele>
        <time>2013-05-31T10:02:49Z</time>
      </trkpt>
      <trkpt lat="41.552853000" lon="1.889546000">
        <ele>167.89</ele>
        <time>2013-05-31T10:02:55Z</time>
      </trkpt>
      <trkpt lat="41.552902000" lon="1.889779000">
        <ele>168.85</ele>
        <time>2013-05-31T10:03:01Z</time>
      </trkpt>
      <trkpt lat="41.553001000" lon="1.889868000">
        <ele>168.85</ele>
        <time>2013-05-31T10:03:05Z</time>
      </trkpt>
      <trkpt lat="41.553478000" lon="1.890052000">
        <ele>171.73</ele>
        <time>2013-05-31T10:03:22Z</time>
      </trkpt>
      <trkpt lat="41.553875000" lon="1.890295000">
        <ele>173.17</ele>
        <time>2013-05-31T10:03:37Z</time>
      </trkpt>
      <trkpt lat="41.554012000" lon="1.890760000">
        <ele>173.17</ele>
        <time>2013-05-31T10:03:48Z</time>
      </trkpt>
      <trkpt lat="41.554398000" lon="1.890766000">
        <ele>175.58</ele>
        <time>2013-05-31T10:04:00Z</time>
      </trkpt>
      <trkpt lat="41.554806000" lon="1.890761000">
        <ele>177.98</ele>
        <time>2013-05-31T10:04:15Z</time>
      </trkpt>
      <trkpt lat="41.554859000" lon="1.890764000">
        <ele>178.94</ele>
        <time>2013-05-31T10:04:17Z</time>
      </trkpt>
      <trkpt lat="41.555328000" lon="1.890857000">
        <ele>181.35</ele>
        <time>2013-05-31T10:04:35Z</time>
      </trkpt>
      <trkpt lat="41.555782000" lon="1.890836000">
        <ele>183.75</ele>
        <time>2013-05-31T10:04:51Z</time>
      </trkpt>
      <trkpt lat="41.556122000" lon="1.890789000">
        <ele>186.15</ele>
        <time>2013-05-31T10:05:04Z</time>
      </trkpt>
      <trkpt lat="41.556408000" lon="1.890748000">
        <ele>188.08</ele>
        <time>2013-05-31T10:05:14Z</time>
      </trkpt>
      <trkpt lat="41.556660000" lon="1.890769000">
        <ele>189.52</ele>
        <time>2013-05-31T10:05:23Z</time>
      </trkpt>
      <trkpt lat="41.556694000" lon="1.890951000">
        <ele>190.48</ele>
        <time>2013-05-31T10:05:28Z</time>
      </trkpt>
      <trkpt lat="41.556690000" lon="1.891527000">
        <ele>190.96</ele>
        <time>2013-05-31T10:05:41Z</time>
      </trkpt>
      <trkpt lat="41.556782000" lon="1.891610000">
        <ele>190.48</ele>
        <time>2013-05-31T10:05:45Z</time>
      </trkpt>
      <trkpt lat="41.557129000" lon="1.891665000">
        <ele>194.32</ele>
        <time>2013-05-31T10:05:59Z</time>
      </trkpt>
      <trkpt lat="41.557472000" lon="1.891713000">
        <ele>197.21</ele>
        <time>2013-05-31T10:06:14Z</time>
      </trkpt>
      <trkpt lat="41.557762000" lon="1.891766000">
        <ele>200.09</ele>
        <time>2013-05-31T10:06:27Z</time>
      </trkpt>
      <trkpt lat="41.557934000" lon="1.892055000">
        <ele>202.98</ele>
        <time>2013-05-31T10:06:40Z</time>
      </trkpt>
      <trkpt lat="41.558086000" lon="1.892419000">
        <ele>204.90</ele>
        <time>2013-05-31T10:06:53Z</time>
      </trkpt>
      <trkpt lat="41.558117000" lon="1.892494000">
        <ele>206.34</ele>
        <time>2013-05-31T10:06:56Z</time>
      </trkpt>
      <trkpt lat="41.558193000" lon="1.892654000">
        <ele>209.22</ele>
        <time>2013-05-31T10:07:04Z</time>
      </trkpt>
      <trkpt lat="41.558407000" lon="1.892875000">
        <ele>212.11</ele>
        <time>2013-05-31T10:07:18Z</time>
      </trkpt>
      <trkpt lat="41.558422000" lon="1.892886000">
        <ele>212.11</ele>
        <time>2013-05-31T10:07:19Z</time>
      </trkpt>
      <trkpt lat="41.558537000" lon="1.892925000">
        <ele>214.99</ele>
        <time>2013-05-31T10:07:26Z</time>
      </trkpt>
      <trkpt lat="41.558601000" lon="1.892925000">
        <ele>215.47</ele>
        <time>2013-05-31T10:07:30Z</time>
      </trkpt>
      <trkpt lat="41.558891000" lon="1.892925000">
        <ele>218.36</ele>
        <time>2013-05-31T10:07:45Z</time>
      </trkpt>
      <trkpt lat="41.558922000" lon="1.892929000">
        <ele>218.84</ele>
        <time>2013-05-31T10:07:47Z</time>
      </trkpt>
      <trkpt lat="41.559010000" lon="1.892916000">
        <ele>219.32</ele>
        <time>2013-05-31T10:07:52Z</time>
      </trkpt>
      <trkpt lat="41.559265000" lon="1.893097000">
        <ele>220.76</ele>
        <time>2013-05-31T10:08:07Z</time>
      </trkpt>
      <trkpt lat="41.559486000" lon="1.893240000">
        <ele>223.64</ele>
        <time>2013-05-31T10:08:20Z</time>
      </trkpt>
      <trkpt lat="41.559635000" lon="1.893274000">
        <ele>227.01</ele>
        <time>2013-05-31T10:08:30Z</time>
      </trkpt>
      <trkpt lat="41.559685000" lon="1.893262000">
        <ele>227.97</ele>
        <time>2013-05-31T10:08:34Z</time>
      </trkpt>
      <trkpt lat="41.559860000" lon="1.893295000">
        <ele>231.33</ele>
        <time>2013-05-31T10:08:45Z</time>
      </trkpt>
      <trkpt lat="41.559998000" lon="1.893494000">
        <ele>234.22</ele>
        <time>2013-05-31T10:08:59Z</time>
      </trkpt>
      <trkpt lat="41.560055000" lon="1.893723000">
        <ele>236.14</ele>
        <time>2013-05-31T10:09:11Z</time>
      </trkpt>
      <trkpt lat="41.560177000" lon="1.894003000">
        <ele>237.10</ele>
        <time>2013-05-31T10:09:25Z</time>
      </trkpt>
      <trkpt lat="41.560440000" lon="1.894043000">
        <ele>236.62</ele>
        <time>2013-05-31T10:09:33Z</time>
      </trkpt>
      <trkpt lat="41.560528000" lon="1.893729000">
        <ele>238.54</ele>
        <time>2013-05-31T10:09:42Z</time>
      </trkpt>
      <trkpt lat="41.560593000" lon="1.893618000">
        <ele>239.51</ele>
        <time>2013-05-31T10:09:46Z</time>
      </trkpt>
      <trkpt lat="41.560749000" lon="1.893443000">
        <ele>242.87</ele>
        <time>2013-05-31T10:09:55Z</time>
      </trkpt>
      <trkpt lat="41.560764000" lon="1.893425000">
        <ele>242.87</ele>
        <time>2013-05-31T10:09:56Z</time>
      </trkpt>
      <trkpt lat="41.560799000" lon="1.893397000">
        <ele>244.31</ele>
        <time>2013-05-31T10:09:58Z</time>
      </trkpt>
      <trkpt lat="41.560993000" lon="1.893383000">
        <ele>247.20</ele>
        <time>2013-05-31T10:10:08Z</time>
      </trkpt>
      <trkpt lat="41.561138000" lon="1.893571000">
        <ele>250.08</ele>
        <time>2013-05-31T10:10:20Z</time>
      </trkpt>
      <trkpt lat="41.561184000" lon="1.893655000">
        <ele>251.52</ele>
        <time>2013-05-31T10:10:25Z</time>
      </trkpt>
      <trkpt lat="41.561249000" lon="1.893789000">
        <ele>253.44</ele>
        <time>2013-05-31T10:10:32Z</time>
      </trkpt>
      <trkpt lat="41.561260000" lon="1.893830000">
        <ele>254.41</ele>
        <time>2013-05-31T10:10:34Z</time>
      </trkpt>
      <trkpt lat="41.561295000" lon="1.893871000">
        <ele>255.37</ele>
        <time>2013-05-31T10:10:37Z</time>
      </trkpt>
      <trkpt lat="41.561352000" lon="1.893919000">
        <ele>256.81</ele>
        <time>2013-05-31T10:10:41Z</time>
      </trkpt>
      <trkpt lat="41.561382000" lon="1.893924000">
        <ele>257.29</ele>
        <time>2013-05-31T10:10:43Z</time>
      </trkpt>
      <trkpt lat="41.561436000" lon="1.893830000">
        <ele>258.25</ele>
        <time>2013-05-31T10:10:49Z</time>
      </trkpt>
      <trkpt lat="41.561562000" lon="1.893666000">
        <ele>261.62</ele>
        <time>2013-05-31T10:11:00Z</time>
      </trkpt>
      <trkpt lat="41.561665000" lon="1.893547000">
        <ele>264.98</ele>
        <time>2013-05-31T10:11:08Z</time>
      </trkpt>
      <trkpt lat="41.561741000" lon="1.893516000">
        <ele>266.42</ele>
        <time>2013-05-31T10:11:14Z</time>
      </trkpt>
      <trkpt lat="41.561935000" lon="1.893515000">
        <ele>269.79</ele>
        <time>2013-05-31T10:11:27Z</time>
      </trkpt>
      <trkpt lat="41.562160000" lon="1.893539000">
        <ele>271.71</ele>
        <time>2013-05-31T10:11:41Z</time>
      </trkpt>
      <trkpt lat="41.562195000" lon="1.893550000">
        <ele>272.19</ele>
        <time>2013-05-31T10:11:43Z</time>
      </trkpt>
      <trkpt lat="41.562290000" lon="1.893567000">
        <ele>273.15</ele>
        <time>2013-05-31T10:11:48Z</time>
      </trkpt>
      <trkpt lat="41.562450000" lon="1.893638000">
        <ele>274.11</ele>
        <time>2013-05-31T10:11:58Z</time>
      </trkpt>
      <trkpt lat="41.562531000" lon="1.893695000">
        <ele>274.59</ele>
        <time>2013-05-31T10:12:04Z</time>
      </trkpt>
      <trkpt lat="41.562733000" lon="1.893900000">
        <ele>275.56</ele>
        <time>2013-05-31T10:12:20Z</time>
      </trkpt>
      <trkpt lat="41.562824000" lon="1.893987000">
        <ele>276.52</ele>
        <time>2013-05-31T10:12:27Z</time>
      </trkpt>
      <trkpt lat="41.563011000" lon="1.894140000">
        <ele>278.44</ele>
        <time>2013-05-31T10:12:40Z</time>
      </trkpt>
      <trkpt lat="41.563076000" lon="1.894109000">
        <ele>278.44</ele>
        <time>2013-05-31T10:12:44Z</time>
      </trkpt>
      <trkpt lat="41.563107000" lon="1.894077000">
        <ele>278.92</ele>
        <time>2013-05-31T10:12:46Z</time>
      </trkpt>
      <trkpt lat="41.563213000" lon="1.893775000">
        <ele>280.84</ele>
        <time>2013-05-31T10:12:59Z</time>
      </trkpt>
      <trkpt lat="41.563316000" lon="1.893604000">
        <ele>281.80</ele>
        <time>2013-05-31T10:13:09Z</time>
      </trkpt>
      <trkpt lat="41.563560000" lon="1.893915000">
        <ele>281.80</ele>
        <time>2013-05-31T10:13:24Z</time>
      </trkpt>
      <trkpt lat="41.563725000" lon="1.894432000">
        <ele>282.28</ele>
        <time>2013-05-31T10:13:38Z</time>
      </trkpt>
      <trkpt lat="41.563820000" lon="1.894429000">
        <ele>282.28</ele>
        <time>2013-05-31T10:13:42Z</time>
      </trkpt>
      <trkpt lat="41.564037000" lon="1.894150000">
        <ele>285.65</ele>
        <time>2013-05-31T10:13:56Z</time>
      </trkpt>
      <trkpt lat="41.564110000" lon="1.894040000">
        <ele>286.61</ele>
        <time>2013-05-31T10:14:02Z</time>
      </trkpt>
      <trkpt lat="41.564186000" lon="1.893981000">
        <ele>288.05</ele>
        <time>2013-05-31T10:14:08Z</time>
      </trkpt>
      <trkpt lat="41.564362000" lon="1.893983000">
        <ele>291.42</ele>
        <time>2013-05-31T10:14:20Z</time>
      </trkpt>
      <trkpt lat="41.564419000" lon="1.894002000">
        <ele>292.86</ele>
        <time>2013-05-31T10:14:24Z</time>
      </trkpt>
      <trkpt lat="41.564461000" lon="1.894030000">
        <ele>293.82</ele>
        <time>2013-05-31T10:14:27Z</time>
      </trkpt>
      <trkpt lat="41.564663000" lon="1.893911000">
        <ele>297.18</ele>
        <time>2013-05-31T10:14:41Z</time>
      </trkpt>
      <trkpt lat="41.564743000" lon="1.893838000">
        <ele>298.15</ele>
        <time>2013-05-31T10:14:46Z</time>
      </trkpt>
      <trkpt lat="41.564823000" lon="1.893855000">
        <ele>299.11</ele>
        <time>2013-05-31T10:14:51Z</time>
      </trkpt>
      <trkpt lat="41.564926000" lon="1.893911000">
        <ele>299.59</ele>
        <time>2013-05-31T10:14:57Z</time>
      </trkpt>
      <trkpt lat="41.565201000" lon="1.894004000">
        <ele>301.99</ele>
        <time>2013-05-31T10:15:12Z</time>
      </trkpt>
      <trkpt lat="41.565384000" lon="1.894142000">
        <ele>303.43</ele>
        <time>2013-05-31T10:15:24Z</time>
      </trkpt>
      <trkpt lat="41.565441000" lon="1.894068000">
        <ele>304.39</ele>
        <time>2013-05-31T10:15:28Z</time>
      </trkpt>
      <trkpt lat="41.565491000" lon="1.893869000">
        <ele>305.84</ele>
        <time>2013-05-31T10:15:36Z</time>
      </trkpt>
      <trkpt lat="41.565517000" lon="1.893443000">
        <ele>308.24</ele>
        <time>2013-05-31T10:15:52Z</time>
      </trkpt>
      <trkpt lat="41.565472000" lon="1.892978000">
        <ele>308.72</ele>
        <time>2013-05-31T10:16:06Z</time>
      </trkpt>
      <trkpt lat="41.565418000" lon="1.892552000">
        <ele>310.16</ele>
        <time>2013-05-31T10:16:20Z</time>
      </trkpt>
      <trkpt lat="41.565525000" lon="1.892453000">
        <ele>310.16</ele>
        <time>2013-05-31T10:16:25Z</time>
      </trkpt>
      <trkpt lat="41.565983000" lon="1.892632000">
        <ele>308.72</ele>
        <time>2013-05-31T10:16:37Z</time>
      </trkpt>
      <trkpt lat="41.566177000" lon="1.892650000">
        <ele>309.68</ele>
        <time>2013-05-31T10:16:42Z</time>
      </trkpt>
      <trkpt lat="41.566704000" lon="1.892660000">
        <ele>312.09</ele>
        <time>2013-05-31T10:16:57Z</time>
      </trkpt>
      <trkpt lat="41.567169000" lon="1.892603000">
        <ele>312.09</ele>
        <time>2013-05-31T10:17:10Z</time>
      </trkpt>
      <trkpt lat="41.567501000" lon="1.892592000">
        <ele>311.60</ele>
        <time>2013-05-31T10:17:18Z</time>
      </trkpt>
      <trkpt lat="41.568069000" lon="1.892794000">
        <ele>313.05</ele>
        <time>2013-05-31T10:17:32Z</time>
      </trkpt>
      <trkpt lat="41.568321000" lon="1.892978000">
        <ele>315.45</ele>
        <time>2013-05-31T10:17:43Z</time>
      </trkpt>
      <trkpt lat="41.568466000" lon="1.893427000">
        <ele>316.41</ele>
        <time>2013-05-31T10:17:56Z</time>
      </trkpt>
      <trkpt lat="41.568565000" lon="1.893723000">
        <ele>318.33</ele>
        <time>2013-05-31T10:18:05Z</time>
      </trkpt>
      <trkpt lat="41.568684000" lon="1.893695000">
        <ele>318.81</ele>
        <time>2013-05-31T10:18:09Z</time>
      </trkpt>
      <trkpt lat="41.568962000" lon="1.893294000">
        <ele>321.22</ele>
        <time>2013-05-31T10:18:23Z</time>
      </trkpt>
      <trkpt lat="41.569221000" lon="1.893067000">
        <ele>322.66</ele>
        <time>2013-05-31T10:18:37Z</time>
      </trkpt>
      <trkpt lat="41.569561000" lon="1.892926000">
        <ele>322.66</ele>
        <time>2013-05-31T10:18:49Z</time>
      </trkpt>
      <trkpt lat="41.569992000" lon="1.893086000">
        <ele>324.10</ele>
        <time>2013-05-31T10:19:03Z</time>
      </trkpt>
      <trkpt lat="41.570236000" lon="1.893350000">
        <ele>326.50</ele>
        <time>2013-05-31T10:19:15Z</time>
      </trkpt>
      <trkpt lat="41.570499000" lon="1.893386000">
        <ele>328.43</ele>
        <time>2013-05-31T10:19:25Z</time>
      </trkpt>
      <trkpt lat="41.570812000" lon="1.893555000">
        <ele>328.91</ele>
        <time>2013-05-31T10:19:38Z</time>
      </trkpt>
      <trkpt lat="41.571110000" lon="1.893626000">
        <ele>330.83</ele>
        <time>2013-05-31T10:19:49Z</time>
      </trkpt>
      <trkpt lat="41.571243000" lon="1.893644000">
        <ele>332.27</ele>
        <time>2013-05-31T10:19:54Z</time>
      </trkpt>
      <trkpt lat="41.571533000" lon="1.893771000">
        <ele>334.20</ele>
        <time>2013-05-31T10:20:06Z</time>
      </trkpt>
      <trkpt lat="41.571705000" lon="1.893884000">
        <ele>334.68</ele>
        <time>2013-05-31T10:20:17Z</time>
      </trkpt>
      <trkpt lat="41.571724000" lon="1.893894000">
        <ele>335.16</ele>
        <time>2013-05-31T10:20:18Z</time>
      </trkpt>
      <trkpt lat="41.571934000" lon="1.894130000">
        <ele>336.60</ele>
        <time>2013-05-31T10:20:32Z</time>
      </trkpt>
      <trkpt lat="41.572132000" lon="1.894547000">
        <ele>338.52</ele>
        <time>2013-05-31T10:20:49Z</time>
      </trkpt>
      <trkpt lat="41.572216000" lon="1.894986000">
        <ele>338.52</ele>
        <time>2013-05-31T10:21:03Z</time>
      </trkpt>
      <trkpt lat="41.572227000" lon="1.895036000">
        <ele>338.04</ele>
        <time>2013-05-31T10:21:04Z</time>
      </trkpt>
      <trkpt lat="41.572380000" lon="1.895005000">
        <ele>337.56</ele>
        <time>2013-05-31T10:21:10Z</time>
      </trkpt>
      <trkpt lat="41.572418000" lon="1.894919000">
        <ele>337.08</ele>
        <time>2013-05-31T10:21:12Z</time>
      </trkpt>
      <trkpt lat="41.572712000" lon="1.894677000">
        <ele>335.64</ele>
        <time>2013-05-31T10:21:20Z</time>
      </trkpt>
      <trkpt lat="41.572784000" lon="1.894460000">
        <ele>336.12</ele>
        <time>2013-05-31T10:21:25Z</time>
      </trkpt>
      <trkpt lat="41.572666000" lon="1.894119000">
        <ele>339.48</ele>
        <time>2013-05-31T10:21:38Z</time>
      </trkpt>
      <trkpt lat="41.572578000" lon="1.893913000">
        <ele>341.41</ele>
        <time>2013-05-31T10:21:47Z</time>
      </trkpt>
      <trkpt lat="41.572536000" lon="1.893453000">
        <ele>342.37</ele>
        <time>2013-05-31T10:22:02Z</time>
      </trkpt>
      <trkpt lat="41.572590000" lon="1.893043000">
        <ele>344.29</ele>
        <time>2013-05-31T10:22:16Z</time>
      </trkpt>
      <trkpt lat="41.572613000" lon="1.892700000">
        <ele>346.21</ele>
        <time>2013-05-31T10:22:29Z</time>
      </trkpt>
      <trkpt lat="41.572754000" lon="1.892331000">
        <ele>348.62</ele>
        <time>2013-05-31T10:22:44Z</time>
      </trkpt>
      <trkpt lat="41.572941000" lon="1.892117000">
        <ele>350.06</ele>
        <time>2013-05-31T10:22:56Z</time>
      </trkpt>
      <trkpt lat="41.573048000" lon="1.891784000">
        <ele>352.46</ele>
        <time>2013-05-31T10:23:09Z</time>
      </trkpt>
      <trkpt lat="41.572983000" lon="1.891668000">
        <ele>354.86</ele>
        <time>2013-05-31T10:23:16Z</time>
      </trkpt>
      <trkpt lat="41.572868000" lon="1.891605000">
        <ele>358.23</ele>
        <time>2013-05-31T10:23:25Z</time>
      </trkpt>
      <trkpt lat="41.572662000" lon="1.891545000">
        <ele>361.11</ele>
        <time>2013-05-31T10:23:39Z</time>
      </trkpt>
      <trkpt lat="41.572445000" lon="1.891508000">
        <ele>364.48</ele>
        <time>2013-05-31T10:23:51Z</time>
      </trkpt>
      <trkpt lat="41.572250000" lon="1.891452000">
        <ele>367.84</ele>
        <time>2013-05-31T10:24:02Z</time>
      </trkpt>
      <trkpt lat="41.572231000" lon="1.891445000">
        <ele>367.84</ele>
        <time>2013-05-31T10:24:03Z</time>
      </trkpt>
      <trkpt lat="41.572205000" lon="1.891423000">
        <ele>368.32</ele>
        <time>2013-05-31T10:24:05Z</time>
      </trkpt>
      <trkpt lat="41.572124000" lon="1.891322000">
        <ele>370.24</ele>
        <time>2013-05-31T10:24:12Z</time>
      </trkpt>
      <trkpt lat="41.572094000" lon="1.890995000">
        <ele>373.61</ele>
        <time>2013-05-31T10:24:27Z</time>
      </trkpt>
      <trkpt lat="41.572041000" lon="1.890828000">
        <ele>374.57</ele>
        <time>2013-05-31T10:24:35Z</time>
      </trkpt>
      <trkpt lat="41.571976000" lon="1.890654000">
        <ele>377.94</ele>
        <time>2013-05-31T10:24:46Z</time>
      </trkpt>
      <trkpt lat="41.572002000" lon="1.890628000">
        <ele>378.42</ele>
        <time>2013-05-31T10:24:49Z</time>
      </trkpt>
      <trkpt lat="41.572052000" lon="1.890647000">
        <ele>378.42</ele>
        <time>2013-05-31T10:24:54Z</time>
      </trkpt>
      <trkpt lat="41.572083000" lon="1.890730000">
        <ele>379.38</ele>
        <time>2013-05-31T10:24:59Z</time>
      </trkpt>
      <trkpt lat="41.572144000" lon="1.890766000">
        <ele>379.86</ele>
        <time>2013-05-31T10:25:04Z</time>
      </trkpt>
      <trkpt lat="41.572281000" lon="1.891010000">
        <ele>381.78</ele>
        <time>2013-05-31T10:25:18Z</time>
      </trkpt>
      <trkpt lat="41.572487000" lon="1.891120000">
        <ele>383.22</ele>
        <time>2013-05-31T10:25:31Z</time>
      </trkpt>
      <trkpt lat="41.572788000" lon="1.891176000">
        <ele>383.70</ele>
        <time>2013-05-31T10:25:45Z</time>
      </trkpt>
      <trkpt lat="41.573139000" lon="1.891068000">
        <ele>384.18</ele>
        <time>2013-05-31T10:25:57Z</time>
      </trkpt>
      <trkpt lat="41.573299000" lon="1.891099000">
        <ele>387.07</ele>
        <time>2013-05-31T10:26:05Z</time>
      </trkpt>
      <trkpt lat="41.573353000" lon="1.891115000">
        <ele>387.55</ele>
        <time>2013-05-31T10:26:08Z</time>
      </trkpt>
      <trkpt lat="41.573589000" lon="1.891048000">
        <ele>388.99</ele>
        <time>2013-05-31T10:26:19Z</time>
      </trkpt>
      <trkpt lat="41.573631000" lon="1.891026000">
        <ele>389.47</ele>
        <time>2013-05-31T10:26:21Z</time>
      </trkpt>
      <trkpt lat="41.573681000" lon="1.890907000">
        <ele>391.87</ele>
        <time>2013-05-31T10:26:27Z</time>
      </trkpt>
      <trkpt lat="41.573734000" lon="1.890803000">
        <ele>393.32</ele>
        <time>2013-05-31T10:26:33Z</time>
      </trkpt>
      <trkpt lat="41.573772000" lon="1.890687000">
        <ele>395.24</ele>
        <time>2013-05-31T10:26:40Z</time>
      </trkpt>
      <trkpt lat="41.573856000" lon="1.890746000">
        <ele>395.72</ele>
        <time>2013-05-31T10:26:46Z</time>
      </trkpt>
      <trkpt lat="41.573879000" lon="1.890967000">
        <ele>397.16</ele>
        <time>2013-05-31T10:26:55Z</time>
      </trkpt>
      <trkpt lat="41.573875000" lon="1.891177000">
        <ele>397.64</ele>
        <time>2013-05-31T10:27:04Z</time>
      </trkpt>
      <trkpt lat="41.573853000" lon="1.891580000">
        <ele>398.12</ele>
        <time>2013-05-31T10:27:18Z</time>
      </trkpt>
      <trkpt lat="41.573872000" lon="1.892027000">
        <ele>401.01</ele>
        <time>2013-05-31T10:27:32Z</time>
      </trkpt>
      <trkpt lat="41.573856000" lon="1.892433000">
        <ele>402.45</ele>
        <time>2013-05-31T10:27:46Z</time>
      </trkpt>
      <trkpt lat="41.573662000" lon="1.892806000">
        <ele>404.85</ele>
        <time>2013-05-31T10:27:59Z</time>
      </trkpt>
      <trkpt lat="41.573498000" lon="1.893161000">
        <ele>404.85</ele>
        <time>2013-05-31T10:28:12Z</time>
      </trkpt>
      <trkpt lat="41.573540000" lon="1.893499000">
        <ele>403.89</ele>
        <time>2013-05-31T10:28:22Z</time>
      </trkpt>
      <trkpt lat="41.573700000" lon="1.893892000">
        <ele>402.93</ele>
        <time>2013-05-31T10:28:34Z</time>
      </trkpt>
      <trkpt lat="41.573895000" lon="1.894466000">
        <ele>399.57</ele>
        <time>2013-05-31T10:28:45Z</time>
      </trkpt>
      <trkpt lat="41.573975000" lon="1.894691000">
        <ele>398.60</ele>
        <time>2013-05-31T10:28:48Z</time>
      </trkpt>
      <trkpt lat="41.574261000" lon="1.895309000">
        <ele>401.01</ele>
        <time>2013-05-31T10:29:00Z</time>
      </trkpt>
      <trkpt lat="41.574387000" lon="1.895703000">
        <ele>402.45</ele>
        <time>2013-05-31T10:29:11Z</time>
      </trkpt>
      <trkpt lat="41.574520000" lon="1.895975000">
        <ele>405.81</ele>
        <time>2013-05-31T10:29:22Z</time>
      </trkpt>
      <trkpt lat="41.574673000" lon="1.896112000">
        <ele>408.70</ele>
        <time>2013-05-31T10:29:32Z</time>
      </trkpt>
      <trkpt lat="41.574684000" lon="1.896126000">
        <ele>408.70</ele>
        <time>2013-05-31T10:29:33Z</time>
      </trkpt>
      <trkpt lat="41.574749000" lon="1.896223000">
        <ele>409.66</ele>
        <time>2013-05-31T10:29:38Z</time>
      </trkpt>
      <trkpt lat="41.574917000" lon="1.896332000">
        <ele>413.02</ele>
        <time>2013-05-31T10:29:49Z</time>
      </trkpt>
      <trkpt lat="41.575062000" lon="1.896382000">
        <ele>416.39</ele>
        <time>2013-05-31T10:29:59Z</time>
      </trkpt>
      <trkpt lat="41.575115000" lon="1.896383000">
        <ele>417.35</ele>
        <time>2013-05-31T10:30:03Z</time>
      </trkpt>
      <trkpt lat="41.575275000" lon="1.896375000">
        <ele>420.71</ele>
        <time>2013-05-31T10:30:14Z</time>
      </trkpt>
      <trkpt lat="41.575470000" lon="1.896368000">
        <ele>422.16</ele>
        <time>2013-05-31T10:30:26Z</time>
      </trkpt>
      <trkpt lat="41.575638000" lon="1.896342000">
        <ele>423.12</ele>
        <time>2013-05-31T10:30:36Z</time>
      </trkpt>
      <trkpt lat="41.575882000" lon="1.896399000">
        <ele>426.00</ele>
        <time>2013-05-31T10:30:51Z</time>
      </trkpt>
      <trkpt lat="41.575954000" lon="1.896437000">
        <ele>426.96</ele>
        <time>2013-05-31T10:30:56Z</time>
      </trkpt>
      <trkpt lat="41.576080000" lon="1.896490000">
        <ele>429.37</ele>
        <time>2013-05-31T10:31:05Z</time>
      </trkpt>
      <trkpt lat="41.576313000" lon="1.896526000">
        <ele>431.77</ele>
        <time>2013-05-31T10:31:19Z</time>
      </trkpt>
      <trkpt lat="41.576420000" lon="1.896510000">
        <ele>432.25</ele>
        <time>2013-05-31T10:31:25Z</time>
      </trkpt>
      <trkpt lat="41.576496000" lon="1.896518000">
        <ele>432.73</ele>
        <time>2013-05-31T10:31:29Z</time>
      </trkpt>
      <trkpt lat="41.576614000" lon="1.896536000">
        <ele>434.17</ele>
        <time>2013-05-31T10:31:37Z</time>
      </trkpt>
      <trkpt lat="41.576839000" lon="1.896791000">
        <ele>436.10</ele>
        <time>2013-05-31T10:31:51Z</time>
      </trkpt>
      <trkpt lat="41.576946000" lon="1.897103000">
        <ele>437.54</ele>
        <time>2013-05-31T10:32:03Z</time>
      </trkpt>
      <trkpt lat="41.577122000" lon="1.897369000">
        <ele>439.46</ele>
        <time>2013-05-31T10:32:15Z</time>
      </trkpt>
      <trkpt lat="41.577168000" lon="1.897726000">
        <ele>442.34</ele>
        <time>2013-05-31T10:32:28Z</time>
      </trkpt>
      <trkpt lat="41.577095000" lon="1.898183000">
        <ele>445.23</ele>
        <time>2013-05-31T10:32:42Z</time>
      </trkpt>
      <trkpt lat="41.577106000" lon="1.898379000">
        <ele>447.15</ele>
        <time>2013-05-31T10:32:48Z</time>
      </trkpt>
      <trkpt lat="41.577026000" lon="1.898700000">
        <ele>449.55</ele>
        <time>2013-05-31T10:32:58Z</time>
      </trkpt>
      <trkpt lat="41.577038000" lon="1.898742000">
        <ele>450.52</ele>
        <time>2013-05-31T10:33:00Z</time>
      </trkpt>
      <trkpt lat="41.576969000" lon="1.898825000">
        <ele>450.52</ele>
        <time>2013-05-31T10:33:08Z</time>
      </trkpt>
      <trkpt lat="41.577007000" lon="1.898765000">
        <ele>450.52</ele>
        <time>2013-05-31T10:33:17Z</time>
      </trkpt>
      <trkpt lat="41.577007000" lon="1.898765000">
        <ele>450.52</ele>
        <time>2013-05-31T10:33:41Z</time>
      </trkpt>
      <trkpt lat="41.577015000" lon="1.898764000">
        <ele>451.00</ele>
        <time>2013-05-31T10:34:01Z</time>
      </trkpt>
      <trkpt lat="41.577015000" lon="1.898764000">
        <ele>451.00</ele>
        <time>2013-05-31T10:34:25Z</time>
      </trkpt>
      <trkpt lat="41.577011000" lon="1.898764000">
        <ele>450.52</ele>
        <time>2013-05-31T10:34:51Z</time>
      </trkpt>
      <trkpt lat="41.577087000" lon="1.898830000">
        <ele>450.03</ele>
        <time>2013-05-31T10:35:11Z</time>
      </trkpt>
      <trkpt lat="41.577106000" lon="1.898839000">
        <ele>450.52</ele>
        <time>2013-05-31T10:35:12Z</time>
      </trkpt>
      <trkpt lat="41.577385000" lon="1.898743000">
        <ele>451.48</ele>
        <time>2013-05-31T10:35:26Z</time>
      </trkpt>
      <trkpt lat="41.577435000" lon="1.898896000">
        <ele>453.40</ele>
        <time>2013-05-31T10:35:34Z</time>
      </trkpt>
      <trkpt lat="41.577454000" lon="1.898953000">
        <ele>453.88</ele>
        <time>2013-05-31T10:35:44Z</time>
      </trkpt>
      <trkpt lat="41.577477000" lon="1.899006000">
        <ele>455.32</ele>
        <time>2013-05-31T10:35:55Z</time>
      </trkpt>
      <trkpt lat="41.577515000" lon="1.899062000">
        <ele>455.80</ele>
        <time>2013-05-31T10:36:08Z</time>
      </trkpt>
      <trkpt lat="41.577515000" lon="1.899062000">
        <ele>456.28</ele>
        <time>2013-05-31T10:36:24Z</time>
      </trkpt>
      <trkpt lat="41.577518000" lon="1.899062000">
        <ele>456.28</ele>
        <time>2013-05-31T10:36:45Z</time>
      </trkpt>
      <trkpt lat="41.577518000" lon="1.899061000">
        <ele>455.80</ele>
        <time>2013-05-31T10:37:01Z</time>
      </trkpt>
      <trkpt lat="41.577515000" lon="1.899064000">
        <ele>456.28</ele>
        <time>2013-05-31T10:37:34Z</time>
      </trkpt>
      <trkpt lat="41.577515000" lon="1.899064000">
        <ele>455.80</ele>
        <time>2013-05-31T10:37:51Z</time>
      </trkpt>
      <trkpt lat="41.577515000" lon="1.899064000">
        <ele>455.32</ele>
        <time>2013-05-31T10:38:16Z</time>
      </trkpt>
      <trkpt lat="41.577515000" lon="1.899065000">
        <ele>457.24</ele>
        <time>2013-05-31T10:38:37Z</time>
      </trkpt>
      <trkpt lat="41.577515000" lon="1.899065000">
        <ele>455.32</ele>
        <time>2013-05-31T10:38:59Z</time>
      </trkpt>
      <trkpt lat="41.577511000" lon="1.899069000">
        <ele>457.72</ele>
        <time>2013-05-31T10:39:29Z</time>
      </trkpt>
      <trkpt lat="41.577511000" lon="1.899069000">
        <ele>457.24</ele>
        <time>2013-05-31T10:39:38Z</time>
      </trkpt>
      <trkpt lat="41.577511000" lon="1.899067000">
        <ele>456.76</ele>
        <time>2013-05-31T10:39:55Z</time>
      </trkpt>
      <trkpt lat="41.577515000" lon="1.899067000">
        <ele>452.92</ele>
        <time>2013-05-31T10:40:24Z</time>
      </trkpt>
      <trkpt lat="41.577515000" lon="1.899067000">
        <ele>457.72</ele>
        <time>2013-05-31T10:40:25Z</time>
      </trkpt>
      <trkpt lat="41.577515000" lon="1.899067000">
        <ele>456.28</ele>
        <time>2013-05-31T10:40:28Z</time>
      </trkpt>
      <trkpt lat="41.577515000" lon="1.899067000">
        <ele>456.76</ele>
        <time>2013-05-31T10:40:36Z</time>
      </trkpt>
      <trkpt lat="41.577515000" lon="1.899067000">
        <ele>456.76</ele>
        <time>2013-05-31T10:40:49Z</time>
      </trkpt>
      <trkpt lat="41.577507000" lon="1.899062000">
        <ele>455.32</ele>
        <time>2013-05-31T10:41:00Z</time>
      </trkpt>
      <trkpt lat="41.577507000" lon="1.899062000">
        <ele>455.32</ele>
        <time>2013-05-31T10:41:20Z</time>
      </trkpt>
      <trkpt lat="41.577511000" lon="1.899063000">
        <ele>455.80</ele>
        <time>2013-05-31T10:41:42Z</time>
      </trkpt>
      <trkpt lat="41.577511000" lon="1.899063000">
        <ele>456.28</ele>
        <time>2013-05-31T10:42:08Z</time>
      </trkpt>
      <trkpt lat="41.577511000" lon="1.899063000">
        <ele>455.32</ele>
        <time>2013-05-31T10:42:39Z</time>
      </trkpt>
      <trkpt lat="41.577511000" lon="1.899055000">
        <ele>456.28</ele>
        <time>2013-05-31T10:43:14Z</time>
      </trkpt>
      <trkpt lat="41.577511000" lon="1.899055000">
        <ele>456.28</ele>
        <time>2013-05-31T10:43:40Z</time>
      </trkpt>
      <trkpt lat="41.577511000" lon="1.899055000">
        <ele>456.28</ele>
        <time>2013-05-31T10:44:09Z</time>
      </trkpt>
      <trkpt lat="41.577507000" lon="1.899056000">
        <ele>455.80</ele>
        <time>2013-05-31T10:44:24Z</time>
      </trkpt>
      <trkpt lat="41.577507000" lon="1.899056000">
        <ele>456.28</ele>
        <time>2013-05-31T10:44:48Z</time>
      </trkpt>
      <trkpt lat="41.577507000" lon="1.899058000">
        <ele>455.80</ele>
        <time>2013-05-31T10:45:09Z</time>
      </trkpt>
      <trkpt lat="41.577499000" lon="1.899046000">
        <ele>456.76</ele>
        <time>2013-05-31T10:45:39Z</time>
      </trkpt>
      <trkpt lat="41.577499000" lon="1.899040000">
        <ele>455.80</ele>
        <time>2013-05-31T10:46:11Z</time>
      </trkpt>
      <trkpt lat="41.577499000" lon="1.899040000">
        <ele>455.80</ele>
        <time>2013-05-31T10:46:37Z</time>
      </trkpt>
      <trkpt lat="41.577499000" lon="1.899038000">
        <ele>455.80</ele>
        <time>2013-05-31T10:47:05Z</time>
      </trkpt>
      <trkpt lat="41.577507000" lon="1.899041000">
        <ele>455.80</ele>
        <time>2013-05-31T10:47:40Z</time>
      </trkpt>
      <trkpt lat="41.577507000" lon="1.899041000">
        <ele>455.80</ele>
        <time>2013-05-31T10:47:52Z</time>
      </trkpt>
      <trkpt lat="41.577515000" lon="1.899056000">
        <ele>455.80</ele>
        <time>2013-05-31T10:48:08Z</time>
      </trkpt>
      <trkpt lat="41.577518000" lon="1.899057000">
        <ele>456.28</ele>
        <time>2013-05-31T10:48:42Z</time>
      </trkpt>
      <trkpt lat="41.577515000" lon="1.899058000">
        <ele>455.80</ele>
        <time>2013-05-31T10:49:15Z</time>
      </trkpt>
      <trkpt lat="41.577518000" lon="1.899058000">
        <ele>455.80</ele>
        <time>2013-05-31T10:49:35Z</time>
      </trkpt>
      <trkpt lat="41.577518000" lon="1.899058000">
        <ele>455.32</ele>
        <time>2013-05-31T10:49:41Z</time>
      </trkpt>
      <trkpt lat="41.577606000" lon="1.899082000">
        <ele>453.40</ele>
        <time>2013-05-31T10:49:48Z</time>
      </trkpt>
      <trkpt lat="41.577671000" lon="1.899060000">
        <ele>451.96</ele>
        <time>2013-05-31T10:49:52Z</time>
      </trkpt>
      <trkpt lat="41.577785000" lon="1.899056000">
        <ele>451.48</ele>
        <time>2013-05-31T10:49:58Z</time>
      </trkpt>
      <trkpt lat="41.577873000" lon="1.899081000">
        <ele>451.48</ele>
        <time>2013-05-31T10:50:05Z</time>
      </trkpt>
      <trkpt lat="41.577896000" lon="1.899082000">
        <ele>451.48</ele>
        <time>2013-05-31T10:50:07Z</time>
      </trkpt>
      <trkpt lat="41.577976000" lon="1.899098000">
        <ele>451.96</ele>
        <time>2013-05-31T10:50:12Z</time>
      </trkpt>
      <trkpt lat="41.578094000" lon="1.899197000">
        <ele>452.44</ele>
        <time>2013-05-31T10:50:20Z</time>
      </trkpt>
      <trkpt lat="41.578110000" lon="1.899330000">
        <ele>452.44</ele>
        <time>2013-05-31T10:50:25Z</time>
      </trkpt>
      <trkpt lat="41.578094000" lon="1.899417000">
        <ele>452.92</ele>
        <time>2013-05-31T10:50:34Z</time>
      </trkpt>
      <trkpt lat="41.578136000" lon="1.899611000">
        <ele>453.88</ele>
        <time>2013-05-31T10:50:45Z</time>
      </trkpt>
      <trkpt lat="41.578148000" lon="1.899707000">
        <ele>454.36</ele>
        <time>2013-05-31T10:50:55Z</time>
      </trkpt>
      <trkpt lat="41.578186000" lon="1.899809000">
        <ele>454.84</ele>
        <time>2013-05-31T10:51:05Z</time>
      </trkpt>
      <trkpt lat="41.578186000" lon="1.899943000">
        <ele>456.28</ele>
        <time>2013-05-31T10:51:17Z</time>
      </trkpt>
      <trkpt lat="41.578224000" lon="1.899958000">
        <ele>457.72</ele>
        <time>2013-05-31T10:51:30Z</time>
      </trkpt>
      <trkpt lat="41.578259000" lon="1.899957000">
        <ele>458.69</ele>
        <time>2013-05-31T10:51:43Z</time>
      </trkpt>
      <trkpt lat="41.578270000" lon="1.899957000">
        <ele>459.65</ele>
        <time>2013-05-31T10:51:54Z</time>
      </trkpt>
      <trkpt lat="41.578327000" lon="1.899956000">
        <ele>460.13</ele>
        <time>2013-05-31T10:52:05Z</time>
      </trkpt>
      <trkpt lat="41.578377000" lon="1.899951000">
        <ele>461.57</ele>
        <time>2013-05-31T10:52:16Z</time>
      </trkpt>
      <trkpt lat="41.578396000" lon="1.899947000">
        <ele>461.57</ele>
        <time>2013-05-31T10:52:30Z</time>
      </trkpt>
      <trkpt lat="41.578445000" lon="1.899935000">
        <ele>463.01</ele>
        <time>2013-05-31T10:52:39Z</time>
      </trkpt>
      <trkpt lat="41.578442000" lon="1.899932000">
        <ele>463.01</ele>
        <time>2013-05-31T10:52:58Z</time>
      </trkpt>
      <trkpt lat="41.578457000" lon="1.899935000">
        <ele>463.49</ele>
        <time>2013-05-31T10:53:23Z</time>
      </trkpt>
      <trkpt lat="41.578472000" lon="1.899928000">
        <ele>464.45</ele>
        <time>2013-05-31T10:53:27Z</time>
      </trkpt>
      <trkpt lat="41.578533000" lon="1.899929000">
        <ele>464.45</ele>
        <time>2013-05-31T10:53:37Z</time>
      </trkpt>
      <trkpt lat="41.578598000" lon="1.899966000">
        <ele>463.01</ele>
        <time>2013-05-31T10:53:50Z</time>
      </trkpt>
      <trkpt lat="41.578602000" lon="1.899977000">
        <ele>463.01</ele>
        <time>2013-05-31T10:54:06Z</time>
      </trkpt>
      <trkpt lat="41.578621000" lon="1.900012000">
        <ele>462.05</ele>
        <time>2013-05-31T10:54:17Z</time>
      </trkpt>
      <trkpt lat="41.578609000" lon="1.900160000">
        <ele>457.72</ele>
        <time>2013-05-31T10:54:23Z</time>
      </trkpt>
      <trkpt lat="41.578609000" lon="1.900279000">
        <ele>455.80</ele>
        <time>2013-05-31T10:54:26Z</time>
      </trkpt>
      <trkpt lat="41.578636000" lon="1.900457000">
        <ele>455.32</ele>
        <time>2013-05-31T10:54:33Z</time>
      </trkpt>
      <trkpt lat="41.578674000" lon="1.900623000">
        <ele>455.80</ele>
        <time>2013-05-31T10:54:40Z</time>
      </trkpt>
      <trkpt lat="41.578690000" lon="1.900701000">
        <ele>457.24</ele>
        <time>2013-05-31T10:54:43Z</time>
      </trkpt>
      <trkpt lat="41.578690000" lon="1.900721000">
        <ele>457.72</ele>
        <time>2013-05-31T10:54:44Z</time>
      </trkpt>
      <trkpt lat="41.578747000" lon="1.900849000">
        <ele>460.13</ele>
        <time>2013-05-31T10:54:51Z</time>
      </trkpt>
      <trkpt lat="41.578751000" lon="1.900870000">
        <ele>459.65</ele>
        <time>2013-05-31T10:54:52Z</time>
      </trkpt>
      <trkpt lat="41.578735000" lon="1.900958000">
        <ele>460.61</ele>
        <time>2013-05-31T10:54:57Z</time>
      </trkpt>
      <trkpt lat="41.578724000" lon="1.900992000">
        <ele>461.57</ele>
        <time>2013-05-31T10:54:59Z</time>
      </trkpt>
      <trkpt lat="41.578735000" lon="1.901061000">
        <ele>461.57</ele>
        <time>2013-05-31T10:55:03Z</time>
      </trkpt>
      <trkpt lat="41.578777000" lon="1.901189000">
        <ele>461.57</ele>
        <time>2013-05-31T10:55:10Z</time>
      </trkpt>
      <trkpt lat="41.578796000" lon="1.901203000">
        <ele>460.61</ele>
        <time>2013-05-31T10:55:23Z</time>
      </trkpt>
      <trkpt lat="41.578796000" lon="1.901203000">
        <ele>460.61</ele>
        <time>2013-05-31T10:55:44Z</time>
      </trkpt>
      <trkpt lat="41.578796000" lon="1.901201000">
        <ele>460.61</ele>
        <time>2013-05-31T10:56:17Z</time>
      </trkpt>
      <trkpt lat="41.578796000" lon="1.901199000">
        <ele>461.57</ele>
        <time>2013-05-31T10:56:40Z</time>
      </trkpt>
      <trkpt lat="41.578796000" lon="1.901199000">
        <ele>460.61</ele>
        <time>2013-05-31T10:57:11Z</time>
      </trkpt>
      <trkpt lat="41.578796000" lon="1.901200000">
        <ele>459.65</ele>
        <time>2013-05-31T10:57:41Z</time>
      </trkpt>
      <trkpt lat="41.578808000" lon="1.901243000">
        <ele>458.69</ele>
        <time>2013-05-31T10:57:53Z</time>
      </trkpt>
      <trkpt lat="41.578808000" lon="1.901243000">
        <ele>459.17</ele>
        <time>2013-05-31T10:58:15Z</time>
      </trkpt>
      <trkpt lat="41.578785000" lon="1.901218000">
        <ele>459.65</ele>
        <time>2013-05-31T10:58:32Z</time>
      </trkpt>
      <trkpt lat="41.578793000" lon="1.901222000">
        <ele>459.65</ele>
        <time>2013-05-31T10:58:45Z</time>
      </trkpt>
      <trkpt lat="41.578793000" lon="1.901222000">
        <ele>459.17</ele>
        <time>2013-05-31T10:59:03Z</time>
      </trkpt>
      <trkpt lat="41.578793000" lon="1.901221000">
        <ele>459.17</ele>
        <time>2013-05-31T10:59:23Z</time>
      </trkpt>
      <trkpt lat="41.578793000" lon="1.901221000">
        <ele>459.65</ele>
        <time>2013-05-31T10:59:39Z</time>
      </trkpt>
      <trkpt lat="41.578777000" lon="1.901223000">
        <ele>460.13</ele>
        <time>2013-05-31T10:59:49Z</time>
      </trkpt>
      <trkpt lat="41.578777000" lon="1.901223000">
        <ele>459.17</ele>
        <time>2013-05-31T11:00:19Z</time>
      </trkpt>
      <trkpt lat="41.578777000" lon="1.901221000">
        <ele>458.21</ele>
        <time>2013-05-31T11:00:47Z</time>
      </trkpt>
      <trkpt lat="41.578777000" lon="1.901221000">
        <ele>458.21</ele>
        <time>2013-05-31T11:01:04Z</time>
      </trkpt>
      <trkpt lat="41.578773000" lon="1.901221000">
        <ele>458.69</ele>
        <time>2013-05-31T11:01:31Z</time>
      </trkpt>
      <trkpt lat="41.578773000" lon="1.901221000">
        <ele>459.65</ele>
        <time>2013-05-31T11:02:01Z</time>
      </trkpt>
      <trkpt lat="41.578777000" lon="1.901222000">
        <ele>458.69</ele>
        <time>2013-05-31T11:02:37Z</time>
      </trkpt>
      <trkpt lat="41.578781000" lon="1.901232000">
        <ele>457.72</ele>
        <time>2013-05-31T11:02:46Z</time>
      </trkpt>
      <trkpt lat="41.578815000" lon="1.901418000">
        <ele>454.36</ele>
        <time>2013-05-31T11:02:52Z</time>
      </trkpt>
      <trkpt lat="41.578815000" lon="1.901455000">
        <ele>453.88</ele>
        <time>2013-05-31T11:02:53Z</time>
      </trkpt>
      <trkpt lat="41.578857000" lon="1.901652000">
        <ele>452.44</ele>
        <time>2013-05-31T11:03:00Z</time>
      </trkpt>
      <trkpt lat="41.578892000" lon="1.901834000">
        <ele>448.11</ele>
        <time>2013-05-31T11:03:04Z</time>
      </trkpt>
      <trkpt lat="41.578899000" lon="1.901886000">
        <ele>447.63</ele>
        <time>2013-05-31T11:03:05Z</time>
      </trkpt>
      <trkpt lat="41.578972000" lon="1.902091000">
        <ele>442.82</ele>
        <time>2013-05-31T11:03:09Z</time>
      </trkpt>
      <trkpt lat="41.579002000" lon="1.902293000">
        <ele>439.94</ele>
        <time>2013-05-31T11:03:13Z</time>
      </trkpt>
      <trkpt lat="41.579041000" lon="1.902569000">
        <ele>434.65</ele>
        <time>2013-05-31T11:03:18Z</time>
      </trkpt>
      <trkpt lat="41.579010000" lon="1.902846000">
        <ele>430.81</ele>
        <time>2013-05-31T11:03:22Z</time>
      </trkpt>
      <trkpt lat="41.578999000" lon="1.902912000">
        <ele>429.37</ele>
        <time>2013-05-31T11:03:23Z</time>
      </trkpt>
      <trkpt lat="41.579006000" lon="1.903188000">
        <ele>425.52</ele>
        <time>2013-05-31T11:03:27Z</time>
      </trkpt>
      <trkpt lat="41.579048000" lon="1.903425000">
        <ele>423.12</ele>
        <time>2013-05-31T11:03:30Z</time>
      </trkpt>
      <trkpt lat="41.579086000" lon="1.903621000">
        <ele>421.19</ele>
        <time>2013-05-31T11:03:33Z</time>
      </trkpt>
      <trkpt lat="41.579109000" lon="1.903807000">
        <ele>418.31</ele>
        <time>2013-05-31T11:03:36Z</time>
      </trkpt>
      <trkpt lat="41.579128000" lon="1.903978000">
        <ele>414.47</ele>
        <time>2013-05-31T11:03:39Z</time>
      </trkpt>
      <trkpt lat="41.579216000" lon="1.904185000">
        <ele>410.62</ele>
        <time>2013-05-31T11:03:43Z</time>
      </trkpt>
      <trkpt lat="41.579330000" lon="1.904475000">
        <ele>407.26</ele>
        <time>2013-05-31T11:03:47Z</time>
      </trkpt>
      <trkpt lat="41.579472000" lon="1.904719000">
        <ele>404.37</ele>
        <time>2013-05-31T11:03:53Z</time>
      </trkpt>
      <trkpt lat="41.579494000" lon="1.904738000">
        <ele>402.93</ele>
        <time>2013-05-31T11:04:02Z</time>
      </trkpt>
      <trkpt lat="41.579521000" lon="1.904761000">
        <ele>403.41</ele>
        <time>2013-05-31T11:04:07Z</time>
      </trkpt>
      <trkpt lat="41.579651000" lon="1.904881000">
        <ele>400.05</ele>
        <time>2013-05-31T11:04:11Z</time>
      </trkpt>
      <trkpt lat="41.579742000" lon="1.904965000">
        <ele>396.20</ele>
        <time>2013-05-31T11:04:14Z</time>
      </trkpt>
      <trkpt lat="41.579849000" lon="1.905074000">
        <ele>392.84</ele>
        <time>2013-05-31T11:04:17Z</time>
      </trkpt>
      <trkpt lat="41.579964000" lon="1.905339000">
        <ele>388.99</ele>
        <time>2013-05-31T11:04:22Z</time>
      </trkpt>
      <trkpt lat="41.579983000" lon="1.905456000">
        <ele>387.55</ele>
        <time>2013-05-31T11:04:24Z</time>
      </trkpt>
      <trkpt lat="41.580063000" lon="1.905791000">
        <ele>387.55</ele>
        <time>2013-05-31T11:04:31Z</time>
      </trkpt>
      <trkpt lat="41.580208000" lon="1.906053000">
        <ele>385.15</ele>
        <time>2013-05-31T11:04:35Z</time>
      </trkpt>
      <trkpt lat="41.580391000" lon="1.906181000">
        <ele>382.74</ele>
        <time>2013-05-31T11:04:39Z</time>
      </trkpt>
      <trkpt lat="41.580524000" lon="1.906236000">
        <ele>379.86</ele>
        <time>2013-05-31T11:04:42Z</time>
      </trkpt>
      <trkpt lat="41.580654000" lon="1.906349000">
        <ele>376.01</ele>
        <time>2013-05-31T11:04:45Z</time>
      </trkpt>
      <trkpt lat="41.580738000" lon="1.906462000">
        <ele>374.09</ele>
        <time>2013-05-31T11:04:47Z</time>
      </trkpt>
      <trkpt lat="41.580811000" lon="1.906612000">
        <ele>372.65</ele>
        <time>2013-05-31T11:04:49Z</time>
      </trkpt>
      <trkpt lat="41.580872000" lon="1.906752000">
        <ele>371.21</ele>
        <time>2013-05-31T11:04:51Z</time>
      </trkpt>
      <trkpt lat="41.580971000" lon="1.907089000">
        <ele>366.88</ele>
        <time>2013-05-31T11:04:55Z</time>
      </trkpt>
      <trkpt lat="41.581047000" lon="1.907263000">
        <ele>365.92</ele>
        <time>2013-05-31T11:04:57Z</time>
      </trkpt>
      <trkpt lat="41.581173000" lon="1.907403000">
        <ele>364.48</ele>
        <time>2013-05-31T11:04:59Z</time>
      </trkpt>
      <trkpt lat="41.581242000" lon="1.907467000">
        <ele>363.52</ele>
        <time>2013-05-31T11:05:00Z</time>
      </trkpt>
      <trkpt lat="41.581635000" lon="1.907939000">
        <ele>360.15</ele>
        <time>2013-05-31T11:05:06Z</time>
      </trkpt>
      <trkpt lat="41.581860000" lon="1.908199000">
        <ele>355.83</ele>
        <time>2013-05-31T11:05:09Z</time>
      </trkpt>
      <trkpt lat="41.582283000" lon="1.908682000">
        <ele>352.46</ele>
        <time>2013-05-31T11:05:16Z</time>
      </trkpt>
      <trkpt lat="41.582447000" lon="1.909176000">
        <ele>350.54</ele>
        <time>2013-05-31T11:05:22Z</time>
      </trkpt>
      <trkpt lat="41.582497000" lon="1.909446000">
        <ele>349.10</ele>
        <time>2013-05-31T11:05:25Z</time>
      </trkpt>
      <trkpt lat="41.582565000" lon="1.909850000">
        <ele>346.21</ele>
        <time>2013-05-31T11:05:29Z</time>
      </trkpt>
      <trkpt lat="41.582653000" lon="1.910144000">
        <ele>345.73</ele>
        <time>2013-05-31T11:05:32Z</time>
      </trkpt>
      <trkpt lat="41.582542000" lon="1.910716000">
        <ele>344.77</ele>
        <time>2013-05-31T11:05:39Z</time>
      </trkpt>
      <trkpt lat="41.582554000" lon="1.910801000">
        <ele>344.77</ele>
        <time>2013-05-31T11:05:40Z</time>
      </trkpt>
      <trkpt lat="41.582664000" lon="1.911260000">
        <ele>341.41</ele>
        <time>2013-05-31T11:05:45Z</time>
      </trkpt>
      <trkpt lat="41.582691000" lon="1.911367000">
        <ele>341.41</ele>
        <time>2013-05-31T11:05:46Z</time>
      </trkpt>
      <trkpt lat="41.582840000" lon="1.911746000">
        <ele>339.96</ele>
        <time>2013-05-31T11:05:50Z</time>
      </trkpt>
      <trkpt lat="41.582993000" lon="1.912226000">
        <ele>338.04</ele>
        <time>2013-05-31T11:05:55Z</time>
      </trkpt>
      <trkpt lat="41.583202000" lon="1.912571000">
        <ele>335.64</ele>
        <time>2013-05-31T11:05:59Z</time>
      </trkpt>
      <trkpt lat="41.583298000" lon="1.912746000">
        <ele>334.68</ele>
        <time>2013-05-31T11:06:01Z</time>
      </trkpt>
      <trkpt lat="41.583458000" lon="1.913061000">
        <ele>333.23</ele>
        <time>2013-05-31T11:06:05Z</time>
      </trkpt>
      <trkpt lat="41.583523000" lon="1.913361000">
        <ele>333.23</ele>
        <time>2013-05-31T11:06:09Z</time>
      </trkpt>
      <trkpt lat="41.583515000" lon="1.913813000">
        <ele>332.75</ele>
        <time>2013-05-31T11:06:18Z</time>
      </trkpt>
      <trkpt lat="41.583508000" lon="1.914103000">
        <ele>332.27</ele>
        <time>2013-05-31T11:06:26Z</time>
      </trkpt>
      <trkpt lat="41.583511000" lon="1.914126000">
        <ele>332.27</ele>
        <time>2013-05-31T11:06:28Z</time>
      </trkpt>
      <trkpt lat="41.583515000" lon="1.914041000">
        <ele>331.79</ele>
        <time>2013-05-31T11:06:33Z</time>
      </trkpt>
      <trkpt lat="41.583511000" lon="1.913542000">
        <ele>333.71</ele>
        <time>2013-05-31T11:06:46Z</time>
      </trkpt>
      <trkpt lat="41.583511000" lon="1.913477000">
        <ele>333.71</ele>
        <time>2013-05-31T11:06:48Z</time>
      </trkpt>
      <trkpt lat="41.583595000" lon="1.913399000">
        <ele>332.27</ele>
        <time>2013-05-31T11:06:51Z</time>
      </trkpt>
      <trkpt lat="41.584003000" lon="1.913280000">
        <ele>331.79</ele>
        <time>2013-05-31T11:07:02Z</time>
      </trkpt>
      <trkpt lat="41.584118000" lon="1.913209000">
        <ele>332.75</ele>
        <time>2013-05-31T11:07:07Z</time>
      </trkpt>
      <trkpt lat="41.584236000" lon="1.913223000">
        <ele>333.71</ele>
        <time>2013-05-31T11:07:13Z</time>
      </trkpt>
      <trkpt lat="41.584320000" lon="1.913222000">
        <ele>334.20</ele>
        <time>2013-05-31T11:07:17Z</time>
      </trkpt>
      <trkpt lat="41.584404000" lon="1.913225000">
        <ele>335.16</ele>
        <time>2013-05-31T11:07:21Z</time>
      </trkpt>
      <trkpt lat="41.584602000" lon="1.913309000">
        <ele>338.04</ele>
        <time>2013-05-31T11:07:32Z</time>
      </trkpt>
      <trkpt lat="41.584686000" lon="1.913277000">
        <ele>339.00</ele>
        <time>2013-05-31T11:07:37Z</time>
      </trkpt>
      <trkpt lat="41.584805000" lon="1.913418000">
        <ele>340.44</ele>
        <time>2013-05-31T11:07:45Z</time>
      </trkpt>
      <trkpt lat="41.584827000" lon="1.913495000">
        <ele>340.44</ele>
        <time>2013-05-31T11:07:49Z</time>
      </trkpt>
      <trkpt lat="41.584866000" lon="1.913557000">
        <ele>340.92</ele>
        <time>2013-05-31T11:07:52Z</time>
      </trkpt>
      <trkpt lat="41.584923000" lon="1.913641000">
        <ele>341.89</ele>
        <time>2013-05-31T11:07:58Z</time>
      </trkpt>
      <trkpt lat="41.585026000" lon="1.913645000">
        <ele>344.29</ele>
        <time>2013-05-31T11:08:06Z</time>
      </trkpt>
      <trkpt lat="41.585049000" lon="1.913595000">
        <ele>344.77</ele>
        <time>2013-05-31T11:08:10Z</time>
      </trkpt>
      <trkpt lat="41.585072000" lon="1.913584000">
        <ele>345.73</ele>
        <time>2013-05-31T11:08:12Z</time>
      </trkpt>
      <trkpt lat="41.585075000" lon="1.913590000">
        <ele>346.21</ele>
        <time>2013-05-31T11:08:13Z</time>
      </trkpt>
      <trkpt lat="41.585117000" lon="1.913600000">
        <ele>347.17</ele>
        <time>2013-05-31T11:08:17Z</time>
      </trkpt>
      <trkpt lat="41.585136000" lon="1.913588000">
        <ele>346.69</ele>
        <time>2013-05-31T11:08:19Z</time>
      </trkpt>
      <trkpt lat="41.585197000" lon="1.913590000">
        <ele>347.65</ele>
        <time>2013-05-31T11:08:25Z</time>
      </trkpt>
      <trkpt lat="41.585255000" lon="1.913599000">
        <ele>348.62</ele>
        <time>2013-05-31T11:08:29Z</time>
      </trkpt>
      <trkpt lat="41.585423000" lon="1.913551000">
        <ele>351.02</ele>
        <time>2013-05-31T11:08:41Z</time>
      </trkpt>
      <trkpt lat="41.585495000" lon="1.913503000">
        <ele>352.46</ele>
        <time>2013-05-31T11:08:46Z</time>
      </trkpt>
      <trkpt lat="41.585583000" lon="1.913403000">
        <ele>353.42</ele>
        <time>2013-05-31T11:08:53Z</time>
      </trkpt>
      <trkpt lat="41.585644000" lon="1.913315000">
        <ele>353.90</ele>
        <time>2013-05-31T11:08:58Z</time>
      </trkpt>
      <trkpt lat="41.585678000" lon="1.913196000">
        <ele>354.86</ele>
        <time>2013-05-31T11:09:04Z</time>
      </trkpt>
      <trkpt lat="41.585724000" lon="1.913088000">
        <ele>355.83</ele>
        <time>2013-05-31T11:09:12Z</time>
      </trkpt>
      <trkpt lat="41.585796000" lon="1.913075000">
        <ele>356.31</ele>
        <time>2013-05-31T11:09:23Z</time>
      </trkpt>
      <trkpt lat="41.585819000" lon="1.913043000">
        <ele>356.31</ele>
        <time>2013-05-31T11:09:26Z</time>
      </trkpt>
      <trkpt lat="41.585838000" lon="1.913032000">
        <ele>356.79</ele>
        <time>2013-05-31T11:09:28Z</time>
      </trkpt>
      <trkpt lat="41.585857000" lon="1.913039000">
        <ele>356.79</ele>
        <time>2013-05-31T11:09:30Z</time>
      </trkpt>
      <trkpt lat="41.585983000" lon="1.913005000">
        <ele>358.71</ele>
        <time>2013-05-31T11:09:39Z</time>
      </trkpt>
      <trkpt lat="41.586048000" lon="1.913053000">
        <ele>357.75</ele>
        <time>2013-05-31T11:09:43Z</time>
      </trkpt>
      <trkpt lat="41.586285000" lon="1.913044000">
        <ele>356.31</ele>
        <time>2013-05-31T11:09:52Z</time>
      </trkpt>
      <trkpt lat="41.586548000" lon="1.912886000">
        <ele>354.38</ele>
        <time>2013-05-31T11:10:04Z</time>
      </trkpt>
      <trkpt lat="41.586746000" lon="1.912862000">
        <ele>351.50</ele>
        <time>2013-05-31T11:10:08Z</time>
      </trkpt>
      <trkpt lat="41.587303000" lon="1.913117000">
        <ele>347.65</ele>
        <time>2013-05-31T11:10:16Z</time>
      </trkpt>
      <trkpt lat="41.587566000" lon="1.913233000">
        <ele>344.29</ele>
        <time>2013-05-31T11:10:20Z</time>
      </trkpt>
      <trkpt lat="41.587700000" lon="1.913195000">
        <ele>342.37</ele>
        <time>2013-05-31T11:10:23Z</time>
      </trkpt>
      <trkpt lat="41.587711000" lon="1.913022000">
        <ele>342.85</ele>
        <time>2013-05-31T11:10:27Z</time>
      </trkpt>
      <trkpt lat="41.587673000" lon="1.912880000">
        <ele>343.81</ele>
        <time>2013-05-31T11:10:31Z</time>
      </trkpt>
      <trkpt lat="41.587753000" lon="1.912854000">
        <ele>345.25</ele>
        <time>2013-05-31T11:10:38Z</time>
      </trkpt>
      <trkpt lat="41.587864000" lon="1.913174000">
        <ele>344.77</ele>
        <time>2013-05-31T11:10:46Z</time>
      </trkpt>
      <trkpt lat="41.587990000" lon="1.913318000">
        <ele>344.77</ele>
        <time>2013-05-31T11:10:50Z</time>
      </trkpt>
      <trkpt lat="41.588696000" lon="1.913743000">
        <ele>343.81</ele>
        <time>2013-05-31T11:11:04Z</time>
      </trkpt>
      <trkpt lat="41.588810000" lon="1.913790000">
        <ele>343.81</ele>
        <time>2013-05-31T11:11:06Z</time>
      </trkpt>
      <trkpt lat="41.589264000" lon="1.913839000">
        <ele>344.77</ele>
        <time>2013-05-31T11:11:14Z</time>
      </trkpt>
      <trkpt lat="41.589622000" lon="1.913708000">
        <ele>347.17</ele>
        <time>2013-05-31T11:11:22Z</time>
      </trkpt>
      <trkpt lat="41.589962000" lon="1.913447000">
        <ele>349.10</ele>
        <time>2013-05-31T11:11:32Z</time>
      </trkpt>
      <trkpt lat="41.590160000" lon="1.913235000">
        <ele>350.54</ele>
        <time>2013-05-31T11:11:38Z</time>
      </trkpt>
      <trkpt lat="41.590363000" lon="1.913074000">
        <ele>351.50</ele>
        <time>2013-05-31T11:11:43Z</time>
      </trkpt>
      <trkpt lat="41.590626000" lon="1.912919000">
        <ele>352.46</ele>
        <time>2013-05-31T11:11:49Z</time>
      </trkpt>
      <trkpt lat="41.591000000" lon="1.912798000">
        <ele>351.98</ele>
        <time>2013-05-31T11:11:57Z</time>
      </trkpt>
      <trkpt lat="41.591415000" lon="1.912788000">
        <ele>350.06</ele>
        <time>2013-05-31T11:12:04Z</time>
      </trkpt>
      <trkpt lat="41.591763000" lon="1.912904000">
        <ele>348.13</ele>
        <time>2013-05-31T11:12:09Z</time>
      </trkpt>
      <trkpt lat="41.591942000" lon="1.913141000">
        <ele>349.10</ele>
        <time>2013-05-31T11:12:13Z</time>
      </trkpt>
      <trkpt lat="41.592361000" lon="1.913487000">
        <ele>348.62</ele>
        <time>2013-05-31T11:12:22Z</time>
      </trkpt>
      <trkpt lat="41.592571000" lon="1.913038000">
        <ele>349.58</ele>
        <time>2013-05-31T11:12:29Z</time>
      </trkpt>
      <trkpt lat="41.592537000" lon="1.912886000">
        <ele>349.58</ele>
        <time>2013-05-31T11:12:31Z</time>
      </trkpt>
      <trkpt lat="41.592514000" lon="1.912553000">
        <ele>350.54</ele>
        <time>2013-05-31T11:12:36Z</time>
      </trkpt>
      <trkpt lat="41.592556000" lon="1.912429000">
        <ele>351.02</ele>
        <time>2013-05-31T11:12:38Z</time>
      </trkpt>
      <trkpt lat="41.592892000" lon="1.912302000">
        <ele>352.46</ele>
        <time>2013-05-31T11:12:46Z</time>
      </trkpt>
      <trkpt lat="41.592930000" lon="1.912332000">
        <ele>352.46</ele>
        <time>2013-05-31T11:12:47Z</time>
      </trkpt>
      <trkpt lat="41.593464000" lon="1.912822000">
        <ele>354.86</ele>
        <time>2013-05-31T11:13:03Z</time>
      </trkpt>
      <trkpt lat="41.593761000" lon="1.913106000">
        <ele>356.31</ele>
        <time>2013-05-31T11:13:12Z</time>
      </trkpt>
      <trkpt lat="41.594116000" lon="1.913075000">
        <ele>358.71</ele>
        <time>2013-05-31T11:13:23Z</time>
      </trkpt>
      <trkpt lat="41.594318000" lon="1.912648000">
        <ele>362.07</ele>
        <time>2013-05-31T11:13:35Z</time>
      </trkpt>
      <trkpt lat="41.594345000" lon="1.912585000">
        <ele>363.04</ele>
        <time>2013-05-31T11:13:37Z</time>
      </trkpt>
      <trkpt lat="41.594467000" lon="1.912436000">
        <ele>365.44</ele>
        <time>2013-05-31T11:13:44Z</time>
      </trkpt>
      <trkpt lat="41.594780000" lon="1.912594000">
        <ele>368.80</ele>
        <time>2013-05-31T11:13:57Z</time>
      </trkpt>
      <trkpt lat="41.595131000" lon="1.912490000">
        <ele>368.80</ele>
        <time>2013-05-31T11:14:09Z</time>
      </trkpt>
      <trkpt lat="41.595474000" lon="1.912462000">
        <ele>370.73</ele>
        <time>2013-05-31T11:14:20Z</time>
      </trkpt>
      <trkpt lat="41.595825000" lon="1.912592000">
        <ele>371.21</ele>
        <time>2013-05-31T11:14:32Z</time>
      </trkpt>
      <trkpt lat="41.595943000" lon="1.912608000">
        <ele>371.69</ele>
        <time>2013-05-31T11:14:36Z</time>
      </trkpt>
      <trkpt lat="41.596195000" lon="1.912606000">
        <ele>372.17</ele>
        <time>2013-05-31T11:14:45Z</time>
      </trkpt>
      <trkpt lat="41.596310000" lon="1.912504000">
        <ele>371.21</ele>
        <time>2013-05-31T11:14:49Z</time>
      </trkpt>
      <trkpt lat="41.596603000" lon="1.912545000">
        <ele>370.73</ele>
        <time>2013-05-31T11:14:58Z</time>
      </trkpt>
      <trkpt lat="41.596634000" lon="1.912555000">
        <ele>370.24</ele>
        <time>2013-05-31T11:15:00Z</time>
      </trkpt>
      <trkpt lat="41.596680000" lon="1.912548000">
        <ele>369.76</ele>
        <time>2013-05-31T11:15:05Z</time>
      </trkpt>
      <trkpt lat="41.596676000" lon="1.912585000">
        <ele>369.76</ele>
        <time>2013-05-31T11:15:09Z</time>
      </trkpt>
      <trkpt lat="41.596649000" lon="1.912614000">
        <ele>370.24</ele>
        <time>2013-05-31T11:15:17Z</time>
      </trkpt>
      <trkpt lat="41.596668000" lon="1.912577000">
        <ele>369.76</ele>
        <time>2013-05-31T11:15:20Z</time>
      </trkpt>
      <trkpt lat="41.596756000" lon="1.912493000">
        <ele>368.32</ele>
        <time>2013-05-31T11:15:26Z</time>
      </trkpt>
      <trkpt lat="41.596783000" lon="1.912456000">
        <ele>367.84</ele>
        <time>2013-05-31T11:15:31Z</time>
      </trkpt>
      <trkpt lat="41.596840000" lon="1.912242000">
        <ele>365.44</ele>
        <time>2013-05-31T11:15:39Z</time>
      </trkpt>
      <trkpt lat="41.596867000" lon="1.912021000">
        <ele>363.52</ele>
        <time>2013-05-31T11:15:47Z</time>
      </trkpt>
      <trkpt lat="41.596916000" lon="1.911912000">
        <ele>362.07</ele>
        <time>2013-05-31T11:15:52Z</time>
      </trkpt>
      <trkpt lat="41.596920000" lon="1.911895000">
        <ele>361.59</ele>
        <time>2013-05-31T11:15:53Z</time>
      </trkpt>
      <trkpt lat="41.597115000" lon="1.911752000">
        <ele>357.75</ele>
        <time>2013-05-31T11:16:02Z</time>
      </trkpt>
      <trkpt lat="41.597141000" lon="1.911730000">
        <ele>357.75</ele>
        <time>2013-05-31T11:16:03Z</time>
      </trkpt>
      <trkpt lat="41.597328000" lon="1.911651000">
        <ele>359.19</ele>
        <time>2013-05-31T11:16:14Z</time>
      </trkpt>
      <trkpt lat="41.597343000" lon="1.911648000">
        <ele>359.67</ele>
        <time>2013-05-31T11:16:21Z</time>
      </trkpt>
      <trkpt lat="41.597385000" lon="1.911604000">
        <ele>359.19</ele>
        <time>2013-05-31T11:16:25Z</time>
      </trkpt>
      <trkpt lat="41.597424000" lon="1.911547000">
        <ele>359.67</ele>
        <time>2013-05-31T11:16:28Z</time>
      </trkpt>
      <trkpt lat="41.597492000" lon="1.911431000">
        <ele>358.71</ele>
        <time>2013-05-31T11:16:33Z</time>
      </trkpt>
      <trkpt lat="41.597656000" lon="1.911360000">
        <ele>357.27</ele>
        <time>2013-05-31T11:16:38Z</time>
      </trkpt>
      <trkpt lat="41.597794000" lon="1.911299000">
        <ele>356.79</ele>
        <time>2013-05-31T11:16:42Z</time>
      </trkpt>
      <trkpt lat="41.597889000" lon="1.911179000">
        <ele>356.31</ele>
        <time>2013-05-31T11:16:46Z</time>
      </trkpt>
      <trkpt lat="41.598053000" lon="1.910856000">
        <ele>354.38</ele>
        <time>2013-05-31T11:16:55Z</time>
      </trkpt>
      <trkpt lat="41.598274000" lon="1.910751000">
        <ele>351.98</ele>
        <time>2013-05-31T11:17:02Z</time>
      </trkpt>
      <trkpt lat="41.598373000" lon="1.910694000">
        <ele>351.50</ele>
        <time>2013-05-31T11:17:05Z</time>
      </trkpt>
      <trkpt lat="41.598572000" lon="1.910669000">
        <ele>349.10</ele>
        <time>2013-05-31T11:17:13Z</time>
      </trkpt>
      <trkpt lat="41.598686000" lon="1.910581000">
        <ele>349.10</ele>
        <time>2013-05-31T11:17:17Z</time>
      </trkpt>
      <trkpt lat="41.598763000" lon="1.910592000">
        <ele>348.13</ele>
        <time>2013-05-31T11:17:19Z</time>
      </trkpt>
      <trkpt lat="41.598850000" lon="1.910596000">
        <ele>347.65</ele>
        <time>2013-05-31T11:17:21Z</time>
      </trkpt>
      <trkpt lat="41.599091000" lon="1.910648000">
        <ele>347.65</ele>
        <time>2013-05-31T11:17:28Z</time>
      </trkpt>
      <trkpt lat="41.599400000" lon="1.910708000">
        <ele>346.69</ele>
        <time>2013-05-31T11:17:37Z</time>
      </trkpt>
      <trkpt lat="41.599533000" lon="1.910691000">
        <ele>346.69</ele>
        <time>2013-05-31T11:17:41Z</time>
      </trkpt>
      <trkpt lat="41.599575000" lon="1.910524000">
        <ele>346.69</ele>
        <time>2013-05-31T11:17:48Z</time>
      </trkpt>
      <trkpt lat="41.599579000" lon="1.910349000">
        <ele>346.69</ele>
        <time>2013-05-31T11:17:54Z</time>
      </trkpt>
      <trkpt lat="41.599537000" lon="1.910240000">
        <ele>347.17</ele>
        <time>2013-05-31T11:17:58Z</time>
      </trkpt>
      <trkpt lat="41.599510000" lon="1.910189000">
        <ele>347.17</ele>
        <time>2013-05-31T11:18:00Z</time>
      </trkpt>
      <trkpt lat="41.599419000" lon="1.910063000">
        <ele>348.13</ele>
        <time>2013-05-31T11:18:07Z</time>
      </trkpt>
      <trkpt lat="41.599350000" lon="1.910002000">
        <ele>348.13</ele>
        <time>2013-05-31T11:18:12Z</time>
      </trkpt>
      <trkpt lat="41.599281000" lon="1.909874000">
        <ele>349.58</ele>
        <time>2013-05-31T11:18:20Z</time>
      </trkpt>
      <trkpt lat="41.599251000" lon="1.909809000">
        <ele>349.58</ele>
        <time>2013-05-31T11:18:24Z</time>
      </trkpt>
      <trkpt lat="41.599239000" lon="1.909761000">
        <ele>350.06</ele>
        <time>2013-05-31T11:18:27Z</time>
      </trkpt>
      <trkpt lat="41.599201000" lon="1.909520000">
        <ele>351.98</ele>
        <time>2013-05-31T11:18:40Z</time>
      </trkpt>
      <trkpt lat="41.599194000" lon="1.909449000">
        <ele>351.98</ele>
        <time>2013-05-31T11:18:43Z</time>
      </trkpt>
      <trkpt lat="41.599289000" lon="1.909283000">
        <ele>351.50</ele>
        <time>2013-05-31T11:18:49Z</time>
      </trkpt>
      <trkpt lat="41.599342000" lon="1.909179000">
        <ele>351.50</ele>
        <time>2013-05-31T11:18:52Z</time>
      </trkpt>
      <trkpt lat="41.599361000" lon="1.909122000">
        <ele>351.02</ele>
        <time>2013-05-31T11:18:54Z</time>
      </trkpt>
      <trkpt lat="41.599510000" lon="1.908820000">
        <ele>351.50</ele>
        <time>2013-05-31T11:19:03Z</time>
      </trkpt>
      <trkpt lat="41.599533000" lon="1.908666000">
        <ele>351.02</ele>
        <time>2013-05-31T11:19:06Z</time>
      </trkpt>
      <trkpt lat="41.599556000" lon="1.908433000">
        <ele>351.50</ele>
        <time>2013-05-31T11:19:11Z</time>
      </trkpt>
      <trkpt lat="41.599602000" lon="1.908329000">
        <ele>351.50</ele>
        <time>2013-05-31T11:19:15Z</time>
      </trkpt>
      <trkpt lat="41.599636000" lon="1.908272000">
        <ele>351.98</ele>
        <time>2013-05-31T11:19:17Z</time>
      </trkpt>
      <trkpt lat="41.599754000" lon="1.908121000">
        <ele>350.54</ele>
        <time>2013-05-31T11:19:23Z</time>
      </trkpt>
      <trkpt lat="41.599781000" lon="1.908068000">
        <ele>350.06</ele>
        <time>2013-05-31T11:19:25Z</time>
      </trkpt>
      <trkpt lat="41.599785000" lon="1.907925000">
        <ele>349.10</ele>
        <time>2013-05-31T11:19:30Z</time>
      </trkpt>
      <trkpt lat="41.599754000" lon="1.907897000">
        <ele>349.58</ele>
        <time>2013-05-31T11:19:32Z</time>
      </trkpt>
      <trkpt lat="41.599731000" lon="1.907776000">
        <ele>349.58</ele>
        <time>2013-05-31T11:19:36Z</time>
      </trkpt>
      <trkpt lat="41.599670000" lon="1.907315000">
        <ele>348.13</ele>
        <time>2013-05-31T11:19:49Z</time>
      </trkpt>
      <trkpt lat="41.599583000" lon="1.906862000">
        <ele>347.65</ele>
        <time>2013-05-31T11:19:57Z</time>
      </trkpt>
      <trkpt lat="41.599518000" lon="1.906687000">
        <ele>346.69</ele>
        <time>2013-05-31T11:20:01Z</time>
      </trkpt>
      <trkpt lat="41.599361000" lon="1.906530000">
        <ele>346.21</ele>
        <time>2013-05-31T11:20:06Z</time>
      </trkpt>
      <trkpt lat="41.599297000" lon="1.906453000">
        <ele>346.69</ele>
        <time>2013-05-31T11:20:08Z</time>
      </trkpt>
      <trkpt lat="41.599163000" lon="1.906307000">
        <ele>346.69</ele>
        <time>2013-05-31T11:20:12Z</time>
      </trkpt>
      <trkpt lat="41.598942000" lon="1.906105000">
        <ele>345.25</ele>
        <time>2013-05-31T11:20:18Z</time>
      </trkpt>
      <trkpt lat="41.598824000" lon="1.905939000">
        <ele>345.25</ele>
        <time>2013-05-31T11:20:22Z</time>
      </trkpt>
      <trkpt lat="41.598755000" lon="1.905728000">
        <ele>344.77</ele>
        <time>2013-05-31T11:20:26Z</time>
      </trkpt>
      <trkpt lat="41.598698000" lon="1.905612000">
        <ele>344.77</ele>
        <time>2013-05-31T11:20:28Z</time>
      </trkpt>
      <trkpt lat="41.598392000" lon="1.905593000">
        <ele>343.33</ele>
        <time>2013-05-31T11:20:36Z</time>
      </trkpt>
      <trkpt lat="41.598263000" lon="1.905400000">
        <ele>341.89</ele>
        <time>2013-05-31T11:20:43Z</time>
      </trkpt>
      <trkpt lat="41.598022000" lon="1.905434000">
        <ele>340.44</ele>
        <time>2013-05-31T11:20:49Z</time>
      </trkpt>
      <trkpt lat="41.597996000" lon="1.905468000">
        <ele>340.44</ele>
        <time>2013-05-31T11:20:50Z</time>
      </trkpt>
      <trkpt lat="41.597866000" lon="1.905632000">
        <ele>339.48</ele>
        <time>2013-05-31T11:20:55Z</time>
      </trkpt>
      <trkpt lat="41.597542000" lon="1.905699000">
        <ele>338.04</ele>
        <time>2013-05-31T11:21:03Z</time>
      </trkpt>
      <trkpt lat="41.597504000" lon="1.905666000">
        <ele>338.04</ele>
        <time>2013-05-31T11:21:04Z</time>
      </trkpt>
      <trkpt lat="41.597435000" lon="1.905594000">
        <ele>338.52</ele>
        <time>2013-05-31T11:21:06Z</time>
      </trkpt>
      <trkpt lat="41.597145000" lon="1.905573000">
        <ele>336.60</ele>
        <time>2013-05-31T11:21:13Z</time>
      </trkpt>
      <trkpt lat="41.597103000" lon="1.905585000">
        <ele>337.08</ele>
        <time>2013-05-31T11:21:14Z</time>
      </trkpt>
      <trkpt lat="41.596928000" lon="1.905560000">
        <ele>335.64</ele>
        <time>2013-05-31T11:21:19Z</time>
      </trkpt>
      <trkpt lat="41.596809000" lon="1.905513000">
        <ele>334.20</ele>
        <time>2013-05-31T11:21:23Z</time>
      </trkpt>
      <trkpt lat="41.596745000" lon="1.905216000">
        <ele>333.23</ele>
        <time>2013-05-31T11:21:30Z</time>
      </trkpt>
      <trkpt lat="41.596783000" lon="1.904984000">
        <ele>330.35</ele>
        <time>2013-05-31T11:21:37Z</time>
      </trkpt>
      <trkpt lat="41.596786000" lon="1.904747000">
        <ele>328.91</ele>
        <time>2013-05-31T11:21:45Z</time>
      </trkpt>
      <trkpt lat="41.596691000" lon="1.904489000">
        <ele>328.91</ele>
        <time>2013-05-31T11:21:52Z</time>
      </trkpt>
      <trkpt lat="41.596603000" lon="1.904057000">
        <ele>326.99</ele>
        <time>2013-05-31T11:22:00Z</time>
      </trkpt>
      <trkpt lat="41.596550000" lon="1.903874000">
        <ele>326.02</ele>
        <time>2013-05-31T11:22:03Z</time>
      </trkpt>
      <trkpt lat="41.596504000" lon="1.903701000">
        <ele>325.54</ele>
        <time>2013-05-31T11:22:06Z</time>
      </trkpt>
      <trkpt lat="41.596310000" lon="1.903219000">
        <ele>324.58</ele>
        <time>2013-05-31T11:22:14Z</time>
      </trkpt>
      <trkpt lat="41.596142000" lon="1.903018000">
        <ele>323.62</ele>
        <time>2013-05-31T11:22:18Z</time>
      </trkpt>
      <trkpt lat="41.596012000" lon="1.902759000">
        <ele>321.22</ele>
        <time>2013-05-31T11:22:25Z</time>
      </trkpt>
      <trkpt lat="41.595867000" lon="1.902540000">
        <ele>317.85</ele>
        <time>2013-05-31T11:22:32Z</time>
      </trkpt>
      <trkpt lat="41.595890000" lon="1.902496000">
        <ele>317.37</ele>
        <time>2013-05-31T11:22:33Z</time>
      </trkpt>
      <trkpt lat="41.595989000" lon="1.902123000">
        <ele>314.01</ele>
        <time>2013-05-31T11:22:40Z</time>
      </trkpt>
      <trkpt lat="41.596100000" lon="1.901977000">
        <ele>313.53</ele>
        <time>2013-05-31T11:22:43Z</time>
      </trkpt>
      <trkpt lat="41.596252000" lon="1.901840000">
        <ele>311.60</ele>
        <time>2013-05-31T11:22:47Z</time>
      </trkpt>
      <trkpt lat="41.596504000" lon="1.901546000">
        <ele>308.72</ele>
        <time>2013-05-31T11:22:54Z</time>
      </trkpt>
      <trkpt lat="41.596584000" lon="1.901471000">
        <ele>307.28</ele>
        <time>2013-05-31T11:22:56Z</time>
      </trkpt>
      <trkpt lat="41.596630000" lon="1.901406000">
        <ele>307.28</ele>
        <time>2013-05-31T11:23:02Z</time>
      </trkpt>
      <trkpt lat="41.596653000" lon="1.901372000">
        <ele>308.24</ele>
        <time>2013-05-31T11:23:08Z</time>
      </trkpt>
      <trkpt lat="41.596756000" lon="1.901207000">
        <ele>305.36</ele>
        <time>2013-05-31T11:23:16Z</time>
      </trkpt>
      <trkpt lat="41.596817000" lon="1.901111000">
        <ele>304.88</ele>
        <time>2013-05-31T11:23:19Z</time>
      </trkpt>
      <trkpt lat="41.596886000" lon="1.901068000">
        <ele>301.99</ele>
        <time>2013-05-31T11:23:22Z</time>
      </trkpt>
      <trkpt lat="41.596958000" lon="1.900908000">
        <ele>301.51</ele>
        <time>2013-05-31T11:23:30Z</time>
      </trkpt>
      <trkpt lat="41.596962000" lon="1.900799000">
        <ele>301.99</ele>
        <time>2013-05-31T11:23:33Z</time>
      </trkpt>
      <trkpt lat="41.597031000" lon="1.900598000">
        <ele>298.63</ele>
        <time>2013-05-31T11:23:41Z</time>
      </trkpt>
      <trkpt lat="41.597069000" lon="1.900702000">
        <ele>299.11</ele>
        <time>2013-05-31T11:23:44Z</time>
      </trkpt>
      <trkpt lat="41.597202000" lon="1.900865000">
        <ele>298.63</ele>
        <time>2013-05-31T11:23:49Z</time>
      </trkpt>
      <trkpt lat="41.597607000" lon="1.900900000">
        <ele>299.11</ele>
        <time>2013-05-31T11:24:02Z</time>
      </trkpt>
      <trkpt lat="41.597706000" lon="1.900536000">
        <ele>300.55</ele>
        <time>2013-05-31T11:24:12Z</time>
      </trkpt>
      <trkpt lat="41.597839000" lon="1.900146000">
        <ele>300.55</ele>
        <time>2013-05-31T11:24:23Z</time>
      </trkpt>
      <trkpt lat="41.598167000" lon="1.900061000">
        <ele>301.51</ele>
        <time>2013-05-31T11:24:33Z</time>
      </trkpt>
      <trkpt lat="41.598488000" lon="1.900191000">
        <ele>301.51</ele>
        <time>2013-05-31T11:24:42Z</time>
      </trkpt>
      <trkpt lat="41.598644000" lon="1.900322000">
        <ele>300.55</ele>
        <time>2013-05-31T11:24:46Z</time>
      </trkpt>
      <trkpt lat="41.598949000" lon="1.900889000">
        <ele>301.03</ele>
        <time>2013-05-31T11:24:58Z</time>
      </trkpt>
      <trkpt lat="41.599129000" lon="1.901145000">
        <ele>302.95</ele>
        <time>2013-05-31T11:25:05Z</time>
      </trkpt>
      <trkpt lat="41.599457000" lon="1.901087000">
        <ele>301.99</ele>
        <time>2013-05-31T11:25:14Z</time>
      </trkpt>
      <trkpt lat="41.599472000" lon="1.900709000">
        <ele>301.99</ele>
        <time>2013-05-31T11:25:22Z</time>
      </trkpt>
      <trkpt lat="41.599438000" lon="1.900684000">
        <ele>302.47</ele>
        <time>2013-05-31T11:25:23Z</time>
      </trkpt>
      <trkpt lat="41.599373000" lon="1.900625000">
        <ele>302.47</ele>
        <time>2013-05-31T11:25:25Z</time>
      </trkpt>
      <trkpt lat="41.599419000" lon="1.900416000">
        <ele>303.43</ele>
        <time>2013-05-31T11:25:30Z</time>
      </trkpt>
      <trkpt lat="41.599674000" lon="1.899857000">
        <ele>305.84</ele>
        <time>2013-05-31T11:25:44Z</time>
      </trkpt>
      <trkpt lat="41.599800000" lon="1.899703000">
        <ele>307.28</ele>
        <time>2013-05-31T11:25:50Z</time>
      </trkpt>
      <trkpt lat="41.599899000" lon="1.899695000">
        <ele>309.20</ele>
        <time>2013-05-31T11:25:55Z</time>
      </trkpt>
      <trkpt lat="41.600021000" lon="1.899440000">
        <ele>309.68</ele>
        <time>2013-05-31T11:26:05Z</time>
      </trkpt>
      <trkpt lat="41.600090000" lon="1.899329000">
        <ele>310.64</ele>
        <time>2013-05-31T11:26:11Z</time>
      </trkpt>
      <trkpt lat="41.600189000" lon="1.899227000">
        <ele>311.12</ele>
        <time>2013-05-31T11:26:18Z</time>
      </trkpt>
      <trkpt lat="41.600441000" lon="1.899088000">
        <ele>310.64</ele>
        <time>2013-05-31T11:26:27Z</time>
      </trkpt>
      <trkpt lat="41.600544000" lon="1.899007000">
        <ele>310.64</ele>
        <time>2013-05-31T11:26:30Z</time>
      </trkpt>
      <trkpt lat="41.600681000" lon="1.898699000">
        <ele>311.60</ele>
        <time>2013-05-31T11:26:41Z</time>
      </trkpt>
      <trkpt lat="41.600681000" lon="1.898686000">
        <ele>311.60</ele>
        <time>2013-05-31T11:26:43Z</time>
      </trkpt>
      <trkpt lat="41.600746000" lon="1.898605000">
        <ele>312.09</ele>
        <time>2013-05-31T11:26:53Z</time>
      </trkpt>
      <trkpt lat="41.600925000" lon="1.898423000">
        <ele>311.12</ele>
        <time>2013-05-31T11:27:03Z</time>
      </trkpt>
      <trkpt lat="41.601112000" lon="1.898124000">
        <ele>309.20</ele>
        <time>2013-05-31T11:27:13Z</time>
      </trkpt>
      <trkpt lat="41.601231000" lon="1.898057000">
        <ele>307.76</ele>
        <time>2013-05-31T11:27:16Z</time>
      </trkpt>
      <trkpt lat="41.601273000" lon="1.898033000">
        <ele>307.28</ele>
        <time>2013-05-31T11:27:17Z</time>
      </trkpt>
      <trkpt lat="41.601501000" lon="1.897872000">
        <ele>305.36</ele>
        <time>2013-05-31T11:27:22Z</time>
      </trkpt>
      <trkpt lat="41.601604000" lon="1.897790000">
        <ele>304.39</ele>
        <time>2013-05-31T11:27:24Z</time>
      </trkpt>
      <trkpt lat="41.601845000" lon="1.897606000">
        <ele>301.99</ele>
        <time>2013-05-31T11:27:29Z</time>
      </trkpt>
      <trkpt lat="41.602135000" lon="1.897461000">
        <ele>300.55</ele>
        <time>2013-05-31T11:27:34Z</time>
      </trkpt>
      <trkpt lat="41.602394000" lon="1.897461000">
        <ele>296.70</ele>
        <time>2013-05-31T11:27:41Z</time>
      </trkpt>
      <trkpt lat="41.602428000" lon="1.897450000">
        <ele>296.70</ele>
        <time>2013-05-31T11:27:42Z</time>
      </trkpt>
      <trkpt lat="41.602718000" lon="1.897316000">
        <ele>295.26</ele>
        <time>2013-05-31T11:27:53Z</time>
      </trkpt>
      <trkpt lat="41.602821000" lon="1.897276000">
        <ele>293.82</ele>
        <time>2013-05-31T11:27:57Z</time>
      </trkpt>
      <trkpt lat="41.603012000" lon="1.897113000">
        <ele>291.90</ele>
        <time>2013-05-31T11:28:09Z</time>
      </trkpt>
      <trkpt lat="41.603081000" lon="1.896860000">
        <ele>290.94</ele>
        <time>2013-05-31T11:28:19Z</time>
      </trkpt>
      <trkpt lat="41.603073000" lon="1.896371000">
        <ele>290.94</ele>
        <time>2013-05-31T11:28:31Z</time>
      </trkpt>
      <trkpt lat="41.602940000" lon="1.895895000">
        <ele>292.86</ele>
        <time>2013-05-31T11:28:42Z</time>
      </trkpt>
      <trkpt lat="41.602642000" lon="1.895628000">
        <ele>292.38</ele>
        <time>2013-05-31T11:28:55Z</time>
      </trkpt>
      <trkpt lat="41.602608000" lon="1.895605000">
        <ele>291.90</ele>
        <time>2013-05-31T11:28:56Z</time>
      </trkpt>
      <trkpt lat="41.602501000" lon="1.895523000">
        <ele>291.90</ele>
        <time>2013-05-31T11:28:59Z</time>
      </trkpt>
      <trkpt lat="41.602314000" lon="1.895332000">
        <ele>290.46</ele>
        <time>2013-05-31T11:29:04Z</time>
      </trkpt>
      <trkpt lat="41.602249000" lon="1.895201000">
        <ele>289.49</ele>
        <time>2013-05-31T11:29:06Z</time>
      </trkpt>
      <trkpt lat="41.602135000" lon="1.894856000">
        <ele>287.09</ele>
        <time>2013-05-31T11:29:11Z</time>
      </trkpt>
      <trkpt lat="41.602116000" lon="1.894789000">
        <ele>287.09</ele>
        <time>2013-05-31T11:29:12Z</time>
      </trkpt>
      <trkpt lat="41.602047000" lon="1.894603000">
        <ele>285.65</ele>
        <time>2013-05-31T11:29:15Z</time>
      </trkpt>
      <trkpt lat="41.601807000" lon="1.894335000">
        <ele>283.25</ele>
        <time>2013-05-31T11:29:24Z</time>
      </trkpt>
      <trkpt lat="41.601791000" lon="1.894291000">
        <ele>283.25</ele>
        <time>2013-05-31T11:29:25Z</time>
      </trkpt>
      <trkpt lat="41.601727000" lon="1.894053000">
        <ele>282.28</ele>
        <time>2013-05-31T11:29:33Z</time>
      </trkpt>
      <trkpt lat="41.601662000" lon="1.894047000">
        <ele>282.77</ele>
        <time>2013-05-31T11:29:37Z</time>
      </trkpt>
      <trkpt lat="41.601593000" lon="1.894061000">
        <ele>281.80</ele>
        <time>2013-05-31T11:29:40Z</time>
      </trkpt>
      <trkpt lat="41.601582000" lon="1.893983000">
        <ele>280.36</ele>
        <time>2013-05-31T11:29:43Z</time>
      </trkpt>
      <trkpt lat="41.601635000" lon="1.893885000">
        <ele>279.88</ele>
        <time>2013-05-31T11:29:45Z</time>
      </trkpt>
      <trkpt lat="41.601830000" lon="1.893643000">
        <ele>275.56</ele>
        <time>2013-05-31T11:29:49Z</time>
      </trkpt>
      <trkpt lat="41.602085000" lon="1.893345000">
        <ele>273.15</ele>
        <time>2013-05-31T11:29:53Z</time>
      </trkpt>
      <trkpt lat="41.602314000" lon="1.893019000">
        <ele>270.27</ele>
        <time>2013-05-31T11:29:57Z</time>
      </trkpt>
      <trkpt lat="41.602531000" lon="1.892664000">
        <ele>267.38</ele>
        <time>2013-05-31T11:30:01Z</time>
      </trkpt>
      <trkpt lat="41.602734000" lon="1.891908000">
        <ele>262.58</ele>
        <time>2013-05-31T11:30:08Z</time>
      </trkpt>
      <trkpt lat="41.602856000" lon="1.891220000">
        <ele>261.62</ele>
        <time>2013-05-31T11:30:16Z</time>
      </trkpt>
      <trkpt lat="41.602867000" lon="1.890768000">
        <ele>261.62</ele>
        <time>2013-05-31T11:30:23Z</time>
      </trkpt>
      <trkpt lat="41.602936000" lon="1.890374000">
        <ele>260.65</ele>
        <time>2013-05-31T11:30:30Z</time>
      </trkpt>
      <trkpt lat="41.602970000" lon="1.890249000">
        <ele>260.17</ele>
        <time>2013-05-31T11:30:32Z</time>
      </trkpt>
      <trkpt lat="41.603188000" lon="1.889841000">
        <ele>257.29</ele>
        <time>2013-05-31T11:30:38Z</time>
      </trkpt>
      <trkpt lat="41.603275000" lon="1.889685000">
        <ele>255.85</ele>
        <time>2013-05-31T11:30:40Z</time>
      </trkpt>
      <trkpt lat="41.603367000" lon="1.889537000">
        <ele>254.89</ele>
        <time>2013-05-31T11:30:42Z</time>
      </trkpt>
      <trkpt lat="41.603565000" lon="1.889229000">
        <ele>255.37</ele>
        <time>2013-05-31T11:30:47Z</time>
      </trkpt>
      <trkpt lat="41.603962000" lon="1.888822000">
        <ele>251.04</ele>
        <time>2013-05-31T11:30:54Z</time>
      </trkpt>
      <trkpt lat="41.604027000" lon="1.888763000">
        <ele>250.56</ele>
        <time>2013-05-31T11:30:55Z</time>
      </trkpt>
      <trkpt lat="41.604172000" lon="1.888193000">
        <ele>250.08</ele>
        <time>2013-05-31T11:31:02Z</time>
      </trkpt>
      <trkpt lat="41.604214000" lon="1.887567000">
        <ele>250.08</ele>
        <time>2013-05-31T11:31:09Z</time>
      </trkpt>
      <trkpt lat="41.604225000" lon="1.887416000">
        <ele>249.60</ele>
        <time>2013-05-31T11:31:11Z</time>
      </trkpt>
      <trkpt lat="41.604309000" lon="1.886971000">
        <ele>249.12</ele>
        <time>2013-05-31T11:31:19Z</time>
      </trkpt>
      <trkpt lat="41.604351000" lon="1.886677000">
        <ele>249.12</ele>
        <time>2013-05-31T11:31:25Z</time>
      </trkpt>
      <trkpt lat="41.604321000" lon="1.886257000">
        <ele>249.60</ele>
        <time>2013-05-31T11:31:34Z</time>
      </trkpt>
      <trkpt lat="41.604374000" lon="1.886050000">
        <ele>248.64</ele>
        <time>2013-05-31T11:31:38Z</time>
      </trkpt>
      <trkpt lat="41.604431000" lon="1.885823000">
        <ele>249.60</ele>
        <time>2013-05-31T11:31:42Z</time>
      </trkpt>
      <trkpt lat="41.604378000" lon="1.885396000">
        <ele>248.16</ele>
        <time>2013-05-31T11:31:49Z</time>
      </trkpt>
      <trkpt lat="41.604195000" lon="1.885077000">
        <ele>247.68</ele>
        <time>2013-05-31T11:31:55Z</time>
      </trkpt>
      <trkpt lat="41.604172000" lon="1.884712000">
        <ele>243.83</ele>
        <time>2013-05-31T11:32:01Z</time>
      </trkpt>
      <trkpt lat="41.604298000" lon="1.884481000">
        <ele>241.43</ele>
        <time>2013-05-31T11:32:04Z</time>
      </trkpt>
      <trkpt lat="41.604431000" lon="1.884234000">
        <ele>239.02</ele>
        <time>2013-05-31T11:32:07Z</time>
      </trkpt>
      <trkpt lat="41.604553000" lon="1.883780000">
        <ele>234.70</ele>
        <time>2013-05-31T11:32:11Z</time>
      </trkpt>
      <trkpt lat="41.604599000" lon="1.883524000">
        <ele>233.74</ele>
        <time>2013-05-31T11:32:13Z</time>
      </trkpt>
      <trkpt lat="41.604637000" lon="1.883271000">
        <ele>232.78</ele>
        <time>2013-05-31T11:32:15Z</time>
      </trkpt>
      <trkpt lat="41.604645000" lon="1.882731000">
        <ele>230.85</ele>
        <time>2013-05-31T11:32:20Z</time>
      </trkpt>
      <trkpt lat="41.604584000" lon="1.882454000">
        <ele>228.45</ele>
        <time>2013-05-31T11:32:23Z</time>
      </trkpt>
      <trkpt lat="41.604580000" lon="1.881995000">
        <ele>226.53</ele>
        <time>2013-05-31T11:32:29Z</time>
      </trkpt>
      <trkpt lat="41.604530000" lon="1.881842000">
        <ele>226.53</ele>
        <time>2013-05-31T11:32:31Z</time>
      </trkpt>
      <trkpt lat="41.604416000" lon="1.881322000">
        <ele>226.53</ele>
        <time>2013-05-31T11:32:37Z</time>
      </trkpt>
      <trkpt lat="41.604191000" lon="1.880564000">
        <ele>227.49</ele>
        <time>2013-05-31T11:32:46Z</time>
      </trkpt>
      <trkpt lat="41.604103000" lon="1.879976000">
        <ele>228.45</ele>
        <time>2013-05-31T11:32:53Z</time>
      </trkpt>
      <trkpt lat="41.604122000" lon="1.879599000">
        <ele>228.93</ele>
        <time>2013-05-31T11:32:58Z</time>
      </trkpt>
      <trkpt lat="41.604103000" lon="1.879394000">
        <ele>228.45</ele>
        <time>2013-05-31T11:33:01Z</time>
      </trkpt>
      <trkpt lat="41.604126000" lon="1.879106000">
        <ele>228.45</ele>
        <time>2013-05-31T11:33:05Z</time>
      </trkpt>
      <trkpt lat="41.603931000" lon="1.878635000">
        <ele>228.45</ele>
        <time>2013-05-31T11:33:13Z</time>
      </trkpt>
      <trkpt lat="41.603901000" lon="1.878151000">
        <ele>227.97</ele>
        <time>2013-05-31T11:33:24Z</time>
      </trkpt>
      <trkpt lat="41.603878000" lon="1.878018000">
        <ele>227.01</ele>
        <time>2013-05-31T11:33:26Z</time>
      </trkpt>
      <trkpt lat="41.603790000" lon="1.877635000">
        <ele>225.57</ele>
        <time>2013-05-31T11:33:32Z</time>
      </trkpt>
      <trkpt lat="41.603642000" lon="1.877356000">
        <ele>225.09</ele>
        <time>2013-05-31T11:33:37Z</time>
      </trkpt>
      <trkpt lat="41.603405000" lon="1.876678000">
        <ele>224.61</ele>
        <time>2013-05-31T11:33:48Z</time>
      </trkpt>
      <trkpt lat="41.603390000" lon="1.876607000">
        <ele>224.12</ele>
        <time>2013-05-31T11:33:49Z</time>
      </trkpt>
      <trkpt lat="41.603428000" lon="1.876327000">
        <ele>223.16</ele>
        <time>2013-05-31T11:33:53Z</time>
      </trkpt>
      <trkpt lat="41.603333000" lon="1.875609000">
        <ele>221.72</ele>
        <time>2013-05-31T11:34:02Z</time>
      </trkpt>
      <trkpt lat="41.603378000" lon="1.875133000">
        <ele>222.68</ele>
        <time>2013-05-31T11:34:10Z</time>
      </trkpt>
      <trkpt lat="41.603416000" lon="1.875032000">
        <ele>222.68</ele>
        <time>2013-05-31T11:34:12Z</time>
      </trkpt>
      <trkpt lat="41.603516000" lon="1.874717000">
        <ele>221.24</ele>
        <time>2013-05-31T11:34:18Z</time>
      </trkpt>
      <trkpt lat="41.603645000" lon="1.874490000">
        <ele>219.80</ele>
        <time>2013-05-31T11:34:23Z</time>
      </trkpt>
      <trkpt lat="41.603863000" lon="1.874228000">
        <ele>217.88</ele>
        <time>2013-05-31T11:34:28Z</time>
      </trkpt>
      <trkpt lat="41.604172000" lon="1.874051000">
        <ele>215.47</ele>
        <time>2013-05-31T11:34:34Z</time>
      </trkpt>
      <trkpt lat="41.604465000" lon="1.873858000">
        <ele>215.47</ele>
        <time>2013-05-31T11:34:39Z</time>
      </trkpt>
      <trkpt lat="41.604828000" lon="1.873401000">
        <ele>211.63</ele>
        <time>2013-05-31T11:34:48Z</time>
      </trkpt>
      <trkpt lat="41.604778000" lon="1.873261000">
        <ele>209.22</ele>
        <time>2013-05-31T11:34:51Z</time>
      </trkpt>
      <trkpt lat="41.604733000" lon="1.873095000">
        <ele>206.82</ele>
        <time>2013-05-31T11:34:54Z</time>
      </trkpt>
      <trkpt lat="41.604870000" lon="1.872901000">
        <ele>203.46</ele>
        <time>2013-05-31T11:34:58Z</time>
      </trkpt>
      <trkpt lat="41.604900000" lon="1.872867000">
        <ele>203.46</ele>
        <time>2013-05-31T11:34:59Z</time>
      </trkpt>
      <trkpt lat="41.604954000" lon="1.872702000">
        <ele>201.53</ele>
        <time>2013-05-31T11:35:06Z</time>
      </trkpt>
      <trkpt lat="41.604923000" lon="1.872570000">
        <ele>201.53</ele>
        <time>2013-05-31T11:35:13Z</time>
      </trkpt>
      <trkpt lat="41.605003000" lon="1.872372000">
        <ele>201.05</ele>
        <time>2013-05-31T11:35:20Z</time>
      </trkpt>
      <trkpt lat="41.605080000" lon="1.872287000">
        <ele>201.53</ele>
        <time>2013-05-31T11:35:22Z</time>
      </trkpt>
      <trkpt lat="41.605190000" lon="1.872127000">
        <ele>201.05</ele>
        <time>2013-05-31T11:35:25Z</time>
      </trkpt>
      <trkpt lat="41.605114000" lon="1.871983000">
        <ele>200.57</ele>
        <time>2013-05-31T11:35:30Z</time>
      </trkpt>
      <trkpt lat="41.604858000" lon="1.871561000">
        <ele>201.53</ele>
        <time>2013-05-31T11:35:40Z</time>
      </trkpt>
      <trkpt lat="41.604832000" lon="1.871539000">
        <ele>202.01</ele>
        <time>2013-05-31T11:35:41Z</time>
      </trkpt>
      <trkpt lat="41.604778000" lon="1.871486000">
        <ele>204.42</ele>
        <time>2013-05-31T11:35:46Z</time>
      </trkpt>
      <trkpt lat="41.604694000" lon="1.871314000">
        <ele>205.86</ele>
        <time>2013-05-31T11:35:53Z</time>
      </trkpt>
      <trkpt lat="41.604649000" lon="1.871214000">
        <ele>206.82</ele>
        <time>2013-05-31T11:36:03Z</time>
      </trkpt>
      <trkpt lat="41.604626000" lon="1.871199000">
        <ele>206.82</ele>
        <time>2013-05-31T11:36:14Z</time>
      </trkpt>
      <trkpt lat="41.604603000" lon="1.871367000">
        <ele>207.78</ele>
        <time>2013-05-31T11:36:23Z</time>
      </trkpt>
      <trkpt lat="41.604626000" lon="1.871457000">
        <ele>208.74</ele>
        <time>2013-05-31T11:36:27Z</time>
      </trkpt>
      <trkpt lat="41.604568000" lon="1.871454000">
        <ele>209.70</ele>
        <time>2013-05-31T11:36:34Z</time>
      </trkpt>
      <trkpt lat="41.604523000" lon="1.871368000">
        <ele>210.67</ele>
        <time>2013-05-31T11:36:39Z</time>
      </trkpt>
      <trkpt lat="41.604492000" lon="1.871343000">
        <ele>210.67</ele>
        <time>2013-05-31T11:36:51Z</time>
      </trkpt>
      <trkpt lat="41.604481000" lon="1.871314000">
        <ele>211.15</ele>
        <time>2013-05-31T11:37:00Z</time>
      </trkpt>
      <trkpt lat="41.604477000" lon="1.871305000">
        <ele>211.15</ele>
        <time>2013-05-31T11:37:01Z</time>
      </trkpt>
      <trkpt lat="41.604279000" lon="1.871037000">
        <ele>213.55</ele>
        <time>2013-05-31T11:37:15Z</time>
      </trkpt>
      <trkpt lat="41.604244000" lon="1.871008000">
        <ele>214.03</ele>
        <time>2013-05-31T11:37:18Z</time>
      </trkpt>
      <trkpt lat="41.604122000" lon="1.870939000">
        <ele>215.47</ele>
        <time>2013-05-31T11:37:25Z</time>
      </trkpt>
      <trkpt lat="41.603909000" lon="1.871060000">
        <ele>218.84</ele>
        <time>2013-05-31T11:37:38Z</time>
      </trkpt>
      <trkpt lat="41.603878000" lon="1.871075000">
        <ele>219.80</ele>
        <time>2013-05-31T11:37:40Z</time>
      </trkpt>
      <trkpt lat="41.603741000" lon="1.871087000">
        <ele>222.68</ele>
        <time>2013-05-31T11:37:48Z</time>
      </trkpt>
      <trkpt lat="41.603573000" lon="1.871223000">
        <ele>224.61</ele>
        <time>2013-05-31T11:38:01Z</time>
      </trkpt>
      <trkpt lat="41.603489000" lon="1.871473000">
        <ele>225.57</ele>
        <time>2013-05-31T11:38:13Z</time>
      </trkpt>
      <trkpt lat="41.603363000" lon="1.871841000">
        <ele>227.49</ele>
        <time>2013-05-31T11:38:27Z</time>
      </trkpt>
      <trkpt lat="41.603226000" lon="1.872097000">
        <ele>228.93</ele>
        <time>2013-05-31T11:38:38Z</time>
      </trkpt>
      <trkpt lat="41.603020000" lon="1.872191000">
        <ele>230.85</ele>
        <time>2013-05-31T11:38:48Z</time>
      </trkpt>
      <trkpt lat="41.602867000" lon="1.872295000">
        <ele>232.30</ele>
        <time>2013-05-31T11:38:56Z</time>
      </trkpt>
      <trkpt lat="41.602665000" lon="1.872563000">
        <ele>232.30</ele>
        <time>2013-05-31T11:39:09Z</time>
      </trkpt>
      <trkpt lat="41.602509000" lon="1.872689000">
        <ele>234.22</ele>
        <time>2013-05-31T11:39:17Z</time>
      </trkpt>
      <trkpt lat="41.602352000" lon="1.872794000">
        <ele>235.18</ele>
        <time>2013-05-31T11:39:27Z</time>
      </trkpt>
      <trkpt lat="41.602299000" lon="1.872826000">
        <ele>234.22</ele>
        <time>2013-05-31T11:39:31Z</time>
      </trkpt>
      <trkpt lat="41.602161000" lon="1.872887000">
        <ele>241.91</ele>
        <time>2013-05-31T11:39:39Z</time>
      </trkpt>
      <trkpt lat="41.602146000" lon="1.872901000">
        <ele>237.58</ele>
        <time>2013-05-31T11:39:40Z</time>
      </trkpt>
      <trkpt lat="41.601929000" lon="1.873044000">
        <ele>239.02</ele>
        <time>2013-05-31T11:39:52Z</time>
      </trkpt>
      <trkpt lat="41.601841000" lon="1.873075000">
        <ele>240.47</ele>
        <time>2013-05-31T11:39:57Z</time>
      </trkpt>
      <trkpt lat="41.601547000" lon="1.873097000">
        <ele>242.87</ele>
        <time>2013-05-31T11:40:11Z</time>
      </trkpt>
      <trkpt lat="41.601269000" lon="1.873059000">
        <ele>240.95</ele>
        <time>2013-05-31T11:40:18Z</time>
      </trkpt>
      <trkpt lat="41.600842000" lon="1.873084000">
        <ele>241.91</ele>
        <time>2013-05-31T11:40:31Z</time>
      </trkpt>
      <trkpt lat="41.600590000" lon="1.873226000">
        <ele>244.79</ele>
        <time>2013-05-31T11:40:44Z</time>
      </trkpt>
      <trkpt lat="41.600449000" lon="1.873334000">
        <ele>246.72</ele>
        <time>2013-05-31T11:40:53Z</time>
      </trkpt>
      <trkpt lat="41.600304000" lon="1.873472000">
        <ele>247.68</ele>
        <time>2013-05-31T11:41:04Z</time>
      </trkpt>
      <trkpt lat="41.600227000" lon="1.873500000">
        <ele>249.12</ele>
        <time>2013-05-31T11:41:10Z</time>
      </trkpt>
      <trkpt lat="41.600155000" lon="1.873489000">
        <ele>250.56</ele>
        <time>2013-05-31T11:41:15Z</time>
      </trkpt>
      <trkpt lat="41.600044000" lon="1.873429000">
        <ele>252.48</ele>
        <time>2013-05-31T11:41:23Z</time>
      </trkpt>
      <trkpt lat="41.599976000" lon="1.873183000">
        <ele>254.41</ele>
        <time>2013-05-31T11:41:36Z</time>
      </trkpt>
      <trkpt lat="41.599976000" lon="1.873168000">
        <ele>254.89</ele>
        <time>2013-05-31T11:41:37Z</time>
      </trkpt>
      <trkpt lat="41.599922000" lon="1.873057000">
        <ele>255.85</ele>
        <time>2013-05-31T11:41:43Z</time>
      </trkpt>
      <trkpt lat="41.599831000" lon="1.872967000">
        <ele>256.81</ele>
        <time>2013-05-31T11:41:50Z</time>
      </trkpt>
      <trkpt lat="41.599770000" lon="1.872935000">
        <ele>257.77</ele>
        <time>2013-05-31T11:41:53Z</time>
      </trkpt>
      <trkpt lat="41.599445000" lon="1.872756000">
        <ele>258.25</ele>
        <time>2013-05-31T11:42:06Z</time>
      </trkpt>
      <trkpt lat="41.599182000" lon="1.872483000">
        <ele>261.14</ele>
        <time>2013-05-31T11:42:20Z</time>
      </trkpt>
      <trkpt lat="41.598900000" lon="1.872523000">
        <ele>262.10</ele>
        <time>2013-05-31T11:42:32Z</time>
      </trkpt>
      <trkpt lat="41.598812000" lon="1.872613000">
        <ele>263.06</ele>
        <time>2013-05-31T11:42:38Z</time>
      </trkpt>
      <trkpt lat="41.598610000" lon="1.872834000">
        <ele>264.98</ele>
        <time>2013-05-31T11:42:50Z</time>
      </trkpt>
      <trkpt lat="41.598400000" lon="1.872973000">
        <ele>266.90</ele>
        <time>2013-05-31T11:43:03Z</time>
      </trkpt>
      <trkpt lat="41.598362000" lon="1.872982000">
        <ele>267.38</ele>
        <time>2013-05-31T11:43:05Z</time>
      </trkpt>
      <trkpt lat="41.598301000" lon="1.873020000">
        <ele>267.86</ele>
        <time>2013-05-31T11:43:09Z</time>
      </trkpt>
      <trkpt lat="41.598087000" lon="1.873247000">
        <ele>270.75</ele>
        <time>2013-05-31T11:43:22Z</time>
      </trkpt>
      <trkpt lat="41.597881000" lon="1.873580000">
        <ele>272.67</ele>
        <time>2013-05-31T11:43:37Z</time>
      </trkpt>
      <trkpt lat="41.597767000" lon="1.873821000">
        <ele>275.07</ele>
        <time>2013-05-31T11:43:48Z</time>
      </trkpt>
      <trkpt lat="41.597706000" lon="1.873966000">
        <ele>277.96</ele>
        <time>2013-05-31T11:43:57Z</time>
      </trkpt>
      <trkpt lat="41.597694000" lon="1.873998000">
        <ele>278.92</ele>
        <time>2013-05-31T11:43:59Z</time>
      </trkpt>
      <trkpt lat="41.597660000" lon="1.874019000">
        <ele>279.88</ele>
        <time>2013-05-31T11:44:02Z</time>
      </trkpt>
      <trkpt lat="41.597622000" lon="1.874034000">
        <ele>280.36</ele>
        <time>2013-05-31T11:44:05Z</time>
      </trkpt>
      <trkpt lat="41.597427000" lon="1.874130000">
        <ele>283.25</ele>
        <time>2013-05-31T11:44:19Z</time>
      </trkpt>
      <trkpt lat="41.597282000" lon="1.874307000">
        <ele>287.09</ele>
        <time>2013-05-31T11:44:32Z</time>
      </trkpt>
      <trkpt lat="41.597057000" lon="1.874355000">
        <ele>289.97</ele>
        <time>2013-05-31T11:44:47Z</time>
      </trkpt>
      <trkpt lat="41.596996000" lon="1.874351000">
        <ele>290.94</ele>
        <time>2013-05-31T11:44:51Z</time>
      </trkpt>
      <trkpt lat="41.596951000" lon="1.874325000">
        <ele>291.90</ele>
        <time>2013-05-31T11:44:55Z</time>
      </trkpt>
      <trkpt lat="41.596737000" lon="1.874257000">
        <ele>294.78</ele>
        <time>2013-05-31T11:45:09Z</time>
      </trkpt>
      <trkpt lat="41.596672000" lon="1.874272000">
        <ele>295.26</ele>
        <time>2013-05-31T11:45:13Z</time>
      </trkpt>
      <trkpt lat="41.596409000" lon="1.874297000">
        <ele>296.22</ele>
        <time>2013-05-31T11:45:26Z</time>
      </trkpt>
      <trkpt lat="41.596329000" lon="1.874280000">
        <ele>296.70</ele>
        <time>2013-05-31T11:45:30Z</time>
      </trkpt>
      <trkpt lat="41.596165000" lon="1.874313000">
        <ele>299.59</ele>
        <time>2013-05-31T11:45:40Z</time>
      </trkpt>
      <trkpt lat="41.596149000" lon="1.874318000">
        <ele>300.07</ele>
        <time>2013-05-31T11:45:41Z</time>
      </trkpt>
      <trkpt lat="41.596085000" lon="1.874384000">
        <ele>301.99</ele>
        <time>2013-05-31T11:45:48Z</time>
      </trkpt>
      <trkpt lat="41.596046000" lon="1.874519000">
        <ele>302.95</ele>
        <time>2013-05-31T11:45:55Z</time>
      </trkpt>
      <trkpt lat="41.595905000" lon="1.874718000">
        <ele>305.36</ele>
        <time>2013-05-31T11:46:08Z</time>
      </trkpt>
      <trkpt lat="41.595711000" lon="1.874814000">
        <ele>307.28</ele>
        <time>2013-05-31T11:46:21Z</time>
      </trkpt>
      <trkpt lat="41.595654000" lon="1.874824000">
        <ele>307.28</ele>
        <time>2013-05-31T11:46:25Z</time>
      </trkpt>
      <trkpt lat="41.595490000" lon="1.874762000">
        <ele>308.72</ele>
        <time>2013-05-31T11:46:35Z</time>
      </trkpt>
      <trkpt lat="41.595406000" lon="1.874735000">
        <ele>309.68</ele>
        <time>2013-05-31T11:46:40Z</time>
      </trkpt>
      <trkpt lat="41.595284000" lon="1.874778000">
        <ele>310.16</ele>
        <time>2013-05-31T11:46:48Z</time>
      </trkpt>
      <trkpt lat="41.595249000" lon="1.874767000">
        <ele>310.64</ele>
        <time>2013-05-31T11:46:50Z</time>
      </trkpt>
      <trkpt lat="41.595047000" lon="1.874502000">
        <ele>309.68</ele>
        <time>2013-05-31T11:47:02Z</time>
      </trkpt>
      <trkpt lat="41.594734000" lon="1.874381000">
        <ele>310.64</ele>
        <time>2013-05-31T11:47:13Z</time>
      </trkpt>
      <trkpt lat="41.594437000" lon="1.874211000">
        <ele>309.20</ele>
        <time>2013-05-31T11:47:24Z</time>
      </trkpt>
      <trkpt lat="41.594330000" lon="1.874080000">
        <ele>309.20</ele>
        <time>2013-05-31T11:47:28Z</time>
      </trkpt>
      <trkpt lat="41.594273000" lon="1.873917000">
        <ele>311.12</ele>
        <time>2013-05-31T11:47:35Z</time>
      </trkpt>
      <trkpt lat="41.594189000" lon="1.873621000">
        <ele>314.01</ele>
        <time>2013-05-31T11:47:49Z</time>
      </trkpt>
      <trkpt lat="41.594048000" lon="1.873431000">
        <ele>314.97</ele>
        <time>2013-05-31T11:48:00Z</time>
      </trkpt>
      <trkpt lat="41.594040000" lon="1.873342000">
        <ele>315.45</ele>
        <time>2013-05-31T11:48:04Z</time>
      </trkpt>
      <trkpt lat="41.594002000" lon="1.873161000">
        <ele>318.81</ele>
        <time>2013-05-31T11:48:13Z</time>
      </trkpt>
      <trkpt lat="41.594009000" lon="1.872978000">
        <ele>322.18</ele>
        <time>2013-05-31T11:48:22Z</time>
      </trkpt>
      <trkpt lat="41.594017000" lon="1.872957000">
        <ele>322.18</ele>
        <time>2013-05-31T11:48:23Z</time>
      </trkpt>
      <trkpt lat="41.594028000" lon="1.872914000">
        <ele>324.10</ele>
        <time>2013-05-31T11:48:25Z</time>
      </trkpt>
      <trkpt lat="41.594032000" lon="1.872854000">
        <ele>324.58</ele>
        <time>2013-05-31T11:48:28Z</time>
      </trkpt>
      <trkpt lat="41.593964000" lon="1.872698000">
        <ele>325.06</ele>
        <time>2013-05-31T11:48:37Z</time>
      </trkpt>
      <trkpt lat="41.593777000" lon="1.872614000">
        <ele>324.58</ele>
        <time>2013-05-31T11:48:46Z</time>
      </trkpt>
      <trkpt lat="41.593704000" lon="1.872581000">
        <ele>324.58</ele>
        <time>2013-05-31T11:48:50Z</time>
      </trkpt>
      <trkpt lat="41.593346000" lon="1.872505000">
        <ele>326.50</ele>
        <time>2013-05-31T11:49:05Z</time>
      </trkpt>
      <trkpt lat="41.593147000" lon="1.872812000">
        <ele>326.99</ele>
        <time>2013-05-31T11:49:18Z</time>
      </trkpt>
      <trkpt lat="41.592812000" lon="1.873092000">
        <ele>327.95</ele>
        <time>2013-05-31T11:49:33Z</time>
      </trkpt>
      <trkpt lat="41.592766000" lon="1.873130000">
        <ele>327.95</ele>
        <time>2013-05-31T11:49:35Z</time>
      </trkpt>
      <trkpt lat="41.592648000" lon="1.873041000">
        <ele>327.47</ele>
        <time>2013-05-31T11:49:40Z</time>
      </trkpt>
      <trkpt lat="41.592453000" lon="1.872841000">
        <ele>328.91</ele>
        <time>2013-05-31T11:49:52Z</time>
      </trkpt>
      <trkpt lat="41.592258000" lon="1.872660000">
        <ele>330.35</ele>
        <time>2013-05-31T11:50:06Z</time>
      </trkpt>
      <trkpt lat="41.592037000" lon="1.872410000">
        <ele>331.31</ele>
        <time>2013-05-31T11:50:22Z</time>
      </trkpt>
      <trkpt lat="41.591930000" lon="1.872241000">
        <ele>333.71</ele>
        <time>2013-05-31T11:50:32Z</time>
      </trkpt>
      <trkpt lat="41.591869000" lon="1.872100000">
        <ele>337.08</ele>
        <time>2013-05-31T11:50:39Z</time>
      </trkpt>
      <trkpt lat="41.591843000" lon="1.872064000">
        <ele>338.04</ele>
        <time>2013-05-31T11:50:49Z</time>
      </trkpt>
      <trkpt lat="41.591827000" lon="1.872042000">
        <ele>339.00</ele>
        <time>2013-05-31T11:50:59Z</time>
      </trkpt>
      <trkpt lat="41.591785000" lon="1.872018000">
        <ele>339.48</ele>
        <time>2013-05-31T11:51:04Z</time>
      </trkpt>
      <trkpt lat="41.591656000" lon="1.871856000">
        <ele>341.89</ele>
        <time>2013-05-31T11:51:17Z</time>
      </trkpt>
      <trkpt lat="41.591640000" lon="1.871814000">
        <ele>342.37</ele>
        <time>2013-05-31T11:51:19Z</time>
      </trkpt>
      <trkpt lat="41.591427000" lon="1.871587000">
        <ele>344.29</ele>
        <time>2013-05-31T11:51:34Z</time>
      </trkpt>
      <trkpt lat="41.591351000" lon="1.871581000">
        <ele>345.25</ele>
        <time>2013-05-31T11:51:38Z</time>
      </trkpt>
      <trkpt lat="41.591255000" lon="1.871569000">
        <ele>346.21</ele>
        <time>2013-05-31T11:51:44Z</time>
      </trkpt>
      <trkpt lat="41.591198000" lon="1.871517000">
        <ele>347.65</ele>
        <time>2013-05-31T11:51:49Z</time>
      </trkpt>
      <trkpt lat="41.591099000" lon="1.871422000">
        <ele>349.58</ele>
        <time>2013-05-31T11:51:58Z</time>
      </trkpt>
      <trkpt lat="41.590900000" lon="1.871279000">
        <ele>352.94</ele>
        <time>2013-05-31T11:52:11Z</time>
      </trkpt>
      <trkpt lat="41.590858000" lon="1.871251000">
        <ele>352.94</ele>
        <time>2013-05-31T11:52:14Z</time>
      </trkpt>
      <trkpt lat="41.590759000" lon="1.871180000">
        <ele>355.83</ele>
        <time>2013-05-31T11:52:25Z</time>
      </trkpt>
      <trkpt lat="41.590725000" lon="1.871148000">
        <ele>357.27</ele>
        <time>2013-05-31T11:52:34Z</time>
      </trkpt>
      <trkpt lat="41.590652000" lon="1.871117000">
        <ele>358.23</ele>
        <time>2013-05-31T11:52:44Z</time>
      </trkpt>
      <trkpt lat="41.590576000" lon="1.871104000">
        <ele>361.11</ele>
        <time>2013-05-31T11:52:50Z</time>
      </trkpt>
      <trkpt lat="41.590515000" lon="1.871094000">
        <ele>361.59</ele>
        <time>2013-05-31T11:52:55Z</time>
      </trkpt>
      <trkpt lat="41.590462000" lon="1.871086000">
        <ele>362.55</ele>
        <time>2013-05-31T11:52:59Z</time>
      </trkpt>
      <trkpt lat="41.590279000" lon="1.870926000">
        <ele>364.48</ele>
        <time>2013-05-31T11:53:12Z</time>
      </trkpt>
      <trkpt lat="41.590179000" lon="1.870835000">
        <ele>367.36</ele>
        <time>2013-05-31T11:53:22Z</time>
      </trkpt>
      <trkpt lat="41.590160000" lon="1.870816000">
        <ele>367.84</ele>
        <time>2013-05-31T11:53:24Z</time>
      </trkpt>
      <trkpt lat="41.590118000" lon="1.870715000">
        <ele>368.80</ele>
        <time>2013-05-31T11:53:30Z</time>
      </trkpt>
      <trkpt lat="41.590080000" lon="1.870551000">
        <ele>372.65</ele>
        <time>2013-05-31T11:53:39Z</time>
      </trkpt>
      <trkpt lat="41.590065000" lon="1.870461000">
        <ele>374.09</ele>
        <time>2013-05-31T11:53:44Z</time>
      </trkpt>
      <trkpt lat="41.590069000" lon="1.870427000">
        <ele>375.53</ele>
        <time>2013-05-31T11:53:46Z</time>
      </trkpt>
      <trkpt lat="41.590069000" lon="1.870394000">
        <ele>375.53</ele>
        <time>2013-05-31T11:53:48Z</time>
      </trkpt>
      <trkpt lat="41.590008000" lon="1.870275000">
        <ele>376.49</ele>
        <time>2013-05-31T11:53:56Z</time>
      </trkpt>
      <trkpt lat="41.589836000" lon="1.870118000">
        <ele>378.90</ele>
        <time>2013-05-31T11:54:11Z</time>
      </trkpt>
      <trkpt lat="41.589809000" lon="1.870103000">
        <ele>379.86</ele>
        <time>2013-05-31T11:54:13Z</time>
      </trkpt>
      <trkpt lat="41.589779000" lon="1.870098000">
        <ele>380.82</ele>
        <time>2013-05-31T11:54:15Z</time>
      </trkpt>
      <trkpt lat="41.589664000" lon="1.870212000">
        <ele>383.22</ele>
        <time>2013-05-31T11:54:26Z</time>
      </trkpt>
      <trkpt lat="41.589603000" lon="1.870381000">
        <ele>384.66</ele>
        <time>2013-05-31T11:54:36Z</time>
      </trkpt>
      <trkpt lat="41.589565000" lon="1.870545000">
        <ele>386.11</ele>
        <time>2013-05-31T11:54:44Z</time>
      </trkpt>
      <trkpt lat="41.589478000" lon="1.870903000">
        <ele>388.51</ele>
        <time>2013-05-31T11:54:58Z</time>
      </trkpt>
      <trkpt lat="41.589355000" lon="1.871191000">
        <ele>391.39</ele>
        <time>2013-05-31T11:55:12Z</time>
      </trkpt>
      <trkpt lat="41.589352000" lon="1.871194000">
        <ele>390.43</ele>
        <time>2013-05-31T11:55:27Z</time>
      </trkpt>
      <trkpt lat="41.589302000" lon="1.871167000">
        <ele>391.87</ele>
        <time>2013-05-31T11:55:40Z</time>
      </trkpt>
      <trkpt lat="41.589302000" lon="1.871167000">
        <ele>392.36</ele>
        <time>2013-05-31T11:55:42Z</time>
      </trkpt>
      <trkpt lat="41.589214000" lon="1.870971000">
        <ele>390.91</ele>
        <time>2013-05-31T11:55:50Z</time>
      </trkpt>
      <trkpt lat="41.588852000" lon="1.870582000">
        <ele>391.39</ele>
        <time>2013-05-31T11:56:03Z</time>
      </trkpt>
      <trkpt lat="41.588490000" lon="1.870266000">
        <ele>391.87</ele>
        <time>2013-05-31T11:56:15Z</time>
      </trkpt>
      <trkpt lat="41.588314000" lon="1.870264000">
        <ele>392.84</ele>
        <time>2013-05-31T11:56:27Z</time>
      </trkpt>
      <trkpt lat="41.588108000" lon="1.870281000">
        <ele>396.20</ele>
        <time>2013-05-31T11:56:39Z</time>
      </trkpt>
      <trkpt lat="41.587868000" lon="1.870160000">
        <ele>398.12</ele>
        <time>2013-05-31T11:56:51Z</time>
      </trkpt>
      <trkpt lat="41.587654000" lon="1.870026000">
        <ele>401.49</ele>
        <time>2013-05-31T11:57:02Z</time>
      </trkpt>
      <trkpt lat="41.587326000" lon="1.869907000">
        <ele>402.45</ele>
        <time>2013-05-31T11:57:14Z</time>
      </trkpt>
      <trkpt lat="41.586983000" lon="1.869737000">
        <ele>403.89</ele>
        <time>2013-05-31T11:57:27Z</time>
      </trkpt>
      <trkpt lat="41.586594000" lon="1.869542000">
        <ele>403.41</ele>
        <time>2013-05-31T11:57:40Z</time>
      </trkpt>
      <trkpt lat="41.586239000" lon="1.869463000">
        <ele>404.85</ele>
        <time>2013-05-31T11:57:52Z</time>
      </trkpt>
      <trkpt lat="41.585899000" lon="1.869514000">
        <ele>405.81</ele>
        <time>2013-05-31T11:58:03Z</time>
      </trkpt>
      <trkpt lat="41.585716000" lon="1.869647000">
        <ele>404.85</ele>
        <time>2013-05-31T11:58:09Z</time>
      </trkpt>
      <trkpt lat="41.585583000" lon="1.869750000">
        <ele>402.93</ele>
        <time>2013-05-31T11:58:12Z</time>
      </trkpt>
      <trkpt lat="41.585461000" lon="1.869732000">
        <ele>401.97</ele>
        <time>2013-05-31T11:58:15Z</time>
      </trkpt>
      <trkpt lat="41.585217000" lon="1.869402000">
        <ele>397.16</ele>
        <time>2013-05-31T11:58:21Z</time>
      </trkpt>
      <trkpt lat="41.585129000" lon="1.869267000">
        <ele>396.20</ele>
        <time>2013-05-31T11:58:23Z</time>
      </trkpt>
      <trkpt lat="41.585011000" lon="1.868961000">
        <ele>393.80</ele>
        <time>2013-05-31T11:58:27Z</time>
      </trkpt>
      <trkpt lat="41.584904000" lon="1.868722000">
        <ele>390.91</ele>
        <time>2013-05-31T11:58:30Z</time>
      </trkpt>
      <trkpt lat="41.584743000" lon="1.868472000">
        <ele>388.03</ele>
        <time>2013-05-31T11:58:34Z</time>
      </trkpt>
      <trkpt lat="41.584648000" lon="1.868252000">
        <ele>384.66</ele>
        <time>2013-05-31T11:58:38Z</time>
      </trkpt>
      <trkpt lat="41.584591000" lon="1.868301000">
        <ele>384.18</ele>
        <time>2013-05-31T11:58:42Z</time>
      </trkpt>
      <trkpt lat="41.584595000" lon="1.868581000">
        <ele>382.74</ele>
        <time>2013-05-31T11:58:47Z</time>
      </trkpt>
      <trkpt lat="41.584747000" lon="1.869198000">
        <ele>384.66</ele>
        <time>2013-05-31T11:58:59Z</time>
      </trkpt>
      <trkpt lat="41.584858000" lon="1.869568000">
        <ele>385.63</ele>
        <time>2013-05-31T11:59:06Z</time>
      </trkpt>
      <trkpt lat="41.584877000" lon="1.869699000">
        <ele>385.63</ele>
        <time>2013-05-31T11:59:08Z</time>
      </trkpt>
      <trkpt lat="41.584896000" lon="1.869898000">
        <ele>388.51</ele>
        <time>2013-05-31T11:59:12Z</time>
      </trkpt>
      <trkpt lat="41.584965000" lon="1.870050000">
        <ele>389.47</ele>
        <time>2013-05-31T11:59:17Z</time>
      </trkpt>
      <trkpt lat="41.585075000" lon="1.870193000">
        <ele>388.99</ele>
        <time>2013-05-31T11:59:21Z</time>
      </trkpt>
      <trkpt lat="41.585178000" lon="1.870294000">
        <ele>387.55</ele>
        <time>2013-05-31T11:59:24Z</time>
      </trkpt>
      <trkpt lat="41.585407000" lon="1.870420000">
        <ele>387.55</ele>
        <time>2013-05-31T11:59:31Z</time>
      </trkpt>
      <trkpt lat="41.585522000" lon="1.870445000">
        <ele>385.63</ele>
        <time>2013-05-31T11:59:35Z</time>
      </trkpt>
      <trkpt lat="41.585789000" lon="1.870526000">
        <ele>382.26</ele>
        <time>2013-05-31T11:59:44Z</time>
      </trkpt>
      <trkpt lat="41.586048000" lon="1.870553000">
        <ele>379.38</ele>
        <time>2013-05-31T11:59:55Z</time>
      </trkpt>
      <trkpt lat="41.586304000" lon="1.870546000">
        <ele>377.45</ele>
        <time>2013-05-31T12:00:06Z</time>
      </trkpt>
      <trkpt lat="41.586594000" lon="1.870590000">
        <ele>374.57</ele>
        <time>2013-05-31T12:00:16Z</time>
      </trkpt>
      <trkpt lat="41.586689000" lon="1.870625000">
        <ele>374.09</ele>
        <time>2013-05-31T12:00:19Z</time>
      </trkpt>
      <trkpt lat="41.586987000" lon="1.870700000">
        <ele>371.69</ele>
        <time>2013-05-31T12:00:26Z</time>
      </trkpt>
      <trkpt lat="41.587097000" lon="1.870765000">
        <ele>371.21</ele>
        <time>2013-05-31T12:00:29Z</time>
      </trkpt>
      <trkpt lat="41.587162000" lon="1.870836000">
        <ele>371.21</ele>
        <time>2013-05-31T12:00:31Z</time>
      </trkpt>
      <trkpt lat="41.587280000" lon="1.870923000">
        <ele>370.73</ele>
        <time>2013-05-31T12:00:34Z</time>
      </trkpt>
      <trkpt lat="41.587456000" lon="1.870990000">
        <ele>369.28</ele>
        <time>2013-05-31T12:00:38Z</time>
      </trkpt>
      <trkpt lat="41.587543000" lon="1.871017000">
        <ele>369.28</ele>
        <time>2013-05-31T12:00:40Z</time>
      </trkpt>
      <trkpt lat="41.587852000" lon="1.871122000">
        <ele>366.88</ele>
        <time>2013-05-31T12:00:46Z</time>
      </trkpt>
      <trkpt lat="41.587994000" lon="1.871243000">
        <ele>368.32</ele>
        <time>2013-05-31T12:00:50Z</time>
      </trkpt>
      <trkpt lat="41.588139000" lon="1.871282000">
        <ele>366.88</ele>
        <time>2013-05-31T12:00:53Z</time>
      </trkpt>
      <trkpt lat="41.588261000" lon="1.871285000">
        <ele>365.92</ele>
        <time>2013-05-31T12:00:55Z</time>
      </trkpt>
      <trkpt lat="41.588402000" lon="1.871419000">
        <ele>365.92</ele>
        <time>2013-05-31T12:01:00Z</time>
      </trkpt>
      <trkpt lat="41.588356000" lon="1.871603000">
        <ele>366.88</ele>
        <time>2013-05-31T12:01:06Z</time>
      </trkpt>
      <trkpt lat="41.588409000" lon="1.871732000">
        <ele>367.84</ele>
        <time>2013-05-31T12:01:15Z</time>
      </trkpt>
      <trkpt lat="41.588490000" lon="1.871767000">
        <ele>367.84</ele>
        <time>2013-05-31T12:01:22Z</time>
      </trkpt>
      <trkpt lat="41.588520000" lon="1.871829000">
        <ele>367.84</ele>
        <time>2013-05-31T12:01:32Z</time>
      </trkpt>
      <trkpt lat="41.588520000" lon="1.871829000">
        <ele>368.32</ele>
        <time>2013-05-31T12:01:53Z</time>
      </trkpt>
      <trkpt lat="41.588520000" lon="1.871855000">
        <ele>368.32</ele>
        <time>2013-05-31T12:02:10Z</time>
      </trkpt>
      <trkpt lat="41.588520000" lon="1.871851000">
        <ele>367.84</ele>
        <time>2013-05-31T12:02:27Z</time>
      </trkpt>
      <trkpt lat="41.588531000" lon="1.871855000">
        <ele>367.36</ele>
        <time>2013-05-31T12:02:48Z</time>
      </trkpt>
      <trkpt lat="41.588531000" lon="1.871855000">
        <ele>367.84</ele>
        <time>2013-05-31T12:03:10Z</time>
      </trkpt>
      <trkpt lat="41.588520000" lon="1.871853000">
        <ele>367.84</ele>
        <time>2013-05-31T12:03:38Z</time>
      </trkpt>
      <trkpt lat="41.588520000" lon="1.871856000">
        <ele>367.84</ele>
        <time>2013-05-31T12:04:01Z</time>
      </trkpt>
      <trkpt lat="41.588524000" lon="1.871854000">
        <ele>367.84</ele>
        <time>2013-05-31T12:04:32Z</time>
      </trkpt>
      <trkpt lat="41.588524000" lon="1.871856000">
        <ele>367.84</ele>
        <time>2013-05-31T12:05:04Z</time>
      </trkpt>
      <trkpt lat="41.588535000" lon="1.872042000">
        <ele>368.32</ele>
        <time>2013-05-31T12:05:22Z</time>
      </trkpt>
      <trkpt lat="41.588428000" lon="1.872429000">
        <ele>367.84</ele>
        <time>2013-05-31T12:05:33Z</time>
      </trkpt>
      <trkpt lat="41.588379000" lon="1.872690000">
        <ele>366.40</ele>
        <time>2013-05-31T12:05:41Z</time>
      </trkpt>
      <trkpt lat="41.588379000" lon="1.872690000">
        <ele>366.40</ele>
        <time>2013-05-31T12:06:06Z</time>
      </trkpt>
      <trkpt lat="41.588341000" lon="1.872810000">
        <ele>365.92</ele>
        <time>2013-05-31T12:06:13Z</time>
      </trkpt>
      <trkpt lat="41.588299000" lon="1.872980000">
        <ele>364.48</ele>
        <time>2013-05-31T12:06:16Z</time>
      </trkpt>
      <trkpt lat="41.588192000" lon="1.873222000">
        <ele>362.07</ele>
        <time>2013-05-31T12:06:21Z</time>
      </trkpt>
      <trkpt lat="41.588146000" lon="1.873244000">
        <ele>361.11</ele>
        <time>2013-05-31T12:06:22Z</time>
      </trkpt>
      <trkpt lat="41.587978000" lon="1.873307000">
        <ele>357.27</ele>
        <time>2013-05-31T12:06:26Z</time>
      </trkpt>
      <trkpt lat="41.587914000" lon="1.873376000">
        <ele>356.31</ele>
        <time>2013-05-31T12:06:29Z</time>
      </trkpt>
      <trkpt lat="41.587814000" lon="1.873326000">
        <ele>352.94</ele>
        <time>2013-05-31T12:06:34Z</time>
      </trkpt>
      <trkpt lat="41.587734000" lon="1.873131000">
        <ele>349.58</ele>
        <time>2013-05-31T12:06:38Z</time>
      </trkpt>
      <trkpt lat="41.587555000" lon="1.873300000">
        <ele>346.21</ele>
        <time>2013-05-31T12:06:45Z</time>
      </trkpt>
      <trkpt lat="41.587288000" lon="1.873158000">
        <ele>344.77</ele>
        <time>2013-05-31T12:06:52Z</time>
      </trkpt>
      <trkpt lat="41.587208000" lon="1.873058000">
        <ele>343.33</ele>
        <time>2013-05-31T12:06:54Z</time>
      </trkpt>
      <trkpt lat="41.587093000" lon="1.872791000">
        <ele>339.96</ele>
        <time>2013-05-31T12:06:58Z</time>
      </trkpt>
      <trkpt lat="41.587074000" lon="1.872735000">
        <ele>339.48</ele>
        <time>2013-05-31T12:06:59Z</time>
      </trkpt>
      <trkpt lat="41.586891000" lon="1.872693000">
        <ele>336.12</ele>
        <time>2013-05-31T12:07:04Z</time>
      </trkpt>
      <trkpt lat="41.586842000" lon="1.872708000">
        <ele>336.12</ele>
        <time>2013-05-31T12:07:05Z</time>
      </trkpt>
      <trkpt lat="41.586662000" lon="1.872739000">
        <ele>334.20</ele>
        <time>2013-05-31T12:07:08Z</time>
      </trkpt>
      <trkpt lat="41.586475000" lon="1.872784000">
        <ele>331.31</ele>
        <time>2013-05-31T12:07:11Z</time>
      </trkpt>
      <trkpt lat="41.586388000" lon="1.872835000">
        <ele>329.87</ele>
        <time>2013-05-31T12:07:13Z</time>
      </trkpt>
      <trkpt lat="41.586155000" lon="1.873020000">
        <ele>326.50</ele>
        <time>2013-05-31T12:07:17Z</time>
      </trkpt>
      <trkpt lat="41.586029000" lon="1.873427000">
        <ele>322.18</ele>
        <time>2013-05-31T12:07:24Z</time>
      </trkpt>
      <trkpt lat="41.585876000" lon="1.873557000">
        <ele>322.18</ele>
        <time>2013-05-31T12:07:29Z</time>
      </trkpt>
      <trkpt lat="41.585659000" lon="1.873542000">
        <ele>323.62</ele>
        <time>2013-05-31T12:07:35Z</time>
      </trkpt>
      <trkpt lat="41.585533000" lon="1.873486000">
        <ele>322.66</ele>
        <time>2013-05-31T12:07:38Z</time>
      </trkpt>
      <trkpt lat="41.585377000" lon="1.873478000">
        <ele>322.66</ele>
        <time>2013-05-31T12:07:41Z</time>
      </trkpt>
      <trkpt lat="41.585197000" lon="1.873439000">
        <ele>321.70</ele>
        <time>2013-05-31T12:07:44Z</time>
      </trkpt>
      <trkpt lat="41.585037000" lon="1.873294000">
        <ele>320.26</ele>
        <time>2013-05-31T12:07:47Z</time>
      </trkpt>
      <trkpt lat="41.584774000" lon="1.873346000">
        <ele>319.30</ele>
        <time>2013-05-31T12:07:53Z</time>
      </trkpt>
      <trkpt lat="41.584629000" lon="1.873439000">
        <ele>315.45</ele>
        <time>2013-05-31T12:07:57Z</time>
      </trkpt>
      <trkpt lat="41.584648000" lon="1.873259000">
        <ele>311.12</ele>
        <time>2013-05-31T12:08:03Z</time>
      </trkpt>
      <trkpt lat="41.584759000" lon="1.873116000">
        <ele>309.68</ele>
        <time>2013-05-31T12:08:06Z</time>
      </trkpt>
      <trkpt lat="41.584930000" lon="1.872968000">
        <ele>305.36</ele>
        <time>2013-05-31T12:08:10Z</time>
      </trkpt>
      <trkpt lat="41.585098000" lon="1.872876000">
        <ele>302.95</ele>
        <time>2013-05-31T12:08:13Z</time>
      </trkpt>
      <trkpt lat="41.585308000" lon="1.872854000">
        <ele>298.63</ele>
        <time>2013-05-31T12:08:17Z</time>
      </trkpt>
      <trkpt lat="41.585442000" lon="1.872860000">
        <ele>295.26</ele>
        <time>2013-05-31T12:08:20Z</time>
      </trkpt>
      <trkpt lat="41.585464000" lon="1.872852000">
        <ele>294.78</ele>
        <time>2013-05-31T12:08:25Z</time>
      </trkpt>
      <trkpt lat="41.585411000" lon="1.872681000">
        <ele>293.34</ele>
        <time>2013-05-31T12:08:31Z</time>
      </trkpt>
      <trkpt lat="41.585381000" lon="1.872649000">
        <ele>292.38</ele>
        <time>2013-05-31T12:08:32Z</time>
      </trkpt>
      <trkpt lat="41.585201000" lon="1.872378000">
        <ele>287.57</ele>
        <time>2013-05-31T12:08:38Z</time>
      </trkpt>
      <trkpt lat="41.585030000" lon="1.872248000">
        <ele>283.73</ele>
        <time>2013-05-31T12:08:44Z</time>
      </trkpt>
      <trkpt lat="41.584965000" lon="1.872282000">
        <ele>282.77</ele>
        <time>2013-05-31T12:08:46Z</time>
      </trkpt>
      <trkpt lat="41.584888000" lon="1.872365000">
        <ele>281.32</ele>
        <time>2013-05-31T12:08:48Z</time>
      </trkpt>
      <trkpt lat="41.584660000" lon="1.872530000">
        <ele>279.40</ele>
        <time>2013-05-31T12:08:52Z</time>
      </trkpt>
      <trkpt lat="41.584282000" lon="1.872675000">
        <ele>278.44</ele>
        <time>2013-05-31T12:08:58Z</time>
      </trkpt>
      <trkpt lat="41.583847000" lon="1.872672000">
        <ele>279.40</ele>
        <time>2013-05-31T12:09:06Z</time>
      </trkpt>
      <trkpt lat="41.583580000" lon="1.872615000">
        <ele>277.48</ele>
        <time>2013-05-31T12:09:13Z</time>
      </trkpt>
      <trkpt lat="41.583496000" lon="1.872704000">
        <ele>275.07</ele>
        <time>2013-05-31T12:09:15Z</time>
      </trkpt>
      <trkpt lat="41.583397000" lon="1.872880000">
        <ele>273.15</ele>
        <time>2013-05-31T12:09:18Z</time>
      </trkpt>
      <trkpt lat="41.583344000" lon="1.873029000">
        <ele>271.23</ele>
        <time>2013-05-31T12:09:20Z</time>
      </trkpt>
      <trkpt lat="41.583305000" lon="1.873247000">
        <ele>267.86</ele>
        <time>2013-05-31T12:09:23Z</time>
      </trkpt>
      <trkpt lat="41.583179000" lon="1.873328000">
        <ele>268.35</ele>
        <time>2013-05-31T12:09:27Z</time>
      </trkpt>
      <trkpt lat="41.582893000" lon="1.873365000">
        <ele>267.38</ele>
        <time>2013-05-31T12:09:33Z</time>
      </trkpt>
      <trkpt lat="41.582722000" lon="1.873453000">
        <ele>267.86</ele>
        <time>2013-05-31T12:09:36Z</time>
      </trkpt>
      <trkpt lat="41.582504000" lon="1.873901000">
        <ele>264.98</ele>
        <time>2013-05-31T12:09:43Z</time>
      </trkpt>
      <trkpt lat="41.582386000" lon="1.874038000">
        <ele>264.02</ele>
        <time>2013-05-31T12:09:45Z</time>
      </trkpt>
      <trkpt lat="41.582047000" lon="1.874332000">
        <ele>260.65</ele>
        <time>2013-05-31T12:09:50Z</time>
      </trkpt>
      <trkpt lat="41.581856000" lon="1.874462000">
        <ele>258.25</ele>
        <time>2013-05-31T12:09:53Z</time>
      </trkpt>
      <trkpt lat="41.581783000" lon="1.874477000">
        <ele>257.77</ele>
        <time>2013-05-31T12:09:54Z</time>
      </trkpt>
      <trkpt lat="41.581474000" lon="1.874329000">
        <ele>258.73</ele>
        <time>2013-05-31T12:09:59Z</time>
      </trkpt>
      <trkpt lat="41.581196000" lon="1.874247000">
        <ele>260.65</ele>
        <time>2013-05-31T12:10:04Z</time>
      </trkpt>
      <trkpt lat="41.580917000" lon="1.874176000">
        <ele>257.29</ele>
        <time>2013-05-31T12:10:10Z</time>
      </trkpt>
      <trkpt lat="41.580879000" lon="1.874148000">
        <ele>255.85</ele>
        <time>2013-05-31T12:10:11Z</time>
      </trkpt>
      <trkpt lat="41.580803000" lon="1.874067000">
        <ele>253.44</ele>
        <time>2013-05-31T12:10:13Z</time>
      </trkpt>
      <trkpt lat="41.580624000" lon="1.873939000">
        <ele>248.16</ele>
        <time>2013-05-31T12:10:17Z</time>
      </trkpt>
      <trkpt lat="41.580578000" lon="1.873910000">
        <ele>246.72</ele>
        <time>2013-05-31T12:10:18Z</time>
      </trkpt>
      <trkpt lat="41.580383000" lon="1.873826000">
        <ele>241.91</ele>
        <time>2013-05-31T12:10:22Z</time>
      </trkpt>
      <trkpt lat="41.580334000" lon="1.873807000">
        <ele>240.47</ele>
        <time>2013-05-31T12:10:23Z</time>
      </trkpt>
      <trkpt lat="41.580181000" lon="1.873719000">
        <ele>236.62</ele>
        <time>2013-05-31T12:10:26Z</time>
      </trkpt>
      <trkpt lat="41.580086000" lon="1.873640000">
        <ele>234.70</ele>
        <time>2013-05-31T12:10:28Z</time>
      </trkpt>
      <trkpt lat="41.579998000" lon="1.873546000">
        <ele>233.74</ele>
        <time>2013-05-31T12:10:30Z</time>
      </trkpt>
      <trkpt lat="41.579887000" lon="1.873403000">
        <ele>231.81</ele>
        <time>2013-05-31T12:10:33Z</time>
      </trkpt>
      <trkpt lat="41.579762000" lon="1.873287000">
        <ele>228.45</ele>
        <time>2013-05-31T12:10:38Z</time>
      </trkpt>
      <trkpt lat="41.579716000" lon="1.873310000">
        <ele>227.49</ele>
        <time>2013-05-31T12:10:40Z</time>
      </trkpt>
      <trkpt lat="41.579704000" lon="1.873510000">
        <ele>227.01</ele>
        <time>2013-05-31T12:10:46Z</time>
      </trkpt>
      <trkpt lat="41.579746000" lon="1.873709000">
        <ele>229.89</ele>
        <time>2013-05-31T12:10:52Z</time>
      </trkpt>
      <trkpt lat="41.579720000" lon="1.873750000">
        <ele>230.85</ele>
        <time>2013-05-31T12:10:54Z</time>
      </trkpt>
      <trkpt lat="41.579655000" lon="1.873692000">
        <ele>231.81</ele>
        <time>2013-05-31T12:10:58Z</time>
      </trkpt>
      <trkpt lat="41.579628000" lon="1.873564000">
        <ele>230.85</ele>
        <time>2013-05-31T12:11:01Z</time>
      </trkpt>
      <trkpt lat="41.579510000" lon="1.873299000">
        <ele>228.93</ele>
        <time>2013-05-31T12:11:05Z</time>
      </trkpt>
      <trkpt lat="41.579475000" lon="1.873222000">
        <ele>227.97</ele>
        <time>2013-05-31T12:11:06Z</time>
      </trkpt>
      <trkpt lat="41.579376000" lon="1.872735000">
        <ele>226.05</ele>
        <time>2013-05-31T12:11:11Z</time>
      </trkpt>
      <trkpt lat="41.579117000" lon="1.872289000">
        <ele>225.09</ele>
        <time>2013-05-31T12:11:19Z</time>
      </trkpt>
      <trkpt lat="41.578934000" lon="1.872380000">
        <ele>223.64</ele>
        <time>2013-05-31T12:11:23Z</time>
      </trkpt>
      <trkpt lat="41.578873000" lon="1.872390000">
        <ele>223.16</ele>
        <time>2013-05-31T12:11:24Z</time>
      </trkpt>
      <trkpt lat="41.578445000" lon="1.872278000">
        <ele>222.68</ele>
        <time>2013-05-31T12:11:31Z</time>
      </trkpt>
      <trkpt lat="41.578262000" lon="1.872244000">
        <ele>223.16</ele>
        <time>2013-05-31T12:11:34Z</time>
      </trkpt>
      <trkpt lat="41.578117000" lon="1.872131000">
        <ele>225.57</ele>
        <time>2013-05-31T12:11:38Z</time>
      </trkpt>
      <trkpt lat="41.578037000" lon="1.871956000">
        <ele>224.12</ele>
        <time>2013-05-31T12:11:41Z</time>
      </trkpt>
      <trkpt lat="41.577896000" lon="1.871928000">
        <ele>223.64</ele>
        <time>2013-05-31T12:11:45Z</time>
      </trkpt>
      <trkpt lat="41.577499000" lon="1.872082000">
        <ele>222.20</ele>
        <time>2013-05-31T12:11:52Z</time>
      </trkpt>
      <trkpt lat="41.577271000" lon="1.872088000">
        <ele>223.16</ele>
        <time>2013-05-31T12:11:56Z</time>
      </trkpt>
      <trkpt lat="41.576790000" lon="1.872097000">
        <ele>226.05</ele>
        <time>2013-05-31T12:12:07Z</time>
      </trkpt>
      <trkpt lat="41.576756000" lon="1.872115000">
        <ele>226.05</ele>
        <time>2013-05-31T12:12:08Z</time>
      </trkpt>
      <trkpt lat="41.576477000" lon="1.872396000">
        <ele>226.05</ele>
        <time>2013-05-31T12:12:16Z</time>
      </trkpt>
      <trkpt lat="41.576294000" lon="1.872478000">
        <ele>224.61</ele>
        <time>2013-05-31T12:12:20Z</time>
      </trkpt>
      <trkpt lat="41.576153000" lon="1.872484000">
        <ele>223.16</ele>
        <time>2013-05-31T12:12:22Z</time>
      </trkpt>
      <trkpt lat="41.575771000" lon="1.872495000">
        <ele>224.61</ele>
        <time>2013-05-31T12:12:28Z</time>
      </trkpt>
      <trkpt lat="41.575489000" lon="1.872566000">
        <ele>221.24</ele>
        <time>2013-05-31T12:12:33Z</time>
      </trkpt>
      <trkpt lat="41.575024000" lon="1.872556000">
        <ele>221.72</ele>
        <time>2013-05-31T12:12:40Z</time>
      </trkpt>
      <trkpt lat="41.574665000" lon="1.872696000">
        <ele>222.20</ele>
        <time>2013-05-31T12:12:51Z</time>
      </trkpt>
      <trkpt lat="41.574596000" lon="1.872729000">
        <ele>222.20</ele>
        <time>2013-05-31T12:12:54Z</time>
      </trkpt>
      <trkpt lat="41.574352000" lon="1.872546000">
        <ele>225.09</ele>
        <time>2013-05-31T12:13:04Z</time>
      </trkpt>
      <trkpt lat="41.574158000" lon="1.872295000">
        <ele>223.64</ele>
        <time>2013-05-31T12:13:13Z</time>
      </trkpt>
      <trkpt lat="41.573898000" lon="1.872230000">
        <ele>222.20</ele>
        <time>2013-05-31T12:13:21Z</time>
      </trkpt>
      <trkpt lat="41.573711000" lon="1.872222000">
        <ele>219.32</ele>
        <time>2013-05-31T12:13:26Z</time>
      </trkpt>
      <trkpt lat="41.573643000" lon="1.872199000">
        <ele>217.88</ele>
        <time>2013-05-31T12:13:28Z</time>
      </trkpt>
      <trkpt lat="41.573570000" lon="1.872175000">
        <ele>216.43</ele>
        <time>2013-05-31T12:13:30Z</time>
      </trkpt>
      <trkpt lat="41.573444000" lon="1.872131000">
        <ele>213.55</ele>
        <time>2013-05-31T12:13:34Z</time>
      </trkpt>
      <trkpt lat="41.573280000" lon="1.872073000">
        <ele>210.67</ele>
        <time>2013-05-31T12:13:39Z</time>
      </trkpt>
      <trkpt lat="41.573174000" lon="1.871977000">
        <ele>207.78</ele>
        <time>2013-05-31T12:13:42Z</time>
      </trkpt>
      <trkpt lat="41.573135000" lon="1.871940000">
        <ele>207.30</ele>
        <time>2013-05-31T12:13:43Z</time>
      </trkpt>
      <trkpt lat="41.573093000" lon="1.871901000">
        <ele>207.30</ele>
        <time>2013-05-31T12:13:44Z</time>
      </trkpt>
      <trkpt lat="41.572998000" lon="1.871828000">
        <ele>205.38</ele>
        <time>2013-05-31T12:13:46Z</time>
      </trkpt>
      <trkpt lat="41.572826000" lon="1.871726000">
        <ele>204.42</ele>
        <time>2013-05-31T12:13:49Z</time>
      </trkpt>
      <trkpt lat="41.572559000" lon="1.871599000">
        <ele>202.49</ele>
        <time>2013-05-31T12:13:54Z</time>
      </trkpt>
      <trkpt lat="41.572430000" lon="1.871543000">
        <ele>201.05</ele>
        <time>2013-05-31T12:13:57Z</time>
      </trkpt>
      <trkpt lat="41.572350000" lon="1.871493000">
        <ele>200.57</ele>
        <time>2013-05-31T12:13:59Z</time>
      </trkpt>
      <trkpt lat="41.572258000" lon="1.871448000">
        <ele>199.61</ele>
        <time>2013-05-31T12:14:01Z</time>
      </trkpt>
      <trkpt lat="41.572121000" lon="1.871419000">
        <ele>198.65</ele>
        <time>2013-05-31T12:14:04Z</time>
      </trkpt>
      <trkpt lat="41.572021000" lon="1.871393000">
        <ele>197.69</ele>
        <time>2013-05-31T12:14:06Z</time>
      </trkpt>
      <trkpt lat="41.571938000" lon="1.871335000">
        <ele>196.73</ele>
        <time>2013-05-31T12:14:08Z</time>
      </trkpt>
      <trkpt lat="41.571865000" lon="1.871183000">
        <ele>197.21</ele>
        <time>2013-05-31T12:14:11Z</time>
      </trkpt>
      <trkpt lat="41.571869000" lon="1.871025000">
        <ele>198.17</ele>
        <time>2013-05-31T12:14:16Z</time>
      </trkpt>
      <trkpt lat="41.572006000" lon="1.870746000">
        <ele>196.25</ele>
        <time>2013-05-31T12:14:21Z</time>
      </trkpt>
      <trkpt lat="41.572121000" lon="1.870460000">
        <ele>192.40</ele>
        <time>2013-05-31T12:14:25Z</time>
      </trkpt>
      <trkpt lat="41.572079000" lon="1.870085000">
        <ele>188.56</ele>
        <time>2013-05-31T12:14:30Z</time>
      </trkpt>
      <trkpt lat="41.572044000" lon="1.870023000">
        <ele>188.08</ele>
        <time>2013-05-31T12:14:31Z</time>
      </trkpt>
      <trkpt lat="41.571957000" lon="1.869917000">
        <ele>186.63</ele>
        <time>2013-05-31T12:14:33Z</time>
      </trkpt>
      <trkpt lat="41.571823000" lon="1.869776000">
        <ele>184.71</ele>
        <time>2013-05-31T12:14:36Z</time>
      </trkpt>
      <trkpt lat="41.571762000" lon="1.869683000">
        <ele>183.27</ele>
        <time>2013-05-31T12:14:38Z</time>
      </trkpt>
      <trkpt lat="41.571728000" lon="1.869576000">
        <ele>182.79</ele>
        <time>2013-05-31T12:14:40Z</time>
      </trkpt>
      <trkpt lat="41.571701000" lon="1.869449000">
        <ele>181.83</ele>
        <time>2013-05-31T12:14:42Z</time>
      </trkpt>
      <trkpt lat="41.571636000" lon="1.869136000">
        <ele>178.46</ele>
        <time>2013-05-31T12:14:46Z</time>
      </trkpt>
      <trkpt lat="41.571613000" lon="1.868860000">
        <ele>176.54</ele>
        <time>2013-05-31T12:14:49Z</time>
      </trkpt>
      <trkpt lat="41.571598000" lon="1.868651000">
        <ele>174.62</ele>
        <time>2013-05-31T12:14:51Z</time>
      </trkpt>
      <trkpt lat="41.571487000" lon="1.867964000">
        <ele>170.77</ele>
        <time>2013-05-31T12:14:59Z</time>
      </trkpt>
      <trkpt lat="41.571472000" lon="1.867834000">
        <ele>169.33</ele>
        <time>2013-05-31T12:15:02Z</time>
      </trkpt>
      <trkpt lat="41.571445000" lon="1.867750000">
        <ele>167.89</ele>
        <time>2013-05-31T12:15:05Z</time>
      </trkpt>
      <trkpt lat="41.571392000" lon="1.867816000">
        <ele>166.93</ele>
        <time>2013-05-31T12:15:09Z</time>
      </trkpt>
      <trkpt lat="41.571323000" lon="1.868326000">
        <ele>165.96</ele>
        <time>2013-05-31T12:15:21Z</time>
      </trkpt>
      <trkpt lat="41.571327000" lon="1.868383000">
        <ele>165.48</ele>
        <time>2013-05-31T12:15:22Z</time>
      </trkpt>
      <trkpt lat="41.571274000" lon="1.868676000">
        <ele>161.64</ele>
        <time>2013-05-31T12:15:28Z</time>
      </trkpt>
      <trkpt lat="41.571228000" lon="1.868773000">
        <ele>159.72</ele>
        <time>2013-05-31T12:15:30Z</time>
      </trkpt>
      <trkpt lat="41.571136000" lon="1.869082000">
        <ele>156.83</ele>
        <time>2013-05-31T12:15:35Z</time>
      </trkpt>
      <trkpt lat="41.571102000" lon="1.869205000">
        <ele>155.39</ele>
        <time>2013-05-31T12:15:37Z</time>
      </trkpt>
      <trkpt lat="41.571014000" lon="1.869361000">
        <ele>152.51</ele>
        <time>2013-05-31T12:15:40Z</time>
      </trkpt>
      <trkpt lat="41.570950000" lon="1.869762000">
        <ele>149.14</ele>
        <time>2013-05-31T12:15:46Z</time>
      </trkpt>
      <trkpt lat="41.571125000" lon="1.870006000">
        <ele>149.14</ele>
        <time>2013-05-31T12:15:51Z</time>
      </trkpt>
      <trkpt lat="41.571213000" lon="1.870081000">
        <ele>149.14</ele>
        <time>2013-05-31T12:15:53Z</time>
      </trkpt>
      <trkpt lat="41.571316000" lon="1.870208000">
        <ele>149.14</ele>
        <time>2013-05-31T12:15:56Z</time>
      </trkpt>
      <trkpt lat="41.571304000" lon="1.870404000">
        <ele>148.66</ele>
        <time>2013-05-31T12:16:00Z</time>
      </trkpt>
      <trkpt lat="41.571175000" lon="1.870911000">
        <ele>149.62</ele>
        <time>2013-05-31T12:16:11Z</time>
      </trkpt>
      <trkpt lat="41.571140000" lon="1.871336000">
        <ele>149.14</ele>
        <time>2013-05-31T12:16:19Z</time>
      </trkpt>
      <trkpt lat="41.571190000" lon="1.871444000">
        <ele>150.10</ele>
        <time>2013-05-31T12:16:21Z</time>
      </trkpt>
      <trkpt lat="41.571373000" lon="1.872025000">
        <ele>148.66</ele>
        <time>2013-05-31T12:16:33Z</time>
      </trkpt>
      <trkpt lat="41.571415000" lon="1.872239000">
        <ele>148.18</ele>
        <time>2013-05-31T12:16:37Z</time>
      </trkpt>
      <trkpt lat="41.571594000" lon="1.872537000">
        <ele>146.26</ele>
        <time>2013-05-31T12:16:43Z</time>
      </trkpt>
      <trkpt lat="41.571720000" lon="1.872960000">
        <ele>142.41</ele>
        <time>2013-05-31T12:16:50Z</time>
      </trkpt>
      <trkpt lat="41.571796000" lon="1.873242000">
        <ele>140.97</ele>
        <time>2013-05-31T12:16:54Z</time>
      </trkpt>
      <trkpt lat="41.571785000" lon="1.873746000">
        <ele>139.05</ele>
        <time>2013-05-31T12:17:01Z</time>
      </trkpt>
      <trkpt lat="41.571575000" lon="1.874164000">
        <ele>138.09</ele>
        <time>2013-05-31T12:17:08Z</time>
      </trkpt>
      <trkpt lat="41.571373000" lon="1.874410000">
        <ele>134.72</ele>
        <time>2013-05-31T12:17:14Z</time>
      </trkpt>
      <trkpt lat="41.571373000" lon="1.874621000">
        <ele>130.40</ele>
        <time>2013-05-31T12:17:18Z</time>
      </trkpt>
      <trkpt lat="41.571404000" lon="1.874676000">
        <ele>129.43</ele>
        <time>2013-05-31T12:17:19Z</time>
      </trkpt>
      <trkpt lat="41.571480000" lon="1.874803000">
        <ele>128.95</ele>
        <time>2013-05-31T12:17:21Z</time>
      </trkpt>
      <trkpt lat="41.571556000" lon="1.874937000">
        <ele>128.47</ele>
        <time>2013-05-31T12:17:23Z</time>
      </trkpt>
      <trkpt lat="41.571712000" lon="1.875231000">
        <ele>126.07</ele>
        <time>2013-05-31T12:17:27Z</time>
      </trkpt>
      <trkpt lat="41.571804000" lon="1.875687000">
        <ele>126.07</ele>
        <time>2013-05-31T12:17:32Z</time>
      </trkpt>
      <trkpt lat="41.571804000" lon="1.875836000">
        <ele>124.63</ele>
        <time>2013-05-31T12:17:34Z</time>
      </trkpt>
      <trkpt lat="41.571819000" lon="1.875983000">
        <ele>122.71</ele>
        <time>2013-05-31T12:17:36Z</time>
      </trkpt>
      <trkpt lat="41.571732000" lon="1.876328000">
        <ele>118.86</ele>
        <time>2013-05-31T12:17:41Z</time>
      </trkpt>
      <trkpt lat="41.571663000" lon="1.876627000">
        <ele>115.98</ele>
        <time>2013-05-31T12:17:44Z</time>
      </trkpt>
      <trkpt lat="41.571617000" lon="1.876812000">
        <ele>115.01</ele>
        <time>2013-05-31T12:17:46Z</time>
      </trkpt>
      <trkpt lat="41.571457000" lon="1.876993000">
        <ele>112.13</ele>
        <time>2013-05-31T12:17:50Z</time>
      </trkpt>
      <trkpt lat="41.571327000" lon="1.877059000">
        <ele>111.17</ele>
        <time>2013-05-31T12:17:52Z</time>
      </trkpt>
      <trkpt lat="41.571056000" lon="1.877273000">
        <ele>107.32</ele>
        <time>2013-05-31T12:17:57Z</time>
      </trkpt>
      <trkpt lat="41.571030000" lon="1.877348000">
        <ele>106.36</ele>
        <time>2013-05-31T12:17:58Z</time>
      </trkpt>
      <trkpt lat="41.570988000" lon="1.877491000">
        <ele>104.44</ele>
        <time>2013-05-31T12:18:00Z</time>
      </trkpt>
      <trkpt lat="41.570854000" lon="1.877690000">
        <ele>100.60</ele>
        <time>2013-05-31T12:18:04Z</time>
      </trkpt>
      <trkpt lat="41.570690000" lon="1.877952000">
        <ele>95.31</ele>
        <time>2013-05-31T12:18:08Z</time>
      </trkpt>
      <trkpt lat="41.570553000" lon="1.878174000">
        <ele>91.46</ele>
        <time>2013-05-31T12:18:11Z</time>
      </trkpt>
      <trkpt lat="41.570354000" lon="1.878491000">
        <ele>88.10</ele>
        <time>2013-05-31T12:18:15Z</time>
      </trkpt>
      <trkpt lat="41.570141000" lon="1.878911000">
        <ele>88.58</ele>
        <time>2013-05-31T12:18:20Z</time>
      </trkpt>
      <trkpt lat="41.570099000" lon="1.879056000">
        <ele>89.06</ele>
        <time>2013-05-31T12:18:22Z</time>
      </trkpt>
      <trkpt lat="41.569889000" lon="1.879455000">
        <ele>89.54</ele>
        <time>2013-05-31T12:18:29Z</time>
      </trkpt>
      <trkpt lat="41.569729000" lon="1.879627000">
        <ele>90.02</ele>
        <time>2013-05-31T12:18:33Z</time>
      </trkpt>
      <trkpt lat="41.569218000" lon="1.880028000">
        <ele>93.39</ele>
        <time>2013-05-31T12:18:47Z</time>
      </trkpt>
      <trkpt lat="41.568741000" lon="1.880435000">
        <ele>96.27</ele>
        <time>2013-05-31T12:19:03Z</time>
      </trkpt>
      <trkpt lat="41.568417000" lon="1.880724000">
        <ele>98.67</ele>
        <time>2013-05-31T12:19:16Z</time>
      </trkpt>
      <trkpt lat="41.568035000" lon="1.880675000">
        <ele>98.67</ele>
        <time>2013-05-31T12:19:27Z</time>
      </trkpt>
      <trkpt lat="41.567719000" lon="1.880359000">
        <ele>98.19</ele>
        <time>2013-05-31T12:19:37Z</time>
      </trkpt>
      <trkpt lat="41.567589000" lon="1.880227000">
        <ele>96.75</ele>
        <time>2013-05-31T12:19:41Z</time>
      </trkpt>
      <trkpt lat="41.567348000" lon="1.880363000">
        <ele>95.31</ele>
        <time>2013-05-31T12:19:47Z</time>
      </trkpt>
      <trkpt lat="41.567173000" lon="1.880541000">
        <ele>94.35</ele>
        <time>2013-05-31T12:19:51Z</time>
      </trkpt>
      <trkpt lat="41.566875000" lon="1.880476000">
        <ele>91.46</ele>
        <time>2013-05-31T12:19:57Z</time>
      </trkpt>
      <trkpt lat="41.566830000" lon="1.880458000">
        <ele>90.98</ele>
        <time>2013-05-31T12:19:58Z</time>
      </trkpt>
      <trkpt lat="41.566696000" lon="1.880412000">
        <ele>90.50</ele>
        <time>2013-05-31T12:20:06Z</time>
      </trkpt>
      <trkpt lat="41.566635000" lon="1.880377000">
        <ele>90.02</ele>
        <time>2013-05-31T12:20:21Z</time>
      </trkpt>
      <trkpt lat="41.566471000" lon="1.880463000">
        <ele>89.54</ele>
        <time>2013-05-31T12:20:25Z</time>
      </trkpt>
      <trkpt lat="41.565727000" lon="1.880924000">
        <ele>90.02</ele>
        <time>2013-05-31T12:20:38Z</time>
      </trkpt>
      <trkpt lat="41.564651000" lon="1.881430000">
        <ele>90.02</ele>
        <time>2013-05-31T12:20:54Z</time>
      </trkpt>
      <trkpt lat="41.563732000" lon="1.881761000">
        <ele>89.06</ele>
        <time>2013-05-31T12:21:08Z</time>
      </trkpt>
      <trkpt lat="41.563328000" lon="1.881835000">
        <ele>87.62</ele>
        <time>2013-05-31T12:21:13Z</time>
      </trkpt>
      <trkpt lat="41.562328000" lon="1.881669000">
        <ele>87.14</ele>
        <time>2013-05-31T12:21:24Z</time>
      </trkpt>
      <trkpt lat="41.561577000" lon="1.881424000">
        <ele>91.94</ele>
        <time>2013-05-31T12:21:34Z</time>
      </trkpt>
      <trkpt lat="41.560505000" lon="1.881184000">
        <ele>92.90</ele>
        <time>2013-05-31T12:21:50Z</time>
      </trkpt>
      <trkpt lat="41.559490000" lon="1.881130000">
        <ele>94.83</ele>
        <time>2013-05-31T12:22:05Z</time>
      </trkpt>
      <trkpt lat="41.558323000" lon="1.880975000">
        <ele>98.19</ele>
        <time>2013-05-31T12:22:22Z</time>
      </trkpt>
      <trkpt lat="41.557484000" lon="1.880399000">
        <ele>100.11</ele>
        <time>2013-05-31T12:22:36Z</time>
      </trkpt>
      <trkpt lat="41.556728000" lon="1.879702000">
        <ele>101.08</ele>
        <time>2013-05-31T12:22:50Z</time>
      </trkpt>
      <trkpt lat="41.555943000" lon="1.879184000">
        <ele>101.08</ele>
        <time>2013-05-31T12:23:04Z</time>
      </trkpt>
      <trkpt lat="41.555340000" lon="1.878865000">
        <ele>99.63</ele>
        <time>2013-05-31T12:23:14Z</time>
      </trkpt>
      <trkpt lat="41.555210000" lon="1.878812000">
        <ele>100.11</ele>
        <time>2013-05-31T12:23:16Z</time>
      </trkpt>
      <trkpt lat="41.554939000" lon="1.878777000">
        <ele>100.11</ele>
        <time>2013-05-31T12:23:20Z</time>
      </trkpt>
      <trkpt lat="41.554150000" lon="1.878742000">
        <ele>98.67</ele>
        <time>2013-05-31T12:23:31Z</time>
      </trkpt>
      <trkpt lat="41.553913000" lon="1.879159000">
        <ele>99.15</ele>
        <time>2013-05-31T12:23:37Z</time>
      </trkpt>
      <trkpt lat="41.553917000" lon="1.879242000">
        <ele>100.60</ele>
        <time>2013-05-31T12:23:38Z</time>
      </trkpt>
      <trkpt lat="41.553947000" lon="1.879495000">
        <ele>103.96</ele>
        <time>2013-05-31T12:23:42Z</time>
      </trkpt>
      <trkpt lat="41.553955000" lon="1.879549000">
        <ele>103.96</ele>
        <time>2013-05-31T12:23:43Z</time>
      </trkpt>
      <trkpt lat="41.553989000" lon="1.879780000">
        <ele>106.84</ele>
        <time>2013-05-31T12:23:48Z</time>
      </trkpt>
      <trkpt lat="41.553997000" lon="1.879819000">
        <ele>107.32</ele>
        <time>2013-05-31T12:23:49Z</time>
      </trkpt>
      <trkpt lat="41.554050000" lon="1.880084000">
        <ele>109.25</ele>
        <time>2013-05-31T12:23:56Z</time>
      </trkpt>
      <trkpt lat="41.554089000" lon="1.880282000">
        <ele>107.32</ele>
        <time>2013-05-31T12:23:59Z</time>
      </trkpt>
      <trkpt lat="41.554066000" lon="1.880499000">
        <ele>104.92</ele>
        <time>2013-05-31T12:24:02Z</time>
      </trkpt>
      <trkpt lat="41.553909000" lon="1.880603000">
        <ele>104.44</ele>
        <time>2013-05-31T12:24:05Z</time>
      </trkpt>
      <trkpt lat="41.553696000" lon="1.880657000">
        <ele>104.92</ele>
        <time>2013-05-31T12:24:09Z</time>
      </trkpt>
      <trkpt lat="41.553394000" lon="1.880725000">
        <ele>103.96</ele>
        <time>2013-05-31T12:24:14Z</time>
      </trkpt>
      <trkpt lat="41.552448000" lon="1.880812000">
        <ele>103.96</ele>
        <time>2013-05-31T12:24:27Z</time>
      </trkpt>
      <trkpt lat="41.552193000" lon="1.880837000">
        <ele>104.44</ele>
        <time>2013-05-31T12:24:31Z</time>
      </trkpt>
      <trkpt lat="41.551682000" lon="1.880939000">
        <ele>103.96</ele>
        <time>2013-05-31T12:24:40Z</time>
      </trkpt>
      <trkpt lat="41.551579000" lon="1.880998000">
        <ele>104.44</ele>
        <time>2013-05-31T12:24:42Z</time>
      </trkpt>
      <trkpt lat="41.551392000" lon="1.881182000">
        <ele>103.96</ele>
        <time>2013-05-31T12:24:46Z</time>
      </trkpt>
      <trkpt lat="41.551250000" lon="1.881332000">
        <ele>104.44</ele>
        <time>2013-05-31T12:24:49Z</time>
      </trkpt>
      <trkpt lat="41.550549000" lon="1.882102000">
        <ele>103.48</ele>
        <time>2013-05-31T12:25:02Z</time>
      </trkpt>
      <trkpt lat="41.549652000" lon="1.883108000">
        <ele>103.48</ele>
        <time>2013-05-31T12:25:16Z</time>
      </trkpt>
      <trkpt lat="41.549534000" lon="1.883262000">
        <ele>103.48</ele>
        <time>2013-05-31T12:25:18Z</time>
      </trkpt>
      <trkpt lat="41.549160000" lon="1.883426000">
        <ele>103.48</ele>
        <time>2013-05-31T12:25:24Z</time>
      </trkpt>
      <trkpt lat="41.548977000" lon="1.883541000">
        <ele>102.52</ele>
        <time>2013-05-31T12:25:27Z</time>
      </trkpt>
      <trkpt lat="41.548012000" lon="1.883724000">
        <ele>100.11</ele>
        <time>2013-05-31T12:25:40Z</time>
      </trkpt>
      <trkpt lat="41.547295000" lon="1.883842000">
        <ele>99.15</ele>
        <time>2013-05-31T12:25:53Z</time>
      </trkpt>
      <trkpt lat="41.546696000" lon="1.883967000">
        <ele>98.67</ele>
        <time>2013-05-31T12:26:04Z</time>
      </trkpt>
      <trkpt lat="41.546452000" lon="1.884160000">
        <ele>98.67</ele>
        <time>2013-05-31T12:26:13Z</time>
      </trkpt>
      <trkpt lat="41.546452000" lon="1.884322000">
        <ele>99.15</ele>
        <time>2013-05-31T12:26:17Z</time>
      </trkpt>
      <trkpt lat="41.546455000" lon="1.884681000">
        <ele>99.63</ele>
        <time>2013-05-31T12:26:26Z</time>
      </trkpt>
      <trkpt lat="41.546394000" lon="1.884773000">
        <ele>100.11</ele>
        <time>2013-05-31T12:26:30Z</time>
      </trkpt>
      <trkpt lat="41.546158000" lon="1.885056000">
        <ele>100.60</ele>
        <time>2013-05-31T12:26:41Z</time>
      </trkpt>
      <trkpt lat="41.546074000" lon="1.885167000">
        <ele>100.60</ele>
        <time>2013-05-31T12:26:44Z</time>
      </trkpt>
      <trkpt lat="41.545879000" lon="1.885377000">
        <ele>100.60</ele>
        <time>2013-05-31T12:26:50Z</time>
      </trkpt>
      <trkpt lat="41.545708000" lon="1.885587000">
        <ele>101.56</ele>
        <time>2013-05-31T12:26:56Z</time>
      </trkpt>
      <trkpt lat="41.545616000" lon="1.885693000">
        <ele>101.56</ele>
        <time>2013-05-31T12:26:59Z</time>
      </trkpt>
      <trkpt lat="41.545288000" lon="1.886084000">
        <ele>102.04</ele>
        <time>2013-05-31T12:27:11Z</time>
      </trkpt>
      <trkpt lat="41.545219000" lon="1.886162000">
        <ele>101.56</ele>
        <time>2013-05-31T12:27:14Z</time>
      </trkpt>
      <trkpt lat="41.545010000" lon="1.886185000">
        <ele>101.08</ele>
        <time>2013-05-31T12:27:24Z</time>
      </trkpt>
      <trkpt lat="41.544945000" lon="1.886224000">
        <ele>101.56</ele>
        <time>2013-05-31T12:27:26Z</time>
      </trkpt>
      <trkpt lat="41.544857000" lon="1.886417000">
        <ele>101.08</ele>
        <time>2013-05-31T12:27:30Z</time>
      </trkpt>
      <trkpt lat="41.544491000" lon="1.887129000">
        <ele>101.08</ele>
        <time>2013-05-31T12:27:42Z</time>
      </trkpt>
      <trkpt lat="41.544525000" lon="1.887374000">
        <ele>102.52</ele>
        <time>2013-05-31T12:27:47Z</time>
      </trkpt>
      <trkpt lat="41.544910000" lon="1.887587000">
        <ele>106.36</ele>
        <time>2013-05-31T12:27:58Z</time>
      </trkpt>
      <trkpt lat="41.545090000" lon="1.887639000">
        <ele>107.81</ele>
        <time>2013-05-31T12:28:03Z</time>
      </trkpt>
      <trkpt lat="41.545010000" lon="1.888096000">
        <ele>106.84</ele>
        <time>2013-05-31T12:28:11Z</time>
      </trkpt>
      <trkpt lat="41.544975000" lon="1.888241000">
        <ele>105.88</ele>
        <time>2013-05-31T12:28:13Z</time>
      </trkpt>
      <trkpt lat="41.544949000" lon="1.888475000">
        <ele>105.88</ele>
        <time>2013-05-31T12:28:16Z</time>
      </trkpt>
      <trkpt lat="41.545109000" lon="1.889564000">
        <ele>104.44</ele>
        <time>2013-05-31T12:28:29Z</time>
      </trkpt>
      <trkpt lat="41.545063000" lon="1.889927000">
        <ele>104.44</ele>
        <time>2013-05-31T12:28:34Z</time>
      </trkpt>
      <trkpt lat="41.544930000" lon="1.890157000">
        <ele>104.44</ele>
        <time>2013-05-31T12:28:38Z</time>
      </trkpt>
      <trkpt lat="41.544853000" lon="1.890371000">
        <ele>104.44</ele>
        <time>2013-05-31T12:28:42Z</time>
      </trkpt>
      <trkpt lat="41.544872000" lon="1.890459000">
        <ele>104.92</ele>
        <time>2013-05-31T12:28:51Z</time>
      </trkpt>
      <trkpt lat="41.544872000" lon="1.890462000">
        <ele>104.92</ele>
        <time>2013-05-31T12:29:11Z</time>
      </trkpt>
      <trkpt lat="41.544838000" lon="1.890471000">
        <ele>104.44</ele>
        <time>2013-05-31T12:29:14Z</time>
      </trkpt>
      <trkpt lat="41.544754000" lon="1.890572000">
        <ele>105.40</ele>
        <time>2013-05-31T12:29:20Z</time>
      </trkpt>
      <trkpt lat="41.544804000" lon="1.890733000">
        <ele>105.88</ele>
        <time>2013-05-31T12:29:25Z</time>
      </trkpt>
      <trkpt lat="41.544903000" lon="1.890808000">
        <ele>106.36</ele>
        <time>2013-05-31T12:29:31Z</time>
      </trkpt>
      <trkpt lat="41.544926000" lon="1.890803000">
        <ele>106.36</ele>
        <time>2013-05-31T12:29:47Z</time>
      </trkpt>
    </trkseg>
  </trk>
</gpx>
